PWSweather.com
Personal Weather Stations
Station Observations
1A3COP
Copperhill Airport Community, Copperhill, TN 37317

Copperhill Airport CommunityCopperhill, TN 37317

Lat: 35.015465, Lon: -84.340598

Elevation: 1830

Station Type: Acurite Pro 5 in 1

High Low Average
Temperature 63.3°F17.4°C 37.8°F3.2°C 51.9°F11.1°C
Dew Point 53.2°F11.8°C 37.5°F3.1°C 48.2°F9.0°C
Winds 9.2 mph 14.8 kmh Calm Calm 4.0 mph SE6.4 kmh SE
Wind Gusts 13.8 mph22.2 kmh -- 5.0 mph8.0 kmh
Humidity 99% 67% 88%
Pressure 28.40 in961.7 mb 28.29 in958.0 mb -
Precipitation 0.01 in0.3 mm - -
Hour Temp Dew Point Humidity Winds Wind Gusts Pressure Precip Precip Rate Daily Precip Total
12:00 AM 39.9°F4.4°C 39.6°F4.2°C 99% Calm Calm -- 28.36 in960.4 mb - 0.00 in0.0 mm 0.00 in0.0 mm
12:01 AM 39.9°F4.4°C 39.6°F4.2°C 99% Calm Calm -- 28.36 in960.4 mb - 0.00 in0.0 mm 0.00 in0.0 mm
12:02 AM 39.9°F4.4°C 39.6°F4.2°C 99% Calm Calm -- 28.36 in960.4 mb - 0.00 in0.0 mm 0.00 in0.0 mm
12:03 AM 39.9°F4.4°C 39.6°F4.2°C 99% Calm Calm -- 28.36 in960.4 mb - 0.00 in0.0 mm 0.00 in0.0 mm
12:04 AM 39.7°F4.3°C 39.4°F4.1°C 99% Calm Calm -- 28.36 in960.4 mb - 0.00 in0.0 mm 0.00 in0.0 mm
12:05 AM 39.7°F4.3°C 39.4°F4.1°C 99% Calm Calm -- 28.36 in960.4 mb - 0.00 in0.0 mm 0.00 in0.0 mm
12:06 AM 39.7°F4.3°C 39.4°F4.1°C 99% Calm Calm -- 28.36 in960.4 mb - 0.00 in0.0 mm 0.00 in0.0 mm
12:07 AM 39.7°F4.3°C 39.4°F4.1°C 99% Calm Calm -- 28.36 in960.4 mb - 0.00 in0.0 mm 0.00 in0.0 mm
12:08 AM 39.6°F4.2°C 39.3°F4.1°C 99% Calm Calm -- 28.36 in960.4 mb - 0.00 in0.0 mm 0.00 in0.0 mm
12:09 AM 39.6°F4.2°C 39.3°F4.1°C 99% Calm Calm -- 28.36 in960.4 mb - 0.00 in0.0 mm 0.00 in0.0 mm
12:10 AM 39.6°F4.2°C 39.3°F4.1°C 99% Calm Calm -- 28.36 in960.4 mb - 0.00 in0.0 mm 0.00 in0.0 mm
12:11 AM 39.6°F4.2°C 39.3°F4.1°C 99% Calm Calm -- 28.36 in960.4 mb - 0.00 in0.0 mm 0.00 in0.0 mm
12:12 AM 39.6°F4.2°C 39.3°F4.1°C 99% Calm Calm -- 28.36 in960.4 mb - 0.00 in0.0 mm 0.00 in0.0 mm
12:13 AM 39.6°F4.2°C 39.3°F4.1°C 99% Calm Calm -- 28.36 in960.4 mb - 0.00 in0.0 mm 0.00 in0.0 mm
12:14 AM 39.6°F4.2°C 39.3°F4.1°C 99% Calm Calm -- 28.36 in960.4 mb - 0.00 in0.0 mm 0.00 in0.0 mm
12:15 AM 39.6°F4.2°C 39.3°F4.1°C 99% Calm Calm -- 28.36 in960.4 mb - 0.00 in0.0 mm 0.00 in0.0 mm
12:16 AM 39.6°F4.2°C 39.3°F4.1°C 99% Calm Calm -- 28.36 in960.4 mb - 0.00 in0.0 mm 0.00 in0.0 mm
12:17 AM 39.6°F4.2°C 39.3°F4.1°C 99% Calm Calm -- 28.36 in960.4 mb - 0.00 in0.0 mm 0.00 in0.0 mm
12:18 AM 39.6°F4.2°C 39.3°F4.1°C 99% Calm Calm -- 28.36 in960.4 mb - 0.00 in0.0 mm 0.00 in0.0 mm
12:19 AM 39.6°F4.2°C 39.3°F4.1°C 99% Calm Calm -- 28.36 in960.4 mb - 0.00 in0.0 mm 0.00 in0.0 mm
12:20 AM 39.6°F4.2°C 39.3°F4.1°C 99% Calm Calm -- 28.36 in960.4 mb - 0.00 in0.0 mm 0.00 in0.0 mm
12:21 AM 39.4°F4.1°C 39.1°F3.9°C 99% Calm Calm -- 28.36 in960.4 mb - 0.00 in0.0 mm 0.00 in0.0 mm
12:22 AM 39.4°F4.1°C 39.1°F3.9°C 99% Calm Calm -- 28.36 in960.4 mb - 0.00 in0.0 mm 0.00 in0.0 mm
12:23 AM 39.4°F4.1°C 39.1°F3.9°C 99% Calm Calm -- 28.36 in960.4 mb - 0.00 in0.0 mm 0.00 in0.0 mm
12:24 AM 39.4°F4.1°C 39.1°F3.9°C 99% Calm Calm -- 28.36 in960.4 mb - 0.00 in0.0 mm 0.00 in0.0 mm
12:25 AM 39.4°F4.1°C 39.1°F3.9°C 99% Calm Calm -- 28.36 in960.4 mb - 0.00 in0.0 mm 0.00 in0.0 mm
12:26 AM 39.2°F4.0°C 38.9°F3.8°C 99% Calm Calm -- 28.35 in960.0 mb - 0.00 in0.0 mm 0.00 in0.0 mm
12:27 AM 39.2°F4.0°C 38.9°F3.8°C 99% Calm Calm -- 28.35 in960.0 mb - 0.00 in0.0 mm 0.00 in0.0 mm
12:28 AM 39.2°F4.0°C 38.9°F3.8°C 99% Calm Calm -- 28.35 in960.0 mb - 0.00 in0.0 mm 0.00 in0.0 mm
12:29 AM 39.0°F3.9°C 38.7°F3.7°C 99% Calm Calm -- 28.35 in960.0 mb - 0.00 in0.0 mm 0.00 in0.0 mm
12:30 AM 39.0°F3.9°C 38.7°F3.7°C 99% Calm Calm -- 28.35 in960.0 mb - 0.00 in0.0 mm 0.00 in0.0 mm
12:31 AM 39.0°F3.9°C 38.7°F3.7°C 99% Calm Calm -- 28.35 in960.0 mb - 0.00 in0.0 mm 0.00 in0.0 mm
12:32 AM 39.0°F3.9°C 38.7°F3.7°C 99% Calm Calm -- 28.35 in960.0 mb - 0.00 in0.0 mm 0.00 in0.0 mm
12:33 AM 38.9°F3.8°C 38.6°F3.7°C 99% Calm Calm -- 28.35 in960.0 mb - 0.00 in0.0 mm 0.00 in0.0 mm
12:34 AM 38.8°F3.8°C 38.5°F3.6°C 99% Calm Calm -- 28.35 in960.0 mb - 0.00 in0.0 mm 0.00 in0.0 mm
12:35 AM 38.8°F3.8°C 38.5°F3.6°C 99% Calm Calm -- 28.35 in960.0 mb - 0.00 in0.0 mm 0.00 in0.0 mm
12:36 AM 38.8°F3.8°C 38.5°F3.6°C 99% Calm Calm -- 28.35 in960.0 mb - 0.00 in0.0 mm 0.00 in0.0 mm
12:37 AM 38.8°F3.8°C 38.5°F3.6°C 99% Calm Calm -- 28.35 in960.0 mb - 0.00 in0.0 mm 0.00 in0.0 mm
12:38 AM 38.7°F3.7°C 38.5°F3.6°C 99% Calm Calm -- 28.35 in960.0 mb - 0.00 in0.0 mm 0.00 in0.0 mm
12:39 AM 38.7°F3.7°C 38.4°F3.6°C 99% Calm Calm -- 28.35 in960.0 mb - 0.00 in0.0 mm 0.00 in0.0 mm
12:40 AM 38.6°F3.7°C 38.4°F3.6°C 99% Calm Calm -- 28.35 in960.0 mb - 0.00 in0.0 mm 0.00 in0.0 mm
12:41 AM 38.5°F3.6°C 38.2°F3.4°C 99% Calm Calm -- 28.35 in960.0 mb - 0.00 in0.0 mm 0.00 in0.0 mm
12:42 AM 38.4°F3.6°C 38.1°F3.4°C 99% Calm Calm -- 28.35 in960.0 mb - 0.00 in0.0 mm 0.00 in0.0 mm
12:43 AM 38.1°F3.4°C 37.9°F3.3°C 99% Calm Calm -- 28.35 in960.0 mb - 0.00 in0.0 mm 0.00 in0.0 mm
12:44 AM 38.1°F3.4°C 37.8°F3.2°C 99% Calm Calm -- 28.35 in960.0 mb - 0.00 in0.0 mm 0.00 in0.0 mm
12:45 AM 38.1°F3.4°C 37.8°F3.2°C 99% Calm Calm -- 28.35 in960.0 mb - 0.00 in0.0 mm 0.00 in0.0 mm
12:46 AM 38.1°F3.4°C 37.8°F3.2°C 99% Calm Calm -- 28.35 in960.0 mb - 0.00 in0.0 mm 0.00 in0.0 mm
12:47 AM 38.1°F3.4°C 37.8°F3.2°C 99% Calm Calm -- 28.35 in960.0 mb - 0.00 in0.0 mm 0.00 in0.0 mm
12:48 AM 38.1°F3.4°C 37.8°F3.2°C 99% Calm Calm -- 28.35 in960.0 mb - 0.00 in0.0 mm 0.00 in0.0 mm
12:49 AM 38.1°F3.4°C 37.8°F3.2°C 99% Calm Calm -- 28.35 in960.0 mb - 0.00 in0.0 mm 0.00 in0.0 mm
12:50 AM 38.1°F3.4°C 37.8°F3.2°C 99% Calm Calm -- 28.35 in960.0 mb - 0.00 in0.0 mm 0.00 in0.0 mm
12:51 AM 38.1°F3.4°C 37.8°F3.2°C 99% Calm Calm -- 28.35 in960.0 mb - 0.00 in0.0 mm 0.00 in0.0 mm
12:52 AM 38.1°F3.4°C 37.8°F3.2°C 99% Calm Calm -- 28.35 in960.0 mb - 0.00 in0.0 mm 0.00 in0.0 mm
12:53 AM 38.1°F3.4°C 37.8°F3.2°C 99% Calm Calm -- 28.35 in960.0 mb - 0.00 in0.0 mm 0.00 in0.0 mm
12:54 AM 38.1°F3.4°C 37.8°F3.2°C 99% Calm Calm -- 28.35 in960.0 mb - 0.00 in0.0 mm 0.00 in0.0 mm
12:55 AM 38.1°F3.4°C 37.8°F3.2°C 99% Calm Calm -- 28.35 in960.0 mb - 0.00 in0.0 mm 0.00 in0.0 mm
12:56 AM 38.1°F3.4°C 37.8°F3.2°C 99% Calm Calm -- 28.35 in960.0 mb - 0.00 in0.0 mm 0.00 in0.0 mm
12:57 AM 38.1°F3.4°C 37.8°F3.2°C 99% Calm Calm -- 28.35 in960.0 mb - 0.00 in0.0 mm 0.00 in0.0 mm
12:58 AM 38.1°F3.4°C 37.8°F3.2°C 99% Calm Calm -- 28.35 in960.0 mb - 0.00 in0.0 mm 0.00 in0.0 mm
12:59 AM 38.1°F3.4°C 37.8°F3.2°C 99% Calm Calm -- 28.35 in960.0 mb - 0.00 in0.0 mm 0.00 in0.0 mm
01:00 AM 38.1°F3.4°C 37.8°F3.2°C 99% Calm Calm -- 28.35 in960.0 mb - 0.00 in0.0 mm 0.00 in0.0 mm
01:01 AM 38.1°F3.4°C 37.8°F3.2°C 99% Calm Calm -- 28.35 in960.0 mb - 0.00 in0.0 mm 0.00 in0.0 mm
01:02 AM 37.9°F3.3°C 37.7°F3.2°C 99% Calm Calm -- 28.35 in960.0 mb - 0.00 in0.0 mm 0.00 in0.0 mm
01:03 AM 37.9°F3.3°C 37.6°F3.1°C 99% Calm Calm -- 28.35 in960.0 mb - 0.00 in0.0 mm 0.00 in0.0 mm
01:04 AM 37.8°F3.2°C 37.6°F3.1°C 99% Calm Calm -- 28.35 in960.0 mb - 0.00 in0.0 mm 0.00 in0.0 mm
01:05 AM 37.8°F3.2°C 37.5°F3.1°C 99% Calm Calm -- 28.35 in960.0 mb - 0.00 in0.0 mm 0.00 in0.0 mm
01:06 AM 37.8°F3.2°C 37.5°F3.1°C 99% Calm Calm -- 28.35 in960.0 mb - 0.00 in0.0 mm 0.00 in0.0 mm
01:07 AM 37.8°F3.2°C 37.5°F3.1°C 99% Calm Calm -- 28.35 in960.0 mb - 0.00 in0.0 mm 0.00 in0.0 mm
01:08 AM 37.8°F3.2°C 37.5°F3.1°C 99% Calm Calm -- 28.35 in960.0 mb - 0.00 in0.0 mm 0.00 in0.0 mm
01:09 AM 37.8°F3.2°C 37.5°F3.1°C 99% Calm Calm -- 28.35 in960.0 mb - 0.00 in0.0 mm 0.00 in0.0 mm
01:10 AM 37.8°F3.2°C 37.5°F3.1°C 99% Calm Calm -- 28.35 in960.0 mb - 0.00 in0.0 mm 0.00 in0.0 mm
01:11 AM 37.8°F3.2°C 37.5°F3.1°C 99% Calm Calm -- 28.35 in960.0 mb - 0.00 in0.0 mm 0.00 in0.0 mm
01:12 AM 37.8°F3.2°C 37.5°F3.1°C 99% Calm Calm -- 28.35 in960.0 mb - 0.00 in0.0 mm 0.00 in0.0 mm
01:13 AM 37.8°F3.2°C 37.5°F3.1°C 99% Calm Calm -- 28.35 in960.0 mb - 0.00 in0.0 mm 0.00 in0.0 mm
01:14 AM 37.8°F3.2°C 37.5°F3.1°C 99% Calm Calm -- 28.35 in960.0 mb - 0.00 in0.0 mm 0.00 in0.0 mm
01:15 AM 37.8°F3.2°C 37.5°F3.1°C 99% Calm Calm -- 28.35 in960.0 mb - 0.00 in0.0 mm 0.00 in0.0 mm
01:16 AM 37.8°F3.2°C 37.5°F3.1°C 99% Calm Calm -- 28.35 in960.0 mb - 0.00 in0.0 mm 0.00 in0.0 mm
01:17 AM 37.9°F3.3°C 37.6°F3.1°C 99% Calm Calm -- 28.35 in960.0 mb - 0.00 in0.0 mm 0.00 in0.0 mm
01:18 AM 37.9°F3.3°C 37.6°F3.1°C 99% Calm Calm -- 28.35 in960.0 mb - 0.00 in0.0 mm 0.00 in0.0 mm
01:19 AM 37.9°F3.3°C 37.6°F3.1°C 99% Calm Calm -- 28.35 in960.0 mb - 0.00 in0.0 mm 0.00 in0.0 mm
01:20 AM 38.0°F3.3°C 37.7°F3.2°C 99% Calm Calm -- 28.35 in960.0 mb - 0.00 in0.0 mm 0.00 in0.0 mm
01:21 AM 38.1°F3.4°C 37.8°F3.2°C 99% Calm Calm -- 28.35 in960.0 mb - 0.00 in0.0 mm 0.00 in0.0 mm
01:22 AM 38.1°F3.4°C 37.8°F3.2°C 99% Calm Calm -- 28.35 in960.0 mb - 0.00 in0.0 mm 0.00 in0.0 mm
01:23 AM 38.1°F3.4°C 37.8°F3.2°C 99% Calm Calm -- 28.35 in960.0 mb - 0.00 in0.0 mm 0.00 in0.0 mm
01:24 AM 38.1°F3.4°C 37.8°F3.2°C 99% Calm Calm -- 28.35 in960.0 mb - 0.00 in0.0 mm 0.00 in0.0 mm
01:25 AM 38.1°F3.4°C 37.8°F3.2°C 99% Calm Calm -- 28.35 in960.0 mb - 0.00 in0.0 mm 0.00 in0.0 mm
01:26 AM 38.1°F3.4°C 37.8°F3.2°C 99% Calm Calm -- 28.35 in960.0 mb - 0.00 in0.0 mm 0.00 in0.0 mm
01:27 AM 38.1°F3.4°C 37.8°F3.2°C 99% Calm Calm -- 28.35 in960.0 mb - 0.00 in0.0 mm 0.00 in0.0 mm
01:28 AM 38.1°F3.4°C 37.8°F3.2°C 99% Calm Calm -- 28.35 in960.0 mb - 0.00 in0.0 mm 0.00 in0.0 mm
01:29 AM 38.1°F3.4°C 37.8°F3.2°C 99% Calm Calm -- 28.35 in960.0 mb - 0.00 in0.0 mm 0.00 in0.0 mm
01:30 AM 38.2°F3.4°C 37.9°F3.3°C 99% Calm Calm -- 28.35 in960.0 mb - 0.00 in0.0 mm 0.00 in0.0 mm
01:31 AM 38.3°F3.5°C 38.1°F3.4°C 99% Calm Calm -- 28.35 in960.0 mb - 0.00 in0.0 mm 0.00 in0.0 mm
01:32 AM 38.5°F3.6°C 38.2°F3.4°C 99% Calm Calm -- 28.35 in960.0 mb - 0.00 in0.0 mm 0.00 in0.0 mm
01:33 AM 38.6°F3.7°C 38.3°F3.5°C 99% Calm Calm -- 28.35 in960.0 mb - 0.00 in0.0 mm 0.00 in0.0 mm
01:34 AM 38.8°F3.8°C 38.5°F3.6°C 99% Calm Calm -- 28.35 in960.0 mb - 0.00 in0.0 mm 0.00 in0.0 mm
01:35 AM 38.8°F3.8°C 38.5°F3.6°C 99% Calm Calm -- 28.35 in960.0 mb - 0.00 in0.0 mm 0.00 in0.0 mm
01:36 AM 39.0°F3.9°C 38.7°F3.7°C 99% Calm Calm -- 28.35 in960.0 mb - 0.00 in0.0 mm 0.00 in0.0 mm
01:37 AM 39.0°F3.9°C 38.7°F3.7°C 99% Calm Calm -- 28.35 in960.0 mb - 0.00 in0.0 mm 0.00 in0.0 mm
01:38 AM 39.0°F3.9°C 38.7°F3.7°C 99% Calm Calm -- 28.35 in960.0 mb - 0.00 in0.0 mm 0.00 in0.0 mm
01:39 AM 39.0°F3.9°C 38.7°F3.7°C 99% Calm Calm -- 28.35 in960.0 mb - 0.00 in0.0 mm 0.00 in0.0 mm
01:40 AM 39.0°F3.9°C 38.7°F3.7°C 99% Calm Calm -- 28.35 in960.0 mb - 0.00 in0.0 mm 0.00 in0.0 mm
01:41 AM 39.0°F3.9°C 38.7°F3.7°C 99% Calm Calm -- 28.35 in960.0 mb - 0.00 in0.0 mm 0.00 in0.0 mm
01:42 AM 39.0°F3.9°C 38.8°F3.8°C 99% Calm Calm -- 28.35 in960.0 mb - 0.00 in0.0 mm 0.00 in0.0 mm
01:43 AM 39.2°F4.0°C 38.9°F3.8°C 99% Calm Calm -- 28.35 in960.0 mb - 0.00 in0.0 mm 0.00 in0.0 mm
01:44 AM 39.2°F4.0°C 39.0°F3.9°C 99% Calm Calm -- 28.35 in960.0 mb - 0.00 in0.0 mm 0.00 in0.0 mm
01:45 AM 39.4°F4.1°C 39.1°F3.9°C 99% Calm Calm -- 28.35 in960.0 mb - 0.00 in0.0 mm 0.00 in0.0 mm
01:46 AM 39.4°F4.1°C 39.1°F3.9°C 99% Calm Calm -- 28.35 in960.0 mb - 0.00 in0.0 mm 0.00 in0.0 mm
01:47 AM 39.6°F4.2°C 39.3°F4.1°C 99% Calm Calm -- 28.35 in960.0 mb - 0.00 in0.0 mm 0.00 in0.0 mm
01:48 AM 39.6°F4.2°C 39.3°F4.1°C 99% Calm Calm -- 28.35 in960.0 mb - 0.00 in0.0 mm 0.00 in0.0 mm
01:49 AM 39.6°F4.2°C 39.3°F4.1°C 99% Calm Calm -- 28.35 in960.0 mb - 0.00 in0.0 mm 0.00 in0.0 mm
01:50 AM 39.7°F4.3°C 39.4°F4.1°C 99% Calm Calm -- 28.34 in959.7 mb - 0.00 in0.0 mm 0.00 in0.0 mm
01:51 AM 39.7°F4.3°C 39.4°F4.1°C 99% Calm Calm -- 28.34 in959.7 mb - 0.00 in0.0 mm 0.00 in0.0 mm
01:52 AM 39.7°F4.3°C 39.4°F4.1°C 99% Calm Calm -- 28.34 in959.7 mb - 0.00 in0.0 mm 0.00 in0.0 mm
01:53 AM 39.7°F4.3°C 39.4°F4.1°C 99% Calm Calm -- 28.34 in959.7 mb - 0.00 in0.0 mm 0.00 in0.0 mm
01:54 AM 39.9°F4.4°C 39.6°F4.2°C 99% Calm Calm -- 28.34 in959.7 mb - 0.00 in0.0 mm 0.00 in0.0 mm
01:55 AM 39.9°F4.4°C 39.6°F4.2°C 99% Calm Calm -- 28.34 in959.7 mb - 0.00 in0.0 mm 0.00 in0.0 mm
01:56 AM 40.0°F4.4°C 39.7°F4.3°C 99% Calm Calm -- 28.34 in959.7 mb - 0.00 in0.0 mm 0.00 in0.0 mm
01:57 AM 40.1°F4.5°C 39.8°F4.3°C 99% Calm Calm -- 28.34 in959.7 mb - 0.00 in0.0 mm 0.00 in0.0 mm
01:58 AM 40.1°F4.5°C 39.8°F4.3°C 99% Calm Calm -- 28.34 in959.7 mb - 0.00 in0.0 mm 0.00 in0.0 mm
01:59 AM 40.1°F4.5°C 39.8°F4.3°C 99% Calm Calm -- 28.34 in959.7 mb - 0.00 in0.0 mm 0.00 in0.0 mm
02:00 AM 40.1°F4.5°C 39.9°F4.4°C 99% Calm Calm -- 28.34 in959.7 mb - 0.00 in0.0 mm 0.00 in0.0 mm
02:01 AM 40.3°F4.6°C 40.0°F4.4°C 99% Calm Calm -- 28.35 in960.0 mb - 0.00 in0.0 mm 0.00 in0.0 mm
02:02 AM 40.3°F4.6°C 40.0°F4.4°C 99% Calm Calm -- 28.35 in960.0 mb - 0.00 in0.0 mm 0.00 in0.0 mm
02:03 AM 40.3°F4.6°C 40.0°F4.4°C 99% Calm Calm -- 28.35 in960.0 mb - 0.00 in0.0 mm 0.00 in0.0 mm
02:04 AM 40.3°F4.6°C 40.0°F4.4°C 99% Calm Calm -- 28.35 in960.0 mb - 0.00 in0.0 mm 0.00 in0.0 mm
02:05 AM 40.3°F4.6°C 40.0°F4.4°C 99% Calm Calm -- 28.35 in960.0 mb - 0.00 in0.0 mm 0.00 in0.0 mm
02:06 AM 40.3°F4.6°C 40.0°F4.4°C 99% Calm Calm -- 28.35 in960.0 mb - 0.00 in0.0 mm 0.00 in0.0 mm
02:07 AM 40.3°F4.6°C 40.0°F4.4°C 99% Calm Calm -- 28.35 in960.0 mb - 0.00 in0.0 mm 0.00 in0.0 mm
02:08 AM 40.3°F4.6°C 40.0°F4.4°C 99% Calm Calm -- 28.35 in960.0 mb - 0.00 in0.0 mm 0.00 in0.0 mm
02:09 AM 40.3°F4.6°C 40.0°F4.4°C 99% Calm Calm -- 28.35 in960.0 mb - 0.00 in0.0 mm 0.00 in0.0 mm
02:10 AM 40.3°F4.6°C 40.0°F4.4°C 99% Calm Calm -- 28.35 in960.0 mb - 0.00 in0.0 mm 0.00 in0.0 mm
02:11 AM 40.3°F4.6°C 40.1°F4.5°C 99% Calm Calm -- 28.35 in960.0 mb - 0.00 in0.0 mm 0.00 in0.0 mm
02:12 AM 40.5°F4.7°C 40.2°F4.6°C 99% Calm Calm -- 28.35 in960.0 mb - 0.00 in0.0 mm 0.00 in0.0 mm
02:13 AM 40.5°F4.7°C 40.2°F4.6°C 99% Calm Calm -- 28.35 in960.0 mb - 0.00 in0.0 mm 0.00 in0.0 mm
02:14 AM 40.5°F4.7°C 40.2°F4.6°C 99% Calm Calm -- 28.34 in959.7 mb - 0.00 in0.0 mm 0.00 in0.0 mm
02:15 AM 40.6°F4.8°C 40.3°F4.6°C 99% Calm Calm -- 28.34 in959.7 mb - 0.00 in0.0 mm 0.00 in0.0 mm
02:16 AM 40.6°F4.8°C 40.3°F4.6°C 99% Calm Calm -- 28.34 in959.7 mb - 0.00 in0.0 mm 0.00 in0.0 mm
02:17 AM 40.7°F4.8°C 40.4°F4.7°C 99% Calm Calm -- 28.34 in959.7 mb - 0.00 in0.0 mm 0.00 in0.0 mm
02:18 AM 40.8°F4.9°C 40.5°F4.7°C 99% Calm Calm -- 28.34 in959.7 mb - 0.00 in0.0 mm 0.00 in0.0 mm
02:19 AM 40.8°F4.9°C 40.5°F4.7°C 99% Calm Calm -- 28.34 in959.7 mb - 0.00 in0.0 mm 0.00 in0.0 mm
02:20 AM 40.9°F4.9°C 40.7°F4.8°C 99% Calm Calm -- 28.34 in959.7 mb - 0.00 in0.0 mm 0.00 in0.0 mm
02:21 AM 41.0°F5.0°C 40.7°F4.8°C 99% Calm Calm -- 28.34 in959.7 mb - 0.00 in0.0 mm 0.00 in0.0 mm
02:22 AM 41.0°F5.0°C 40.7°F4.8°C 99% Calm Calm -- 28.34 in959.7 mb - 0.00 in0.0 mm 0.00 in0.0 mm
02:23 AM 41.1°F5.1°C 40.8°F4.9°C 99% Calm Calm -- 28.34 in959.7 mb - 0.00 in0.0 mm 0.00 in0.0 mm
02:24 AM 41.2°F5.1°C 40.9°F4.9°C 99% Calm Calm -- 28.34 in959.7 mb - 0.00 in0.0 mm 0.00 in0.0 mm
02:25 AM 41.3°F5.2°C 41.1°F5.1°C 99% Calm Calm -- 28.34 in959.7 mb - 0.00 in0.0 mm 0.00 in0.0 mm
02:26 AM 41.4°F5.2°C 41.1°F5.1°C 99% Calm Calm -- 28.34 in959.7 mb - 0.00 in0.0 mm 0.00 in0.0 mm
02:27 AM 41.5°F5.3°C 41.2°F5.1°C 99% Calm Calm -- 28.34 in959.7 mb - 0.00 in0.0 mm 0.00 in0.0 mm
02:28 AM 41.5°F5.3°C 41.2°F5.1°C 99% Calm Calm -- 28.34 in959.7 mb - 0.00 in0.0 mm 0.00 in0.0 mm
02:29 AM 41.5°F5.3°C 41.2°F5.1°C 99% Calm Calm -- 28.34 in959.7 mb - 0.00 in0.0 mm 0.00 in0.0 mm
02:30 AM 41.6°F5.3°C 41.4°F5.2°C 99% Calm Calm -- 28.34 in959.7 mb - 0.00 in0.0 mm 0.00 in0.0 mm
02:31 AM 41.7°F5.4°C 41.4°F5.2°C 99% Calm Calm -- 28.34 in959.7 mb - 0.00 in0.0 mm 0.00 in0.0 mm
02:32 AM 41.7°F5.4°C 41.4°F5.2°C 99% Calm Calm -- 28.34 in959.7 mb - 0.00 in0.0 mm 0.00 in0.0 mm
02:33 AM 41.7°F5.4°C 41.4°F5.2°C 99% Calm Calm -- 28.34 in959.7 mb - 0.00 in0.0 mm 0.00 in0.0 mm
02:34 AM 41.9°F5.5°C 41.6°F5.3°C 99% Calm Calm -- 28.34 in959.7 mb - 0.00 in0.0 mm 0.00 in0.0 mm
02:35 AM 41.9°F5.5°C 41.6°F5.3°C 99% Calm Calm -- 28.34 in959.7 mb - 0.00 in0.0 mm 0.00 in0.0 mm
02:36 AM 41.9°F5.5°C 41.6°F5.3°C 99% Calm Calm -- 28.34 in959.7 mb - 0.00 in0.0 mm 0.00 in0.0 mm
02:37 AM 41.9°F5.5°C 41.6°F5.3°C 99% Calm Calm -- 28.34 in959.7 mb - 0.00 in0.0 mm 0.00 in0.0 mm
02:38 AM 41.9°F5.5°C 41.6°F5.3°C 99% Calm Calm -- 28.34 in959.7 mb - 0.00 in0.0 mm 0.00 in0.0 mm
02:39 AM 41.9°F5.5°C 41.6°F5.3°C 99% Calm Calm -- 28.34 in959.7 mb - 0.00 in0.0 mm 0.00 in0.0 mm
02:40 AM 41.9°F5.5°C 41.6°F5.3°C 99% Calm Calm -- 28.34 in959.7 mb - 0.00 in0.0 mm 0.00 in0.0 mm
02:41 AM 41.9°F5.5°C 41.6°F5.3°C 99% Calm Calm -- 28.34 in959.7 mb - 0.00 in0.0 mm 0.00 in0.0 mm
02:42 AM 41.9°F5.5°C 41.6°F5.3°C 99% Calm Calm -- 28.34 in959.7 mb - 0.00 in0.0 mm 0.00 in0.0 mm
02:43 AM 41.9°F5.5°C 41.6°F5.3°C 99% Calm Calm -- 28.34 in959.7 mb - 0.00 in0.0 mm 0.00 in0.0 mm
02:44 AM 41.9°F5.5°C 41.6°F5.3°C 99% Calm Calm -- 28.34 in959.7 mb - 0.00 in0.0 mm 0.00 in0.0 mm
02:45 AM 41.9°F5.5°C 41.6°F5.3°C 99% Calm Calm -- 28.34 in959.7 mb - 0.00 in0.0 mm 0.00 in0.0 mm
02:46 AM 41.9°F5.5°C 41.6°F5.3°C 99% Calm Calm -- 28.34 in959.7 mb - 0.00 in0.0 mm 0.00 in0.0 mm
02:47 AM 41.9°F5.5°C 41.6°F5.3°C 99% Calm Calm -- 28.34 in959.7 mb - 0.00 in0.0 mm 0.00 in0.0 mm
02:48 AM 41.9°F5.5°C 41.6°F5.3°C 99% Calm Calm -- 28.34 in959.7 mb - 0.00 in0.0 mm 0.00 in0.0 mm
02:49 AM 41.9°F5.5°C 41.6°F5.3°C 99% Calm Calm -- 28.34 in959.7 mb - 0.00 in0.0 mm 0.00 in0.0 mm
02:50 AM 41.9°F5.5°C 41.6°F5.3°C 99% Calm Calm -- 28.34 in959.7 mb - 0.00 in0.0 mm 0.00 in0.0 mm
02:51 AM 41.9°F5.5°C 41.6°F5.3°C 99% Calm Calm -- 28.34 in959.7 mb - 0.00 in0.0 mm 0.00 in0.0 mm
02:52 AM 41.9°F5.5°C 41.6°F5.3°C 99% Calm Calm -- 28.34 in959.7 mb - 0.00 in0.0 mm 0.00 in0.0 mm
02:53 AM 41.9°F5.5°C 41.6°F5.3°C 99% Calm Calm -- 28.34 in959.7 mb - 0.00 in0.0 mm 0.00 in0.0 mm
02:54 AM 41.9°F5.5°C 41.6°F5.3°C 99% Calm Calm -- 28.34 in959.7 mb - 0.00 in0.0 mm 0.00 in0.0 mm
02:55 AM 41.9°F5.5°C 41.6°F5.3°C 99% Calm Calm -- 28.34 in959.7 mb - 0.00 in0.0 mm 0.00 in0.0 mm
02:56 AM 42.0°F5.6°C 41.8°F5.4°C 99% Calm Calm -- 28.34 in959.7 mb - 0.00 in0.0 mm 0.00 in0.0 mm
02:57 AM 42.1°F5.6°C 41.8°F5.4°C 99% Calm Calm -- 28.34 in959.7 mb - 0.00 in0.0 mm 0.00 in0.0 mm
02:58 AM 42.1°F5.6°C 41.8°F5.4°C 99% Calm Calm -- 28.34 in959.7 mb - 0.00 in0.0 mm 0.00 in0.0 mm
02:59 AM 42.1°F5.6°C 41.8°F5.4°C 99% Calm Calm -- 28.34 in959.7 mb - 0.00 in0.0 mm 0.00 in0.0 mm
03:00 AM 42.1°F5.6°C 41.8°F5.4°C 99% Calm Calm -- 28.34 in959.7 mb - 0.00 in0.0 mm 0.00 in0.0 mm
03:01 AM 42.1°F5.6°C 41.8°F5.4°C 99% Calm Calm -- 28.34 in959.7 mb - 0.00 in0.0 mm 0.00 in0.0 mm
03:02 AM 42.2°F5.7°C 41.9°F5.5°C 99% Calm Calm -- 28.34 in959.7 mb - 0.00 in0.0 mm 0.00 in0.0 mm
03:03 AM 42.3°F5.7°C 42.1°F5.6°C 99% Calm Calm -- 28.34 in959.7 mb - 0.00 in0.0 mm 0.00 in0.0 mm
03:04 AM 42.4°F5.8°C 42.1°F5.6°C 99% Calm Calm -- 28.34 in959.7 mb - 0.00 in0.0 mm 0.00 in0.0 mm
03:05 AM 42.4°F5.8°C 42.1°F5.6°C 99% Calm Calm -- 28.34 in959.7 mb - 0.00 in0.0 mm 0.00 in0.0 mm
03:06 AM 42.4°F5.8°C 42.1°F5.6°C 99% Calm Calm -- 28.34 in959.7 mb - 0.00 in0.0 mm 0.00 in0.0 mm
03:07 AM 42.4°F5.8°C 42.1°F5.6°C 99% Calm Calm -- 28.34 in959.7 mb - 0.00 in0.0 mm 0.00 in0.0 mm
03:08 AM 42.6°F5.9°C 42.3°F5.7°C 99% Calm Calm -- 28.34 in959.7 mb - 0.00 in0.0 mm 0.00 in0.0 mm
03:09 AM 42.6°F5.9°C 42.4°F5.8°C 99% Calm Calm -- 28.34 in959.7 mb - 0.00 in0.0 mm 0.00 in0.0 mm
03:10 AM 42.9°F6.1°C 42.7°F5.9°C 99% Calm Calm -- 28.34 in959.7 mb - 0.00 in0.0 mm 0.00 in0.0 mm
03:11 AM 43.0°F6.1°C 42.7°F5.9°C 99% Calm Calm -- 28.34 in959.7 mb - 0.00 in0.0 mm 0.00 in0.0 mm
03:12 AM 43.1°F6.2°C 42.9°F6.1°C 99% Calm Calm -- 28.34 in959.7 mb - 0.00 in0.0 mm 0.00 in0.0 mm
03:13 AM 43.2°F6.2°C 42.9°F6.1°C 99% Calm Calm -- 28.34 in959.7 mb - 0.00 in0.0 mm 0.00 in0.0 mm
03:14 AM 43.2°F6.2°C 42.9°F6.1°C 99% Calm Calm -- 28.34 in959.7 mb - 0.00 in0.0 mm 0.00 in0.0 mm
03:15 AM 43.3°F6.3°C 43.0°F6.1°C 99% Calm Calm -- 28.34 in959.7 mb - 0.00 in0.0 mm 0.00 in0.0 mm
03:16 AM 43.3°F6.3°C 43.0°F6.1°C 99% Calm Calm -- 28.34 in959.7 mb - 0.00 in0.0 mm 0.00 in0.0 mm
03:17 AM 43.3°F6.3°C 43.0°F6.1°C 99% Calm Calm -- 28.34 in959.7 mb - 0.00 in0.0 mm 0.00 in0.0 mm
03:18 AM 43.3°F6.3°C 43.0°F6.1°C 99% Calm Calm -- 28.34 in959.7 mb - 0.00 in0.0 mm 0.00 in0.0 mm
03:19 AM 43.6°F6.4°C 43.3°F6.3°C 99% Calm Calm -- 28.34 in959.7 mb - 0.00 in0.0 mm 0.00 in0.0 mm
03:20 AM 43.7°F6.5°C 43.4°F6.3°C 99% Calm Calm -- 28.34 in959.7 mb - 0.00 in0.0 mm 0.00 in0.0 mm
03:21 AM 43.7°F6.5°C 43.4°F6.3°C 99% Calm Calm -- 28.34 in959.7 mb - 0.00 in0.0 mm 0.00 in0.0 mm
03:22 AM 43.5°F6.4°C 43.2°F6.2°C 99% Calm Calm -- 28.34 in959.7 mb - 0.00 in0.0 mm 0.00 in0.0 mm
03:23 AM 43.5°F6.4°C 43.2°F6.2°C 99% Calm Calm -- 28.34 in959.7 mb - 0.00 in0.0 mm 0.00 in0.0 mm
03:24 AM 43.5°F6.4°C 43.2°F6.2°C 99% Calm Calm -- 28.34 in959.7 mb - 0.00 in0.0 mm 0.00 in0.0 mm
03:25 AM 43.5°F6.4°C 43.2°F6.2°C 99% Calm Calm -- 28.35 in960.0 mb - 0.00 in0.0 mm 0.00 in0.0 mm
03:26 AM 43.5°F6.4°C 43.2°F6.2°C 99% Calm Calm -- 28.35 in960.0 mb - 0.00 in0.0 mm 0.00 in0.0 mm
03:27 AM 43.5°F6.4°C 43.2°F6.2°C 99% Calm Calm -- 28.35 in960.0 mb - 0.00 in0.0 mm 0.00 in0.0 mm
03:28 AM 43.4°F6.3°C 43.1°F6.2°C 99% Calm Calm -- 28.35 in960.0 mb - 0.00 in0.0 mm 0.00 in0.0 mm
03:29 AM 43.3°F6.3°C 43.0°F6.1°C 99% Calm Calm -- 28.35 in960.0 mb - 0.00 in0.0 mm 0.00 in0.0 mm
03:30 AM 43.2°F6.2°C 42.9°F6.1°C 99% Calm Calm -- 28.35 in960.0 mb - 0.00 in0.0 mm 0.00 in0.0 mm
03:31 AM 43.0°F6.1°C 42.7°F5.9°C 99% Calm Calm -- 28.35 in960.0 mb - 0.00 in0.0 mm 0.00 in0.0 mm
03:32 AM 42.8°F6.0°C 42.6°F5.9°C 99% Calm Calm -- 28.35 in960.0 mb - 0.00 in0.0 mm 0.00 in0.0 mm
03:33 AM 42.7°F5.9°C 42.4°F5.8°C 99% Calm Calm -- 28.35 in960.0 mb - 0.00 in0.0 mm 0.00 in0.0 mm
03:34 AM 42.5°F5.8°C 42.2°F5.7°C 99% Calm Calm 3.5 mph5.6 kmh 28.35 in960.0 mb - 0.00 in0.0 mm 0.00 in0.0 mm
03:35 AM 42.3°F5.7°C 42.1°F5.6°C 99% 2.3 mph N3.7 kmh N 3.5 mph5.6 kmh 28.35 in960.0 mb - 0.00 in0.0 mm 0.00 in0.0 mm
03:36 AM 42.2°F5.7°C 41.9°F5.5°C 99% 2.3 mph SE3.7 kmh SE 2.3 mph3.7 kmh 28.35 in960.0 mb - 0.00 in0.0 mm 0.00 in0.0 mm
03:37 AM 42.1°F5.6°C 41.8°F5.4°C 99% Calm Calm -- 28.35 in960.0 mb - 0.00 in0.0 mm 0.00 in0.0 mm
03:38 AM 42.1°F5.6°C 41.8°F5.4°C 99% Calm Calm 2.3 mph3.7 kmh 28.35 in960.0 mb - 0.00 in0.0 mm 0.00 in0.0 mm
03:39 AM 42.1°F5.6°C 41.8°F5.4°C 99% 2.3 mph N3.7 kmh N 3.5 mph5.6 kmh 28.35 in960.0 mb - 0.00 in0.0 mm 0.00 in0.0 mm
03:40 AM 41.9°F5.5°C 41.7°F5.4°C 99% 2.3 mph N3.7 kmh N 2.3 mph3.7 kmh 28.35 in960.0 mb - 0.00 in0.0 mm 0.00 in0.0 mm
03:41 AM 41.8°F5.4°C 41.5°F5.3°C 99% 2.3 mph NNW3.7 kmh NNW 2.3 mph3.7 kmh 28.35 in960.0 mb - 0.00 in0.0 mm 0.00 in0.0 mm
03:42 AM 41.7°F5.4°C 41.4°F5.2°C 99% 1.2 mph SW1.9 kmh SW 1.2 mph1.9 kmh 28.35 in960.0 mb - 0.00 in0.0 mm 0.00 in0.0 mm
03:43 AM 41.7°F5.4°C 41.4°F5.2°C 99% Calm Calm -- 28.35 in960.0 mb - 0.00 in0.0 mm 0.00 in0.0 mm
03:44 AM 41.5°F5.3°C 41.2°F5.1°C 99% Calm Calm -- 28.35 in960.0 mb - 0.00 in0.0 mm 0.00 in0.0 mm
03:45 AM 41.5°F5.3°C 41.2°F5.1°C 99% Calm Calm -- 28.35 in960.0 mb - 0.00 in0.0 mm 0.00 in0.0 mm
03:46 AM 41.5°F5.3°C 41.2°F5.1°C 99% Calm Calm -- 28.35 in960.0 mb - 0.00 in0.0 mm 0.00 in0.0 mm
03:47 AM 41.5°F5.3°C 41.2°F5.1°C 99% Calm Calm -- 28.35 in960.0 mb - 0.00 in0.0 mm 0.00 in0.0 mm
03:48 AM 41.5°F5.3°C 41.2°F5.1°C 99% Calm Calm -- 28.35 in960.0 mb - 0.00 in0.0 mm 0.00 in0.0 mm
03:49 AM 41.5°F5.3°C 41.2°F5.1°C 99% Calm Calm -- 28.35 in960.0 mb - 0.00 in0.0 mm 0.00 in0.0 mm
03:50 AM 41.5°F5.3°C 41.2°F5.1°C 99% Calm Calm -- 28.34 in959.7 mb - 0.00 in0.0 mm 0.00 in0.0 mm
03:51 AM 41.5°F5.3°C 41.2°F5.1°C 99% Calm Calm -- 28.34 in959.7 mb - 0.00 in0.0 mm 0.00 in0.0 mm
03:52 AM 41.5°F5.3°C 41.2°F5.1°C 99% Calm Calm -- 28.34 in959.7 mb - 0.00 in0.0 mm 0.00 in0.0 mm
03:53 AM 41.5°F5.3°C 41.2°F5.1°C 99% Calm Calm 3.5 mph5.6 kmh 28.34 in959.7 mb - 0.00 in0.0 mm 0.00 in0.0 mm
03:54 AM 41.4°F5.2°C 41.1°F5.1°C 99% 2.3 mph NW3.7 kmh NW 3.5 mph5.6 kmh 28.34 in959.7 mb - 0.00 in0.0 mm 0.00 in0.0 mm
03:55 AM 41.2°F5.1°C 40.9°F4.9°C 99% 3.5 mph WNW5.6 kmh WNW 3.5 mph5.6 kmh 28.34 in959.7 mb - 0.00 in0.0 mm 0.00 in0.0 mm
03:56 AM 41.2°F5.1°C 40.9°F4.9°C 99% 3.5 mph NW5.6 kmh NW 3.5 mph5.6 kmh 28.34 in959.7 mb - 0.00 in0.0 mm 0.00 in0.0 mm
03:57 AM 41.2°F5.1°C 40.9°F4.9°C 99% 3.5 mph NNW5.6 kmh NNW 3.5 mph5.6 kmh 28.34 in959.7 mb - 0.00 in0.0 mm 0.00 in0.0 mm
03:58 AM 41.0°F5.0°C 40.7°F4.8°C 99% 3.5 mph NNW5.6 kmh NNW 3.5 mph5.6 kmh 28.34 in959.7 mb - 0.00 in0.0 mm 0.00 in0.0 mm
03:59 AM 41.0°F5.0°C 40.7°F4.8°C 99% 3.5 mph NW5.6 kmh NW 3.5 mph5.6 kmh 28.34 in959.7 mb - 0.00 in0.0 mm 0.00 in0.0 mm
04:00 AM 41.0°F5.0°C 40.7°F4.8°C 99% 2.3 mph N3.7 kmh N 3.5 mph5.6 kmh 28.34 in959.7 mb - 0.00 in0.0 mm 0.00 in0.0 mm
04:01 AM 41.0°F5.0°C 40.7°F4.8°C 99% 2.3 mph W3.7 kmh W 3.5 mph5.6 kmh 28.34 in959.7 mb - 0.00 in0.0 mm 0.00 in0.0 mm
04:02 AM 41.0°F5.0°C 40.7°F4.8°C 99% 3.5 mph NW5.6 kmh NW 3.5 mph5.6 kmh 28.34 in959.7 mb - 0.00 in0.0 mm 0.00 in0.0 mm
04:03 AM 41.0°F5.0°C 40.7°F4.8°C 99% 3.5 mph NW5.6 kmh NW 4.6 mph7.4 kmh 28.34 in959.7 mb - 0.00 in0.0 mm 0.00 in0.0 mm
04:04 AM 41.0°F5.0°C 40.7°F4.8°C 99% 3.5 mph NNW5.6 kmh NNW 3.5 mph5.6 kmh 28.34 in959.7 mb - 0.00 in0.0 mm 0.00 in0.0 mm
04:05 AM 41.1°F5.1°C 40.9°F4.9°C 99% 3.5 mph WNW5.6 kmh WNW 3.5 mph5.6 kmh 28.34 in959.7 mb - 0.00 in0.0 mm 0.00 in0.0 mm
04:06 AM 41.4°F5.2°C 41.1°F5.1°C 99% 2.3 mph NNW3.7 kmh NNW 2.3 mph3.7 kmh 28.34 in959.7 mb - 0.00 in0.0 mm 0.00 in0.0 mm
04:07 AM 41.4°F5.2°C 41.1°F5.1°C 99% 2.3 mph NE3.7 kmh NE 2.3 mph3.7 kmh 28.34 in959.7 mb - 0.00 in0.0 mm 0.00 in0.0 mm
04:08 AM 41.4°F5.2°C 41.1°F5.1°C 99% 1.2 mph NW1.9 kmh NW 2.3 mph3.7 kmh 28.34 in959.7 mb - 0.00 in0.0 mm 0.00 in0.0 mm
04:09 AM 41.4°F5.2°C 41.2°F5.1°C 99% Calm Calm -- 28.34 in959.7 mb - 0.00 in0.0 mm 0.00 in0.0 mm
04:10 AM 41.5°F5.3°C 41.2°F5.1°C 99% Calm Calm -- 28.34 in959.7 mb - 0.00 in0.0 mm 0.00 in0.0 mm
04:11 AM 41.6°F5.3°C 41.4°F5.2°C 99% Calm Calm -- 28.34 in959.7 mb - 0.00 in0.0 mm 0.00 in0.0 mm
04:12 AM 42.0°F5.6°C 41.7°F5.4°C 99% Calm Calm 2.3 mph3.7 kmh 28.34 in959.7 mb - 0.00 in0.0 mm 0.00 in0.0 mm
04:13 AM 42.1°F5.6°C 41.8°F5.4°C 99% 1.2 mph ESE1.9 kmh ESE 2.3 mph3.7 kmh 28.34 in959.7 mb - 0.00 in0.0 mm 0.00 in0.0 mm
04:14 AM 42.1°F5.6°C 41.8°F5.4°C 99% 1.2 mph ESE1.9 kmh ESE 1.2 mph1.9 kmh 28.34 in959.7 mb - 0.00 in0.0 mm 0.00 in0.0 mm
04:15 AM 42.3°F5.7°C 42.0°F5.6°C 99% 1.2 mph SE1.9 kmh SE 2.3 mph3.7 kmh 28.34 in959.7 mb - 0.00 in0.0 mm 0.00 in0.0 mm
04:16 AM 42.6°F5.9°C 42.4°F5.8°C 99% 1.2 mph SE1.9 kmh SE 2.3 mph3.7 kmh 28.34 in959.7 mb - 0.00 in0.0 mm 0.00 in0.0 mm
04:17 AM 42.9°F6.1°C 42.6°F5.9°C 99% 2.3 mph SE3.7 kmh SE 2.3 mph3.7 kmh 28.34 in959.7 mb - 0.00 in0.0 mm 0.00 in0.0 mm
04:18 AM 43.2°F6.2°C 42.9°F6.1°C 99% 2.3 mph SE3.7 kmh SE 2.3 mph3.7 kmh 28.34 in959.7 mb - 0.00 in0.0 mm 0.00 in0.0 mm
04:19 AM 43.4°F6.3°C 43.2°F6.2°C 99% 2.3 mph SSE3.7 kmh SSE 4.6 mph7.4 kmh 28.34 in959.7 mb - 0.00 in0.0 mm 0.00 in0.0 mm
04:20 AM 43.9°F6.6°C 43.6°F6.4°C 99% 3.5 mph E5.6 kmh E 4.6 mph7.4 kmh 28.34 in959.7 mb - 0.00 in0.0 mm 0.00 in0.0 mm
04:21 AM 44.2°F6.8°C 43.9°F6.6°C 99% 3.5 mph SSE5.6 kmh SSE 5.8 mph9.3 kmh 28.34 in959.7 mb - 0.00 in0.0 mm 0.00 in0.0 mm
04:22 AM 44.6°F7.0°C 44.4°F6.9°C 99% 3.5 mph ESE5.6 kmh ESE 5.8 mph9.3 kmh 28.34 in959.7 mb - 0.00 in0.0 mm 0.00 in0.0 mm
04:23 AM 45.0°F7.2°C 44.7°F7.1°C 99% 2.3 mph S3.7 kmh S 2.3 mph3.7 kmh 28.34 in959.7 mb - 0.00 in0.0 mm 0.00 in0.0 mm
04:24 AM 45.3°F7.4°C 45.0°F7.2°C 99% 2.3 mph SSE3.7 kmh SSE 3.5 mph5.6 kmh 28.34 in959.7 mb - 0.00 in0.0 mm 0.00 in0.0 mm
04:25 AM 45.6°F7.6°C 45.3°F7.4°C 99% 3.5 mph WSW5.6 kmh WSW 4.6 mph7.4 kmh 28.34 in959.7 mb - 0.00 in0.0 mm 0.00 in0.0 mm
04:26 AM 45.7°F7.6°C 45.4°F7.4°C 99% 2.3 mph SE3.7 kmh SE 2.3 mph3.7 kmh 28.34 in959.7 mb - 0.00 in0.0 mm 0.00 in0.0 mm
04:27 AM 45.9°F7.7°C 45.6°F7.6°C 99% 2.3 mph E3.7 kmh E 2.3 mph3.7 kmh 28.34 in959.7 mb - 0.00 in0.0 mm 0.00 in0.0 mm
04:28 AM 45.9°F7.7°C 45.6°F7.6°C 99% Calm Calm -- 28.34 in959.7 mb - 0.00 in0.0 mm 0.00 in0.0 mm
04:29 AM 45.9°F7.7°C 45.6°F7.6°C 99% Calm Calm -- 28.34 in959.7 mb - 0.00 in0.0 mm 0.00 in0.0 mm
04:30 AM 45.7°F7.6°C 45.4°F7.4°C 99% Calm Calm 2.3 mph3.7 kmh 28.34 in959.7 mb - 0.00 in0.0 mm 0.00 in0.0 mm
04:31 AM 45.9°F7.7°C 45.6°F7.6°C 99% 1.2 mph ESE1.9 kmh ESE 5.8 mph9.3 kmh 28.34 in959.7 mb - 0.00 in0.0 mm 0.00 in0.0 mm
04:32 AM 46.2°F7.9°C 46.0°F7.8°C 99% 3.5 mph SE5.6 kmh SE 5.8 mph9.3 kmh 28.34 in959.7 mb - 0.00 in0.0 mm 0.00 in0.0 mm
04:33 AM 46.6°F8.1°C 46.3°F7.9°C 99% 2.3 mph ESE3.7 kmh ESE 3.5 mph5.6 kmh 28.34 in959.7 mb - 0.00 in0.0 mm 0.00 in0.0 mm
04:34 AM 46.6°F8.1°C 46.3°F7.9°C 99% 2.3 mph SSW3.7 kmh SSW 2.3 mph3.7 kmh 28.34 in959.7 mb - 0.00 in0.0 mm 0.00 in0.0 mm
04:35 AM 46.9°F8.3°C 46.7°F8.2°C 99% 2.3 mph SE3.7 kmh SE 3.5 mph5.6 kmh 28.34 in959.7 mb - 0.00 in0.0 mm 0.00 in0.0 mm
04:36 AM 47.4°F8.6°C 47.2°F8.4°C 99% 3.5 mph SSE5.6 kmh SSE 5.8 mph9.3 kmh 28.34 in959.7 mb - 0.00 in0.0 mm 0.00 in0.0 mm
04:37 AM 47.8°F8.8°C 47.5°F8.6°C 99% 4.6 mph ESE7.4 kmh ESE 4.6 mph7.4 kmh 28.34 in959.7 mb - 0.00 in0.0 mm 0.00 in0.0 mm
04:38 AM 47.8°F8.8°C 47.5°F8.6°C 99% 2.3 mph ESE3.7 kmh ESE 4.6 mph7.4 kmh 28.34 in959.7 mb - 0.00 in0.0 mm 0.00 in0.0 mm
04:39 AM 47.8°F8.8°C 47.5°F8.6°C 99% 2.3 mph E3.7 kmh E 2.3 mph3.7 kmh 28.34 in959.7 mb - 0.00 in0.0 mm 0.00 in0.0 mm
04:40 AM 47.9°F8.8°C 47.6°F8.7°C 99% 2.3 mph S3.7 kmh S 2.3 mph3.7 kmh 28.34 in959.7 mb - 0.00 in0.0 mm 0.00 in0.0 mm
04:41 AM 48.0°F8.9°C 47.7°F8.7°C 99% 2.3 mph SE3.7 kmh SE 5.8 mph9.3 kmh 28.34 in959.7 mb - 0.00 in0.0 mm 0.00 in0.0 mm
04:42 AM 48.1°F8.9°C 47.8°F8.8°C 99% 3.5 mph SSE5.6 kmh SSE 5.8 mph9.3 kmh 28.34 in959.7 mb - 0.00 in0.0 mm 0.00 in0.0 mm
04:43 AM 48.2°F9.0°C 47.9°F8.8°C 99% 4.6 mph SSE7.4 kmh SSE 4.6 mph7.4 kmh 28.34 in959.7 mb - 0.00 in0.0 mm 0.00 in0.0 mm
04:44 AM 48.2°F9.0°C 47.9°F8.8°C 99% 2.3 mph SSE3.7 kmh SSE 2.3 mph3.7 kmh 28.34 in959.7 mb - 0.00 in0.0 mm 0.00 in0.0 mm
04:45 AM 48.1°F8.9°C 47.8°F8.8°C 99% 2.3 mph S3.7 kmh S 5.8 mph9.3 kmh 28.34 in959.7 mb - 0.00 in0.0 mm 0.00 in0.0 mm
04:46 AM 48.4°F9.1°C 48.1°F8.9°C 99% 4.6 mph S7.4 kmh S 5.8 mph9.3 kmh 28.34 in959.7 mb - 0.00 in0.0 mm 0.00 in0.0 mm
04:47 AM 48.4°F9.1°C 48.1°F8.9°C 99% 3.5 mph SSE5.6 kmh SSE 3.5 mph5.6 kmh 28.34 in959.7 mb - 0.00 in0.0 mm 0.00 in0.0 mm
04:48 AM 48.4°F9.1°C 48.1°F8.9°C 99% 2.3 mph SW3.7 kmh SW 4.6 mph7.4 kmh 28.34 in959.7 mb - 0.00 in0.0 mm 0.00 in0.0 mm
04:49 AM 48.4°F9.1°C 48.1°F8.9°C 99% 2.3 mph S3.7 kmh S 3.5 mph5.6 kmh 28.34 in959.7 mb - 0.00 in0.0 mm 0.00 in0.0 mm
04:50 AM 48.4°F9.1°C 48.1°F8.9°C 99% 3.5 mph SSE5.6 kmh SSE 4.6 mph7.4 kmh 28.34 in959.7 mb - 0.00 in0.0 mm 0.00 in0.0 mm
04:51 AM 48.4°F9.1°C 48.1°F8.9°C 99% 3.5 mph S5.6 kmh S 4.6 mph7.4 kmh 28.34 in959.7 mb - 0.00 in0.0 mm 0.00 in0.0 mm
04:52 AM 48.2°F9.0°C 47.9°F8.8°C 99% 2.3 mph SE3.7 kmh SE 3.5 mph5.6 kmh 28.34 in959.7 mb - 0.00 in0.0 mm 0.00 in0.0 mm
04:53 AM 48.2°F9.0°C 47.9°F8.8°C 99% 2.3 mph S3.7 kmh S 3.5 mph5.6 kmh 28.34 in959.7 mb - 0.00 in0.0 mm 0.00 in0.0 mm
04:54 AM 48.2°F9.0°C 47.9°F8.8°C 99% 3.5 mph S5.6 kmh S 3.5 mph5.6 kmh 28.34 in959.7 mb - 0.00 in0.0 mm 0.00 in0.0 mm
04:55 AM 47.8°F8.8°C 47.5°F8.6°C 99% 2.3 mph SSW3.7 kmh SSW 2.3 mph3.7 kmh 28.34 in959.7 mb - 0.00 in0.0 mm 0.00 in0.0 mm
04:56 AM 47.4°F8.6°C 47.2°F8.4°C 99% 2.3 mph S3.7 kmh S 2.3 mph3.7 kmh 28.34 in959.7 mb - 0.00 in0.0 mm 0.00 in0.0 mm
04:57 AM 47.1°F8.4°C 46.9°F8.3°C 99% 2.3 mph SSE3.7 kmh SSE 2.3 mph3.7 kmh 28.34 in959.7 mb - 0.00 in0.0 mm 0.00 in0.0 mm
04:58 AM 46.9°F8.3°C 46.6°F8.1°C 99% 2.3 mph SSW3.7 kmh SSW 3.5 mph5.6 kmh 28.34 in959.7 mb - 0.00 in0.0 mm 0.00 in0.0 mm
04:59 AM 46.8°F8.2°C 46.5°F8.1°C 99% 2.3 mph SSE3.7 kmh SSE 3.5 mph5.6 kmh 28.34 in959.7 mb - 0.00 in0.0 mm 0.00 in0.0 mm
05:00 AM 46.8°F8.2°C 46.5°F8.1°C 99% 2.3 mph SW3.7 kmh SW 2.3 mph3.7 kmh 28.34 in959.7 mb - 0.00 in0.0 mm 0.00 in0.0 mm
05:01 AM 46.8°F8.2°C 46.5°F8.1°C 99% 3.5 mph S5.6 kmh S 3.5 mph5.6 kmh 28.35 in960.0 mb - 0.00 in0.0 mm 0.00 in0.0 mm
05:02 AM 46.6°F8.1°C 46.4°F8.0°C 99% 3.5 mph S5.6 kmh S 3.5 mph5.6 kmh 28.35 in960.0 mb - 0.00 in0.0 mm 0.00 in0.0 mm
05:03 AM 46.5°F8.1°C 46.2°F7.9°C 99% 2.3 mph S3.7 kmh S 3.5 mph5.6 kmh 28.35 in960.0 mb - 0.00 in0.0 mm 0.00 in0.0 mm
05:04 AM 46.4°F8.0°C 46.1°F7.8°C 99% 2.3 mph S3.7 kmh S 3.5 mph5.6 kmh 28.35 in960.0 mb - 0.00 in0.0 mm 0.00 in0.0 mm
05:05 AM 46.4°F8.0°C 46.1°F7.8°C 99% 2.3 mph SSW3.7 kmh SSW 2.3 mph3.7 kmh 28.35 in960.0 mb - 0.00 in0.0 mm 0.00 in0.0 mm
05:06 AM 46.4°F8.0°C 46.1°F7.8°C 99% 2.3 mph SE3.7 kmh SE 3.5 mph5.6 kmh 28.35 in960.0 mb - 0.00 in0.0 mm 0.00 in0.0 mm
05:07 AM 46.4°F8.0°C 46.1°F7.8°C 99% 2.3 mph S3.7 kmh S 2.3 mph3.7 kmh 28.35 in960.0 mb - 0.00 in0.0 mm 0.00 in0.0 mm
05:08 AM 46.4°F8.0°C 46.1°F7.8°C 99% 2.3 mph SSE3.7 kmh SSE 2.3 mph3.7 kmh 28.35 in960.0 mb - 0.00 in0.0 mm 0.00 in0.0 mm
05:09 AM 46.5°F8.1°C 46.2°F7.9°C 99% 2.3 mph S3.7 kmh S 3.5 mph5.6 kmh 28.35 in960.0 mb - 0.00 in0.0 mm 0.00 in0.0 mm
05:10 AM 46.6°F8.1°C 46.3°F7.9°C 99% 3.5 mph S5.6 kmh S 3.5 mph5.6 kmh 28.35 in960.0 mb - 0.00 in0.0 mm 0.00 in0.0 mm
05:11 AM 46.6°F8.1°C 46.3°F7.9°C 99% 3.5 mph S5.6 kmh S 4.6 mph7.4 kmh 28.35 in960.0 mb - 0.00 in0.0 mm 0.00 in0.0 mm
05:12 AM 46.4°F8.0°C 46.2°F7.9°C 99% 3.5 mph S5.6 kmh S 2.3 mph3.7 kmh 28.35 in960.0 mb - 0.00 in0.0 mm 0.00 in0.0 mm
05:13 AM 46.4°F8.0°C 46.1°F7.8°C 99% 1.2 mph SSE1.9 kmh SSE 2.3 mph3.7 kmh 28.36 in960.4 mb - 0.00 in0.0 mm 0.00 in0.0 mm
05:14 AM 46.4°F8.0°C 46.1°F7.8°C 99% 2.3 mph SSW3.7 kmh SSW 3.5 mph5.6 kmh 28.36 in960.4 mb - 0.00 in0.0 mm 0.00 in0.0 mm
05:15 AM 46.4°F8.0°C 46.1°F7.8°C 99% 2.3 mph SW3.7 kmh SW 2.3 mph3.7 kmh 28.36 in960.4 mb - 0.00 in0.0 mm 0.00 in0.0 mm
05:16 AM 46.4°F8.0°C 46.1°F7.8°C 99% 2.3 mph WSW3.7 kmh WSW 3.5 mph5.6 kmh 28.36 in960.4 mb - 0.00 in0.0 mm 0.00 in0.0 mm
05:17 AM 46.4°F8.0°C 46.1°F7.8°C 99% 2.3 mph NNE3.7 kmh NNE 2.3 mph3.7 kmh 28.36 in960.4 mb - 0.00 in0.0 mm 0.00 in0.0 mm
05:18 AM 46.4°F8.0°C 46.1°F7.8°C 99% 1.2 mph SE1.9 kmh SE -- 28.36 in960.4 mb - 0.00 in0.0 mm 0.00 in0.0 mm
05:19 AM 46.4°F8.0°C 46.1°F7.8°C 99% Calm Calm -- 28.36 in960.4 mb - 0.00 in0.0 mm 0.00 in0.0 mm
05:20 AM 46.3°F7.9°C 46.1°F7.8°C 99% Calm Calm -- 28.36 in960.4 mb - 0.00 in0.0 mm 0.00 in0.0 mm
05:21 AM 46.2°F7.9°C 45.9°F7.7°C 99% Calm Calm -- 28.36 in960.4 mb - 0.00 in0.0 mm 0.00 in0.0 mm
05:22 AM 46.2°F7.9°C 45.9°F7.7°C 99% Calm Calm -- 28.36 in960.4 mb - 0.00 in0.0 mm 0.00 in0.0 mm
05:23 AM 46.2°F7.9°C 45.9°F7.7°C 99% Calm Calm -- 28.36 in960.4 mb - 0.00 in0.0 mm 0.00 in0.0 mm
05:24 AM 46.1°F7.8°C 45.8°F7.7°C 99% Calm Calm 2.3 mph3.7 kmh 28.36 in960.4 mb - 0.00 in0.0 mm 0.00 in0.0 mm
05:25 AM 46.0°F7.8°C 45.7°F7.6°C 99% 2.3 mph SSW3.7 kmh SSW 3.5 mph5.6 kmh 28.36 in960.4 mb - 0.00 in0.0 mm 0.00 in0.0 mm
05:26 AM 46.0°F7.8°C 45.7°F7.6°C 99% 2.3 mph SSE3.7 kmh SSE 2.3 mph3.7 kmh 28.36 in960.4 mb - 0.00 in0.0 mm 0.00 in0.0 mm
05:27 AM 45.9°F7.7°C 45.7°F7.6°C 99% 2.3 mph S3.7 kmh S 2.3 mph3.7 kmh 28.36 in960.4 mb - 0.00 in0.0 mm 0.00 in0.0 mm
05:28 AM 45.9°F7.7°C 45.6°F7.6°C 99% 2.3 mph S3.7 kmh S 2.3 mph3.7 kmh 28.36 in960.4 mb - 0.00 in0.0 mm 0.00 in0.0 mm
05:29 AM 45.8°F7.7°C 45.5°F7.5°C 99% 2.3 mph SSW3.7 kmh SSW 2.3 mph3.7 kmh 28.36 in960.4 mb - 0.00 in0.0 mm 0.00 in0.0 mm
05:30 AM 45.7°F7.6°C 45.4°F7.4°C 99% 2.3 mph S3.7 kmh S 2.3 mph3.7 kmh 28.36 in960.4 mb - 0.00 in0.0 mm 0.00 in0.0 mm
05:31 AM 45.5°F7.5°C 45.2°F7.3°C 99% 1.2 mph SE1.9 kmh SE 1.2 mph1.9 kmh 28.36 in960.4 mb - 0.00 in0.0 mm 0.00 in0.0 mm
05:32 AM 45.5°F7.5°C 45.2°F7.3°C 99% 1.2 mph ESE1.9 kmh ESE -- 28.36 in960.4 mb - 0.00 in0.0 mm 0.00 in0.0 mm
05:33 AM 45.4°F7.4°C 45.2°F7.3°C 99% Calm Calm 2.3 mph3.7 kmh 28.36 in960.4 mb - 0.00 in0.0 mm 0.00 in0.0 mm
05:34 AM 45.3°F7.4°C 45.0°F7.2°C 99% 2.3 mph S3.7 kmh S 2.3 mph3.7 kmh 28.36 in960.4 mb - 0.00 in0.0 mm 0.00 in0.0 mm
05:35 AM 45.1°F7.3°C 44.8°F7.1°C 99% 2.3 mph SE3.7 kmh SE 2.3 mph3.7 kmh 28.36 in960.4 mb - 0.00 in0.0 mm 0.00 in0.0 mm
05:36 AM 45.1°F7.3°C 44.8°F7.1°C 99% Calm Calm -- 28.36 in960.4 mb - 0.00 in0.0 mm 0.00 in0.0 mm
05:37 AM 45.3°F7.4°C 45.0°F7.2°C 99% Calm Calm -- 28.36 in960.4 mb - 0.00 in0.0 mm 0.00 in0.0 mm
05:38 AM 45.3°F7.4°C 45.0°F7.2°C 99% 1.2 mph SSW1.9 kmh SSW 2.3 mph3.7 kmh 28.36 in960.4 mb - 0.00 in0.0 mm 0.00 in0.0 mm
05:39 AM 45.3°F7.4°C 45.0°F7.2°C 99% 2.3 mph S3.7 kmh S 3.5 mph5.6 kmh 28.36 in960.4 mb - 0.00 in0.0 mm 0.00 in0.0 mm
05:40 AM 45.3°F7.4°C 45.0°F7.2°C 99% 3.5 mph ESE5.6 kmh ESE 4.6 mph7.4 kmh 28.36 in960.4 mb - 0.00 in0.0 mm 0.00 in0.0 mm
05:41 AM 45.7°F7.6°C 45.5°F7.5°C 99% 3.5 mph S5.6 kmh S 4.6 mph7.4 kmh 28.36 in960.4 mb - 0.00 in0.0 mm 0.00 in0.0 mm
05:42 AM 45.9°F7.7°C 45.6°F7.6°C 99% 2.3 mph SSE3.7 kmh SSE 4.6 mph7.4 kmh 28.36 in960.4 mb - 0.00 in0.0 mm 0.00 in0.0 mm
05:43 AM 46.0°F7.8°C 45.7°F7.6°C 99% 3.5 mph S5.6 kmh S 5.8 mph9.3 kmh 28.36 in960.4 mb - 0.00 in0.0 mm 0.00 in0.0 mm
05:44 AM 46.0°F7.8°C 45.7°F7.6°C 99% 4.6 mph S7.4 kmh S 4.6 mph7.4 kmh 28.36 in960.4 mb - 0.00 in0.0 mm 0.00 in0.0 mm
05:45 AM 46.0°F7.8°C 45.7°F7.6°C 99% 3.5 mph S5.6 kmh S 2.3 mph3.7 kmh 28.36 in960.4 mb - 0.00 in0.0 mm 0.00 in0.0 mm
05:46 AM 46.0°F7.8°C 45.7°F7.6°C 99% 2.3 mph SSE3.7 kmh SSE 4.6 mph7.4 kmh 28.36 in960.4 mb - 0.00 in0.0 mm 0.00 in0.0 mm
05:47 AM 46.2°F7.9°C 45.9°F7.7°C 99% 3.5 mph SSE5.6 kmh SSE 4.6 mph7.4 kmh 28.36 in960.4 mb - 0.00 in0.0 mm 0.00 in0.0 mm
05:48 AM 46.2°F7.9°C 45.9°F7.7°C 99% 2.3 mph ESE3.7 kmh ESE 2.3 mph3.7 kmh 28.36 in960.4 mb - 0.00 in0.0 mm 0.00 in0.0 mm
05:49 AM 46.0°F7.8°C 45.7°F7.6°C 99% 2.3 mph N3.7 kmh N 2.3 mph3.7 kmh 28.36 in960.4 mb - 0.00 in0.0 mm 0.00 in0.0 mm
05:50 AM 46.2°F7.9°C 45.9°F7.7°C 99% 2.3 mph ESE3.7 kmh ESE 2.3 mph3.7 kmh 28.36 in960.4 mb - 0.00 in0.0 mm 0.00 in0.0 mm
05:51 AM 46.4°F8.0°C 46.1°F7.8°C 99% 2.3 mph S3.7 kmh S 1.2 mph1.9 kmh 28.36 in960.4 mb - 0.00 in0.0 mm 0.00 in0.0 mm
05:52 AM 46.5°F8.1°C 46.2°F7.9°C 99% 1.2 mph SSE1.9 kmh SSE 5.8 mph9.3 kmh 28.36 in960.4 mb - 0.00 in0.0 mm 0.00 in0.0 mm
05:53 AM 46.8°F8.2°C 46.5°F8.1°C 99% 3.5 mph E5.6 kmh E 5.8 mph9.3 kmh 28.36 in960.4 mb - 0.00 in0.0 mm 0.00 in0.0 mm
05:54 AM 47.0°F8.3°C 46.7°F8.2°C 99% 3.5 mph E5.6 kmh E 3.5 mph5.6 kmh 28.36 in960.4 mb - 0.00 in0.0 mm 0.00 in0.0 mm
05:55 AM 47.3°F8.5°C 47.0°F8.3°C 99% 3.5 mph ENE5.6 kmh ENE 2.3 mph3.7 kmh 28.36 in960.4 mb - 0.00 in0.0 mm 0.00 in0.0 mm
05:56 AM 47.5°F8.6°C 47.3°F8.5°C 99% 3.5 mph SE5.6 kmh SE 4.6 mph7.4 kmh 28.36 in960.4 mb - 0.00 in0.0 mm 0.00 in0.0 mm
05:57 AM 47.8°F8.8°C 47.5°F8.6°C 99% 2.3 mph ESE3.7 kmh ESE 4.6 mph7.4 kmh 28.36 in960.4 mb - 0.00 in0.0 mm 0.00 in0.0 mm
05:58 AM 48.0°F8.9°C 47.7°F8.7°C 99% 2.3 mph SE3.7 kmh SE 4.6 mph7.4 kmh 28.36 in960.4 mb - 0.00 in0.0 mm 0.00 in0.0 mm
05:59 AM 48.3°F9.1°C 48.0°F8.9°C 99% 3.5 mph E5.6 kmh E 4.6 mph7.4 kmh 28.36 in960.4 mb - 0.00 in0.0 mm 0.00 in0.0 mm
06:00 AM 48.4°F9.1°C 48.1°F8.9°C 99% 3.5 mph ESE5.6 kmh ESE 3.5 mph5.6 kmh 28.36 in960.4 mb - 0.00 in0.0 mm 0.00 in0.0 mm
06:01 AM 48.4°F9.1°C 48.2°F9.0°C 99% 3.5 mph SSE5.6 kmh SSE 4.6 mph7.4 kmh 28.36 in960.4 mb - 0.00 in0.0 mm 0.00 in0.0 mm
06:02 AM 48.8°F9.3°C 48.5°F9.2°C 99% 4.6 mph S7.4 kmh S 4.6 mph7.4 kmh 28.36 in960.4 mb - 0.00 in0.0 mm 0.00 in0.0 mm
06:03 AM 48.9°F9.4°C 48.6°F9.2°C 99% 4.6 mph SE7.4 kmh SE 5.8 mph9.3 kmh 28.36 in960.4 mb - 0.00 in0.0 mm 0.00 in0.0 mm
06:04 AM 48.9°F9.4°C 48.6°F9.2°C 99% 3.5 mph SSW5.6 kmh SSW 3.5 mph5.6 kmh 28.36 in960.4 mb - 0.00 in0.0 mm 0.00 in0.0 mm
06:05 AM 49.1°F9.5°C 48.8°F9.3°C 99% 3.5 mph NE5.6 kmh NE 5.8 mph9.3 kmh 28.36 in960.4 mb - 0.00 in0.0 mm 0.00 in0.0 mm
06:06 AM 49.1°F9.5°C 48.9°F9.4°C 99% 3.5 mph ESE5.6 kmh ESE 5.8 mph9.3 kmh 28.36 in960.4 mb - 0.00 in0.0 mm 0.00 in0.0 mm
06:07 AM 49.3°F9.6°C 49.0°F9.4°C 99% 5.8 mph E9.3 kmh E 5.8 mph9.3 kmh 28.36 in960.4 mb - 0.00 in0.0 mm 0.00 in0.0 mm
06:08 AM 49.3°F9.6°C 49.0°F9.4°C 99% 4.6 mph E7.4 kmh E 5.8 mph9.3 kmh 28.36 in960.4 mb - 0.00 in0.0 mm 0.00 in0.0 mm
06:09 AM 49.4°F9.7°C 49.2°F9.6°C 99% 3.5 mph SE5.6 kmh SE 3.5 mph5.6 kmh 28.36 in960.4 mb - 0.00 in0.0 mm 0.00 in0.0 mm
06:10 AM 49.5°F9.7°C 49.2°F9.6°C 99% 2.3 mph SSE3.7 kmh SSE 5.8 mph9.3 kmh 28.36 in960.4 mb - 0.00 in0.0 mm 0.00 in0.0 mm
06:11 AM 49.5°F9.7°C 49.2°F9.6°C 99% 3.5 mph ESE5.6 kmh ESE 4.6 mph7.4 kmh 28.36 in960.4 mb - 0.00 in0.0 mm 0.00 in0.0 mm
06:12 AM 49.5°F9.7°C 49.2°F9.6°C 99% 2.3 mph E3.7 kmh E 3.5 mph5.6 kmh 28.36 in960.4 mb - 0.00 in0.0 mm 0.00 in0.0 mm
06:13 AM 49.5°F9.7°C 49.2°F9.6°C 99% 3.5 mph SSE5.6 kmh SSE 3.5 mph5.6 kmh 28.36 in960.4 mb - 0.00 in0.0 mm 0.00 in0.0 mm
06:14 AM 49.5°F9.7°C 49.2°F9.6°C 99% 2.3 mph ESE3.7 kmh ESE 2.3 mph3.7 kmh 28.36 in960.4 mb - 0.00 in0.0 mm 0.00 in0.0 mm
06:15 AM 49.5°F9.7°C 49.2°F9.6°C 99% 2.3 mph S3.7 kmh S 5.8 mph9.3 kmh 28.36 in960.4 mb - 0.00 in0.0 mm 0.00 in0.0 mm
06:16 AM 49.5°F9.7°C 49.2°F9.6°C 99% 3.5 mph SW5.6 kmh SW 5.8 mph9.3 kmh 28.36 in960.4 mb - 0.00 in0.0 mm 0.00 in0.0 mm
06:17 AM 49.5°F9.7°C 49.2°F9.6°C 99% 3.5 mph SW5.6 kmh SW 5.8 mph9.3 kmh 28.36 in960.4 mb - 0.00 in0.0 mm 0.00 in0.0 mm
06:18 AM 49.5°F9.7°C 49.2°F9.6°C 99% 3.5 mph SE5.6 kmh SE 3.5 mph5.6 kmh 28.36 in960.4 mb - 0.00 in0.0 mm 0.00 in0.0 mm
06:19 AM 49.6°F9.8°C 49.3°F9.6°C 99% 2.3 mph SE3.7 kmh SE 2.3 mph3.7 kmh 28.36 in960.4 mb - 0.00 in0.0 mm 0.00 in0.0 mm
06:20 AM 49.6°F9.8°C 49.3°F9.6°C 99% 2.3 mph SE3.7 kmh SE 2.3 mph3.7 kmh 28.36 in960.4 mb - 0.00 in0.0 mm 0.00 in0.0 mm
06:21 AM 49.6°F9.8°C 49.3°F9.6°C 99% 2.3 mph SE3.7 kmh SE 5.8 mph9.3 kmh 28.36 in960.4 mb - 0.00 in0.0 mm 0.00 in0.0 mm
06:22 AM 49.6°F9.8°C 49.3°F9.6°C 99% 3.5 mph ESE5.6 kmh ESE 4.6 mph7.4 kmh 28.36 in960.4 mb - 0.00 in0.0 mm 0.00 in0.0 mm
06:23 AM 49.8°F9.9°C 49.5°F9.7°C 99% 3.5 mph S5.6 kmh S 5.8 mph9.3 kmh 28.36 in960.4 mb - 0.00 in0.0 mm 0.00 in0.0 mm
06:24 AM 49.8°F9.9°C 49.5°F9.7°C 99% 4.6 mph S7.4 kmh S 5.8 mph9.3 kmh 28.36 in960.4 mb - 0.00 in0.0 mm 0.00 in0.0 mm
06:25 AM 49.8°F9.9°C 49.5°F9.7°C 99% 2.3 mph ESE3.7 kmh ESE 5.8 mph9.3 kmh 28.36 in960.4 mb - 0.00 in0.0 mm 0.00 in0.0 mm
06:26 AM 49.8°F9.9°C 49.5°F9.7°C 99% 3.5 mph SSE5.6 kmh SSE 5.8 mph9.3 kmh 28.36 in960.4 mb - 0.00 in0.0 mm 0.00 in0.0 mm
06:27 AM 49.9°F9.9°C 49.6°F9.8°C 99% 3.5 mph S5.6 kmh S 3.5 mph5.6 kmh 28.36 in960.4 mb - 0.00 in0.0 mm 0.00 in0.0 mm
06:28 AM 50.0°F10.0°C 49.7°F9.8°C 99% 3.5 mph SE5.6 kmh SE 4.6 mph7.4 kmh 28.36 in960.4 mb - 0.00 in0.0 mm 0.00 in0.0 mm
06:29 AM 50.0°F10.0°C 49.7°F9.8°C 99% 3.5 mph SSE5.6 kmh SSE 6.9 mph11.1 kmh 28.36 in960.4 mb - 0.00 in0.0 mm 0.00 in0.0 mm
06:30 AM 50.0°F10.0°C 49.7°F9.8°C 99% 4.6 mph SSE7.4 kmh SSE 5.8 mph9.3 kmh 28.36 in960.4 mb - 0.00 in0.0 mm 0.00 in0.0 mm
06:31 AM 50.0°F10.0°C 49.7°F9.8°C 99% 3.5 mph SE5.6 kmh SE 4.6 mph7.4 kmh 28.36 in960.4 mb - 0.00 in0.0 mm 0.00 in0.0 mm
06:32 AM 50.0°F10.0°C 49.7°F9.8°C 99% 3.5 mph S5.6 kmh S 3.5 mph5.6 kmh 28.36 in960.4 mb - 0.00 in0.0 mm 0.00 in0.0 mm
06:33 AM 50.0°F10.0°C 49.7°F9.8°C 99% 2.3 mph ESE3.7 kmh ESE 2.3 mph3.7 kmh 28.36 in960.4 mb - 0.00 in0.0 mm 0.00 in0.0 mm
06:34 AM 50.0°F10.0°C 49.7°F9.8°C 99% 2.3 mph ESE3.7 kmh ESE 3.5 mph5.6 kmh 28.36 in960.4 mb - 0.00 in0.0 mm 0.00 in0.0 mm
06:35 AM 50.0°F10.0°C 49.7°F9.8°C 99% 3.5 mph ESE5.6 kmh ESE 5.8 mph9.3 kmh 28.36 in960.4 mb - 0.00 in0.0 mm 0.00 in0.0 mm
06:36 AM 50.1°F10.1°C 49.8°F9.9°C 99% 4.6 mph SSE7.4 kmh SSE 5.8 mph9.3 kmh 28.36 in960.4 mb - 0.00 in0.0 mm 0.00 in0.0 mm
06:37 AM 50.2°F10.1°C 49.9°F9.9°C 99% 3.5 mph SSE5.6 kmh SSE 4.6 mph7.4 kmh 28.36 in960.4 mb - 0.00 in0.0 mm 0.00 in0.0 mm
06:38 AM 50.2°F10.1°C 49.9°F9.9°C 99% 3.5 mph SSE5.6 kmh SSE 5.8 mph9.3 kmh 28.36 in960.4 mb - 0.00 in0.0 mm 0.00 in0.0 mm
06:39 AM 50.2°F10.1°C 49.9°F9.9°C 99% 4.6 mph SE7.4 kmh SE 5.8 mph9.3 kmh 28.36 in960.4 mb - 0.00 in0.0 mm 0.00 in0.0 mm
06:40 AM 50.2°F10.1°C 49.7°F9.8°C 98% 3.5 mph SSE5.6 kmh SSE 4.6 mph7.4 kmh 28.36 in960.4 mb - 0.00 in0.0 mm 0.00 in0.0 mm
06:41 AM 50.2°F10.1°C 49.7°F9.8°C 98% 3.5 mph E5.6 kmh E 6.9 mph11.1 kmh 28.36 in960.4 mb - 0.00 in0.0 mm 0.00 in0.0 mm
06:42 AM 50.2°F10.1°C 49.7°F9.8°C 98% 4.6 mph SE7.4 kmh SE 4.6 mph7.4 kmh 28.36 in960.4 mb - 0.00 in0.0 mm 0.00 in0.0 mm
06:43 AM 50.2°F10.1°C 49.7°F9.8°C 98% 2.3 mph E3.7 kmh E 3.5 mph5.6 kmh 28.36 in960.4 mb - 0.00 in0.0 mm 0.00 in0.0 mm
06:44 AM 50.2°F10.1°C 49.7°F9.8°C 98% 2.3 mph E3.7 kmh E 3.5 mph5.6 kmh 28.36 in960.4 mb - 0.00 in0.0 mm 0.00 in0.0 mm
06:45 AM 50.2°F10.1°C 49.7°F9.8°C 98% 3.5 mph ESE5.6 kmh ESE 5.8 mph9.3 kmh 28.36 in960.4 mb - 0.00 in0.0 mm 0.00 in0.0 mm
06:46 AM 50.2°F10.1°C 49.7°F9.8°C 98% 3.5 mph E5.6 kmh E 4.6 mph7.4 kmh 28.36 in960.4 mb - 0.00 in0.0 mm 0.00 in0.0 mm
06:47 AM 50.2°F10.1°C 49.7°F9.8°C 98% 3.5 mph ESE5.6 kmh ESE 5.8 mph9.3 kmh 28.36 in960.4 mb - 0.00 in0.0 mm 0.00 in0.0 mm
06:48 AM 50.3°F10.2°C 49.8°F9.9°C 98% 5.8 mph SE9.3 kmh SE 8.1 mph13.0 kmh 28.36 in960.4 mb - 0.00 in0.0 mm 0.00 in0.0 mm
06:49 AM 50.4°F10.2°C 49.9°F9.9°C 98% 3.5 mph SE5.6 kmh SE 3.5 mph5.6 kmh 28.36 in960.4 mb - 0.00 in0.0 mm 0.00 in0.0 mm
06:50 AM 50.4°F10.2°C 49.9°F9.9°C 98% 2.3 mph E3.7 kmh E 4.6 mph7.4 kmh 28.36 in960.4 mb - 0.00 in0.0 mm 0.00 in0.0 mm
06:51 AM 50.4°F10.2°C 49.9°F9.9°C 98% 3.5 mph SSE5.6 kmh SSE 5.8 mph9.3 kmh 28.36 in960.4 mb - 0.00 in0.0 mm 0.00 in0.0 mm
06:52 AM 50.4°F10.2°C 49.9°F9.9°C 98% 4.6 mph SE7.4 kmh SE 4.6 mph7.4 kmh 28.36 in960.4 mb - 0.00 in0.0 mm 0.00 in0.0 mm
06:53 AM 50.5°F10.3°C 50.0°F10.0°C 98% 4.6 mph SE7.4 kmh SE 6.9 mph11.1 kmh 28.36 in960.4 mb - 0.00 in0.0 mm 0.00 in0.0 mm
06:54 AM 50.5°F10.3°C 50.0°F10.0°C 98% 4.6 mph SE7.4 kmh SE 4.6 mph7.4 kmh 28.36 in960.4 mb - 0.00 in0.0 mm 0.00 in0.0 mm
06:55 AM 50.5°F10.3°C 50.0°F10.0°C 98% 4.6 mph S7.4 kmh S 4.6 mph7.4 kmh 28.36 in960.4 mb - 0.00 in0.0 mm 0.00 in0.0 mm
06:56 AM 50.5°F10.3°C 50.0°F10.0°C 98% 3.5 mph E5.6 kmh E 8.1 mph13.0 kmh 28.36 in960.4 mb - 0.00 in0.0 mm 0.00 in0.0 mm
06:57 AM 50.5°F10.3°C 50.0°F10.0°C 98% 4.6 mph E7.4 kmh E 4.6 mph7.4 kmh 28.36 in960.4 mb - 0.00 in0.0 mm 0.00 in0.0 mm
06:58 AM 50.5°F10.3°C 50.0°F10.0°C 98% 3.5 mph SE5.6 kmh SE 3.5 mph5.6 kmh 28.36 in960.4 mb - 0.00 in0.0 mm 0.00 in0.0 mm
06:59 AM 50.5°F10.3°C 50.0°F10.0°C 98% 2.3 mph SE3.7 kmh SE 3.5 mph5.6 kmh 28.36 in960.4 mb - 0.00 in0.0 mm 0.00 in0.0 mm
07:00 AM 50.5°F10.3°C 50.0°F10.0°C 98% 2.3 mph E3.7 kmh E 3.5 mph5.6 kmh 28.36 in960.4 mb - 0.00 in0.0 mm 0.00 in0.0 mm
07:01 AM 50.5°F10.3°C 50.0°F10.0°C 98% 3.5 mph ESE5.6 kmh ESE 6.9 mph11.1 kmh 28.36 in960.4 mb - 0.00 in0.0 mm 0.00 in0.0 mm
07:02 AM 50.5°F10.3°C 50.0°F10.0°C 98% 3.5 mph SE5.6 kmh SE 4.6 mph7.4 kmh 28.36 in960.4 mb - 0.00 in0.0 mm 0.00 in0.0 mm
07:03 AM 50.5°F10.3°C 50.0°F10.0°C 98% 3.5 mph SE5.6 kmh SE 6.9 mph11.1 kmh 28.36 in960.4 mb - 0.00 in0.0 mm 0.00 in0.0 mm
07:04 AM 50.5°F10.3°C 49.7°F9.8°C 97% 3.5 mph S5.6 kmh S 3.5 mph5.6 kmh 28.36 in960.4 mb - 0.00 in0.0 mm 0.00 in0.0 mm
07:05 AM 50.5°F10.3°C 49.7°F9.8°C 97% 3.5 mph SSW5.6 kmh SSW 4.6 mph7.4 kmh 28.36 in960.4 mb - 0.00 in0.0 mm 0.00 in0.0 mm
07:06 AM 50.5°F10.3°C 49.7°F9.8°C 97% 3.5 mph SE5.6 kmh SE 4.6 mph7.4 kmh 28.36 in960.4 mb - 0.00 in0.0 mm 0.00 in0.0 mm
07:07 AM 50.7°F10.4°C 49.9°F9.9°C 97% 3.5 mph E5.6 kmh E 4.6 mph7.4 kmh 28.36 in960.4 mb - 0.00 in0.0 mm 0.00 in0.0 mm
07:08 AM 50.7°F10.4°C 49.9°F9.9°C 97% 3.5 mph SE5.6 kmh SE 5.8 mph9.3 kmh 28.36 in960.4 mb - 0.00 in0.0 mm 0.00 in0.0 mm
07:09 AM 50.7°F10.4°C 49.9°F9.9°C 97% 4.6 mph SE7.4 kmh SE 5.8 mph9.3 kmh 28.36 in960.4 mb - 0.00 in0.0 mm 0.00 in0.0 mm
07:10 AM 50.7°F10.4°C 49.9°F9.9°C 97% 2.3 mph ESE3.7 kmh ESE 4.6 mph7.4 kmh 28.36 in960.4 mb - 0.00 in0.0 mm 0.00 in0.0 mm
07:11 AM 50.7°F10.4°C 49.9°F9.9°C 97% 2.3 mph SE3.7 kmh SE 4.6 mph7.4 kmh 28.36 in960.4 mb - 0.00 in0.0 mm 0.00 in0.0 mm
07:12 AM 50.7°F10.4°C 49.9°F9.9°C 97% 3.5 mph SE5.6 kmh SE 6.9 mph11.1 kmh 28.36 in960.4 mb - 0.00 in0.0 mm 0.00 in0.0 mm
07:13 AM 50.7°F10.4°C 49.9°F9.9°C 97% 4.6 mph S7.4 kmh S 4.6 mph7.4 kmh 28.36 in960.4 mb - 0.00 in0.0 mm 0.00 in0.0 mm
07:14 AM 50.9°F10.5°C 50.1°F10.1°C 97% 3.5 mph ESE5.6 kmh ESE 4.6 mph7.4 kmh 28.36 in960.4 mb - 0.00 in0.0 mm 0.00 in0.0 mm
07:15 AM 50.9°F10.5°C 50.1°F10.1°C 97% 3.5 mph SE5.6 kmh SE 5.8 mph9.3 kmh 28.36 in960.4 mb - 0.00 in0.0 mm 0.00 in0.0 mm
07:16 AM 50.9°F10.5°C 50.1°F10.1°C 97% 3.5 mph SSE5.6 kmh SSE 5.8 mph9.3 kmh 28.36 in960.4 mb - 0.00 in0.0 mm 0.00 in0.0 mm
07:17 AM 50.9°F10.5°C 50.1°F10.1°C 97% 4.6 mph E7.4 kmh E 5.8 mph9.3 kmh 28.36 in960.4 mb - 0.00 in0.0 mm 0.00 in0.0 mm
07:18 AM 50.9°F10.5°C 50.1°F10.1°C 97% 4.6 mph SE7.4 kmh SE 10.4 mph16.7 kmh 28.36 in960.4 mb - 0.00 in0.0 mm 0.00 in0.0 mm
07:19 AM 51.1°F10.6°C 50.3°F10.2°C 97% 5.8 mph ESE9.3 kmh ESE 5.8 mph9.3 kmh 28.36 in960.4 mb - 0.00 in0.0 mm 0.00 in0.0 mm
07:20 AM 51.1°F10.6°C 50.3°F10.2°C 97% 3.5 mph SE5.6 kmh SE 4.6 mph7.4 kmh 28.36 in960.4 mb - 0.00 in0.0 mm 0.00 in0.0 mm
07:21 AM 51.1°F10.6°C 50.3°F10.2°C 97% 3.5 mph S5.6 kmh S 4.6 mph7.4 kmh 28.36 in960.4 mb - 0.00 in0.0 mm 0.00 in0.0 mm
07:22 AM 51.2°F10.7°C 50.3°F10.2°C 97% 3.5 mph S5.6 kmh S 4.6 mph7.4 kmh 28.36 in960.4 mb - 0.00 in0.0 mm 0.00 in0.0 mm
07:23 AM 51.3°F10.7°C 50.2°F10.1°C 96% 3.5 mph E5.6 kmh E 3.5 mph5.6 kmh 28.36 in960.4 mb - 0.00 in0.0 mm 0.00 in0.0 mm
07:24 AM 51.3°F10.7°C 50.2°F10.1°C 96% 4.6 mph S7.4 kmh S 6.9 mph11.1 kmh 28.36 in960.4 mb - 0.00 in0.0 mm 0.00 in0.0 mm
07:25 AM 51.3°F10.7°C 50.2°F10.1°C 96% 5.8 mph ESE9.3 kmh ESE 5.8 mph9.3 kmh 28.36 in960.4 mb - 0.00 in0.0 mm 0.00 in0.0 mm
07:26 AM 51.3°F10.7°C 50.2°F10.1°C 96% 3.5 mph SE5.6 kmh SE 4.6 mph7.4 kmh 28.36 in960.4 mb - 0.00 in0.0 mm 0.00 in0.0 mm
07:27 AM 51.3°F10.7°C 50.2°F10.1°C 96% 3.5 mph S5.6 kmh S 4.6 mph7.4 kmh 28.36 in960.4 mb - 0.00 in0.0 mm 0.00 in0.0 mm
07:28 AM 51.3°F10.7°C 50.2°F10.1°C 96% 3.5 mph SE5.6 kmh SE 4.6 mph7.4 kmh 28.36 in960.4 mb - 0.00 in0.0 mm 0.00 in0.0 mm
07:29 AM 51.3°F10.7°C 50.2°F10.1°C 96% 3.5 mph SSE5.6 kmh SSE 4.6 mph7.4 kmh 28.36 in960.4 mb - 0.00 in0.0 mm 0.00 in0.0 mm
07:30 AM 51.3°F10.7°C 50.2°F10.1°C 96% 3.5 mph SE5.6 kmh SE 4.6 mph7.4 kmh 28.36 in960.4 mb - 0.00 in0.0 mm 0.00 in0.0 mm
07:31 AM 51.3°F10.7°C 50.2°F10.1°C 96% 3.5 mph S5.6 kmh S 5.8 mph9.3 kmh 28.36 in960.4 mb - 0.00 in0.0 mm 0.00 in0.0 mm
07:32 AM 51.3°F10.7°C 50.2°F10.1°C 96% 4.6 mph SE7.4 kmh SE 5.8 mph9.3 kmh 28.36 in960.4 mb - 0.00 in0.0 mm 0.00 in0.0 mm
07:33 AM 51.3°F10.7°C 50.2°F10.1°C 96% 3.5 mph ENE5.6 kmh ENE 3.5 mph5.6 kmh 28.36 in960.4 mb - 0.00 in0.0 mm 0.00 in0.0 mm
07:34 AM 51.3°F10.7°C 50.2°F10.1°C 96% 3.5 mph SSE5.6 kmh SSE 3.5 mph5.6 kmh 28.36 in960.4 mb - 0.00 in0.0 mm 0.00 in0.0 mm
07:35 AM 51.3°F10.7°C 50.2°F10.1°C 96% 3.5 mph SSE5.6 kmh SSE 4.6 mph7.4 kmh 28.36 in960.4 mb - 0.00 in0.0 mm 0.00 in0.0 mm
07:36 AM 51.3°F10.7°C 50.2°F10.1°C 96% 3.5 mph SSE5.6 kmh SSE 6.9 mph11.1 kmh 28.36 in960.4 mb - 0.00 in0.0 mm 0.00 in0.0 mm
07:37 AM 51.4°F10.8°C 50.0°F10.0°C 95% 4.6 mph SE7.4 kmh SE 5.8 mph9.3 kmh 28.36 in960.4 mb - 0.00 in0.0 mm 0.00 in0.0 mm
07:38 AM 51.4°F10.8°C 50.0°F10.0°C 95% 3.5 mph SE5.6 kmh SE 3.5 mph5.6 kmh 28.37 in960.7 mb - 0.00 in0.0 mm 0.00 in0.0 mm
07:39 AM 51.4°F10.8°C 50.0°F10.0°C 95% 3.5 mph SE5.6 kmh SE 4.6 mph7.4 kmh 28.37 in960.7 mb - 0.00 in0.0 mm 0.00 in0.0 mm
07:40 AM 51.4°F10.8°C 50.0°F10.0°C 95% 4.6 mph SE7.4 kmh SE 4.6 mph7.4 kmh 28.37 in960.7 mb - 0.00 in0.0 mm 0.00 in0.0 mm
07:41 AM 51.4°F10.8°C 50.0°F10.0°C 95% 4.6 mph E7.4 kmh E 4.6 mph7.4 kmh 28.37 in960.7 mb - 0.00 in0.0 mm 0.00 in0.0 mm
07:42 AM 51.4°F10.8°C 50.0°F10.0°C 95% 4.6 mph SE7.4 kmh SE 6.9 mph11.1 kmh 28.37 in960.7 mb - 0.00 in0.0 mm 0.00 in0.0 mm
07:43 AM 51.4°F10.8°C 50.0°F10.0°C 95% 4.6 mph SE7.4 kmh SE 6.9 mph11.1 kmh 28.37 in960.7 mb - 0.00 in0.0 mm 0.00 in0.0 mm
07:44 AM 51.4°F10.8°C 50.0°F10.0°C 95% 2.3 mph E3.7 kmh E 2.3 mph3.7 kmh 28.37 in960.7 mb - 0.00 in0.0 mm 0.00 in0.0 mm
07:45 AM 51.4°F10.8°C 50.0°F10.0°C 95% 3.5 mph ESE5.6 kmh ESE 5.8 mph9.3 kmh 28.37 in960.7 mb - 0.00 in0.0 mm 0.00 in0.0 mm
07:46 AM 51.4°F10.8°C 50.0°F10.0°C 95% 5.8 mph SE9.3 kmh SE 10.4 mph16.7 kmh 28.37 in960.7 mb - 0.00 in0.0 mm 0.00 in0.0 mm
07:47 AM 51.4°F10.8°C 50.0°F10.0°C 95% 4.6 mph SE7.4 kmh SE 4.6 mph7.4 kmh 28.37 in960.7 mb - 0.00 in0.0 mm 0.00 in0.0 mm
07:48 AM 51.4°F10.8°C 50.0°F10.0°C 95% 4.6 mph NE7.4 kmh NE 6.9 mph11.1 kmh 28.37 in960.7 mb - 0.00 in0.0 mm 0.00 in0.0 mm
07:49 AM 51.4°F10.8°C 50.0°F10.0°C 95% 3.5 mph S5.6 kmh S 3.5 mph5.6 kmh 28.37 in960.7 mb - 0.00 in0.0 mm 0.00 in0.0 mm
07:50 AM 51.4°F10.8°C 50.0°F10.0°C 95% 2.3 mph ESE3.7 kmh ESE 3.5 mph5.6 kmh 28.38 in961.1 mb - 0.00 in0.0 mm 0.00 in0.0 mm
07:51 AM 51.4°F10.8°C 50.0°F10.0°C 95% 3.5 mph SE5.6 kmh SE 6.9 mph11.1 kmh 28.38 in961.1 mb - 0.00 in0.0 mm 0.00 in0.0 mm
07:52 AM 51.4°F10.8°C 50.0°F10.0°C 95% 3.5 mph E5.6 kmh E 4.6 mph7.4 kmh 28.38 in961.1 mb - 0.00 in0.0 mm 0.00 in0.0 mm
07:53 AM 51.4°F10.8°C 50.0°F10.0°C 95% 3.5 mph ESE5.6 kmh ESE 5.8 mph9.3 kmh 28.38 in961.1 mb - 0.00 in0.0 mm 0.00 in0.0 mm
07:54 AM 51.4°F10.8°C 50.0°F10.0°C 95% 4.6 mph E7.4 kmh E 5.8 mph9.3 kmh 28.38 in961.1 mb - 0.00 in0.0 mm 0.00 in0.0 mm
07:55 AM 51.4°F10.8°C 50.0°F10.0°C 95% 4.6 mph SE7.4 kmh SE 5.8 mph9.3 kmh 28.38 in961.1 mb - 0.00 in0.0 mm 0.00 in0.0 mm
07:56 AM 51.4°F10.8°C 50.0°F10.0°C 95% 3.5 mph SE5.6 kmh SE 5.8 mph9.3 kmh 28.38 in961.1 mb - 0.00 in0.0 mm 0.00 in0.0 mm
07:57 AM 51.4°F10.8°C 50.0°F10.0°C 95% 3.5 mph ESE5.6 kmh ESE 4.6 mph7.4 kmh 28.38 in961.1 mb - 0.00 in0.0 mm 0.00 in0.0 mm
07:58 AM 51.4°F10.8°C 50.0°F10.0°C 95% 4.6 mph SE7.4 kmh SE 6.9 mph11.1 kmh 28.38 in961.1 mb - 0.00 in0.0 mm 0.00 in0.0 mm
07:59 AM 51.4°F10.8°C 50.0°F10.0°C 95% 3.5 mph S5.6 kmh S 3.5 mph5.6 kmh 28.38 in961.1 mb - 0.00 in0.0 mm 0.00 in0.0 mm
08:00 AM 51.4°F10.8°C 49.7°F9.8°C 94% 2.3 mph NW3.7 kmh NW 5.8 mph9.3 kmh 28.38 in961.1 mb - 0.00 in0.0 mm 0.00 in0.0 mm
08:01 AM 51.4°F10.8°C 49.7°F9.8°C 94% 3.5 mph SE5.6 kmh SE 5.8 mph9.3 kmh 28.38 in961.1 mb - 0.00 in0.0 mm 0.00 in0.0 mm
08:02 AM 51.4°F10.8°C 49.7°F9.8°C 94% 3.5 mph SSE5.6 kmh SSE 4.6 mph7.4 kmh 28.38 in961.1 mb - 0.00 in0.0 mm 0.00 in0.0 mm
08:03 AM 51.4°F10.8°C 49.7°F9.8°C 94% 3.5 mph ESE5.6 kmh ESE 4.6 mph7.4 kmh 28.38 in961.1 mb - 0.00 in0.0 mm 0.00 in0.0 mm
08:04 AM 51.4°F10.8°C 49.7°F9.8°C 94% 3.5 mph SSE5.6 kmh SSE 3.5 mph5.6 kmh 28.38 in961.1 mb - 0.00 in0.0 mm 0.00 in0.0 mm
08:05 AM 51.4°F10.8°C 49.7°F9.8°C 94% 3.5 mph SSE5.6 kmh SSE 5.8 mph9.3 kmh 28.38 in961.1 mb - 0.00 in0.0 mm 0.00 in0.0 mm
08:06 AM 51.4°F10.8°C 49.7°F9.8°C 94% 4.6 mph NW7.4 kmh NW 5.8 mph9.3 kmh 28.38 in961.1 mb - 0.01 in0.3 mm 0.01 in0.3 mm
08:07 AM 51.4°F10.8°C 49.7°F9.8°C 94% 3.5 mph SE5.6 kmh SE 2.3 mph3.7 kmh 28.38 in961.1 mb - 0.01 in0.3 mm 0.01 in0.3 mm
08:08 AM 51.4°F10.8°C 49.7°F9.8°C 94% 2.3 mph SE3.7 kmh SE 4.6 mph7.4 kmh 28.38 in961.1 mb - 0.00 in0.0 mm 0.01 in0.3 mm
08:09 AM 51.6°F10.9°C 49.9°F9.9°C 94% 4.6 mph E7.4 kmh E 8.1 mph13.0 kmh 28.38 in961.1 mb - 0.00 in0.0 mm 0.01 in0.3 mm
08:10 AM 51.6°F10.9°C 49.9°F9.9°C 94% 4.6 mph SSE7.4 kmh SSE 5.8 mph9.3 kmh 28.38 in961.1 mb - 0.00 in0.0 mm 0.01 in0.3 mm
08:11 AM 51.6°F10.9°C 49.9°F9.9°C 94% 4.6 mph SE7.4 kmh SE 4.6 mph7.4 kmh 28.38 in961.1 mb - 0.00 in0.0 mm 0.01 in0.3 mm
08:12 AM 51.6°F10.9°C 49.9°F9.9°C 94% 2.3 mph E3.7 kmh E 5.8 mph9.3 kmh 28.38 in961.1 mb - 0.00 in0.0 mm 0.01 in0.3 mm
08:13 AM 51.6°F10.9°C 49.9°F9.9°C 94% 5.8 mph E9.3 kmh E 6.9 mph11.1 kmh 28.38 in961.1 mb - 0.00 in0.0 mm 0.01 in0.3 mm
08:14 AM 51.6°F10.9°C 49.9°F9.9°C 94% 3.5 mph ESE5.6 kmh ESE 5.8 mph9.3 kmh 28.38 in961.1 mb - 0.00 in0.0 mm 0.01 in0.3 mm
08:15 AM 51.6°F10.9°C 50.0°F10.0°C 94% 3.5 mph SE5.6 kmh SE 3.5 mph5.6 kmh 28.38 in961.1 mb - 0.00 in0.0 mm 0.01 in0.3 mm
08:16 AM 51.8°F11.0°C 50.1°F10.1°C 94% 3.5 mph WNW5.6 kmh WNW 3.5 mph5.6 kmh 28.38 in961.1 mb - 0.00 in0.0 mm 0.01 in0.3 mm
08:17 AM 51.8°F11.0°C 50.1°F10.1°C 94% 3.5 mph ESE5.6 kmh ESE 4.6 mph7.4 kmh 28.38 in961.1 mb - 0.00 in0.0 mm 0.01 in0.3 mm
08:18 AM 51.8°F11.0°C 50.1°F10.1°C 94% 3.5 mph ESE5.6 kmh ESE 4.6 mph7.4 kmh 28.38 in961.1 mb - 0.00 in0.0 mm 0.01 in0.3 mm
08:19 AM 51.8°F11.0°C 50.1°F10.1°C 94% 2.3 mph SE3.7 kmh SE 2.3 mph3.7 kmh 28.38 in961.1 mb - 0.00 in0.0 mm 0.01 in0.3 mm
08:20 AM 51.8°F11.0°C 50.1°F10.1°C 94% 2.3 mph S3.7 kmh S 6.9 mph11.1 kmh 28.38 in961.1 mb - 0.00 in0.0 mm 0.01 in0.3 mm
08:21 AM 51.8°F11.0°C 50.1°F10.1°C 94% 4.6 mph SE7.4 kmh SE 5.8 mph9.3 kmh 28.38 in961.1 mb - 0.00 in0.0 mm 0.01 in0.3 mm
08:22 AM 51.8°F11.0°C 50.1°F10.1°C 94% 4.6 mph S7.4 kmh S 5.8 mph9.3 kmh 28.38 in961.1 mb - 0.00 in0.0 mm 0.01 in0.3 mm
08:23 AM 51.8°F11.0°C 50.1°F10.1°C 94% 3.5 mph E5.6 kmh E 4.6 mph7.4 kmh 28.38 in961.1 mb - 0.00 in0.0 mm 0.01 in0.3 mm
08:24 AM 51.8°F11.0°C 50.1°F10.1°C 94% 4.6 mph E7.4 kmh E 5.8 mph9.3 kmh 28.38 in961.1 mb - 0.00 in0.0 mm 0.01 in0.3 mm
08:25 AM 51.8°F11.0°C 50.1°F10.1°C 94% 6.9 mph S11.1 kmh S 10.4 mph16.7 kmh 28.38 in961.1 mb - 0.00 in0.0 mm 0.01 in0.3 mm
08:26 AM 51.9°F11.1°C 50.3°F10.2°C 94% 5.8 mph ESE9.3 kmh ESE 4.6 mph7.4 kmh 28.38 in961.1 mb - 0.00 in0.0 mm 0.01 in0.3 mm
08:27 AM 52.0°F11.1°C 50.0°F10.0°C 93% 4.6 mph ENE7.4 kmh ENE 5.8 mph9.3 kmh 28.38 in961.1 mb - 0.00 in0.0 mm 0.01 in0.3 mm
08:28 AM 52.0°F11.1°C 50.0°F10.0°C 93% 4.6 mph ENE7.4 kmh ENE 6.9 mph11.1 kmh 28.38 in961.1 mb - 0.00 in0.0 mm 0.01 in0.3 mm
08:29 AM 52.2°F11.2°C 50.2°F10.1°C 93% 5.8 mph E9.3 kmh E 6.9 mph11.1 kmh 28.38 in961.1 mb - 0.00 in0.0 mm 0.01 in0.3 mm
08:30 AM 52.2°F11.2°C 50.2°F10.1°C 93% 4.6 mph SE7.4 kmh SE 9.2 mph14.8 kmh 28.38 in961.1 mb - 0.00 in0.0 mm 0.01 in0.3 mm
08:31 AM 52.2°F11.2°C 50.2°F10.1°C 93% 5.8 mph SE9.3 kmh SE 4.6 mph7.4 kmh 28.38 in961.1 mb - 0.00 in0.0 mm 0.01 in0.3 mm
08:32 AM 52.2°F11.2°C 50.2°F10.1°C 93% 4.6 mph S7.4 kmh S 4.6 mph7.4 kmh 28.38 in961.1 mb - 0.00 in0.0 mm 0.01 in0.3 mm
08:33 AM 52.2°F11.2°C 50.2°F10.1°C 93% 4.6 mph S7.4 kmh S 8.1 mph13.0 kmh 28.38 in961.1 mb - 0.00 in0.0 mm 0.01 in0.3 mm
08:34 AM 52.3°F11.3°C 50.3°F10.2°C 93% 5.8 mph SE9.3 kmh SE 8.1 mph13.0 kmh 28.38 in961.1 mb - 0.00 in0.0 mm 0.01 in0.3 mm
08:35 AM 52.3°F11.3°C 50.3°F10.2°C 93% 4.6 mph SSE7.4 kmh SSE 6.9 mph11.1 kmh 28.38 in961.1 mb - 0.00 in0.0 mm 0.01 in0.3 mm
08:36 AM 52.3°F11.3°C 50.3°F10.2°C 93% 5.8 mph E9.3 kmh E 8.1 mph13.0 kmh 28.38 in961.1 mb - 0.00 in0.0 mm 0.01 in0.3 mm
08:37 AM 52.3°F11.3°C 50.3°F10.2°C 93% 8.1 mph NNE13.0 kmh NNE 9.2 mph14.8 kmh 28.38 in961.1 mb - 0.00 in0.0 mm 0.01 in0.3 mm
08:38 AM 52.3°F11.3°C 50.0°F10.0°C 92% 5.8 mph SE9.3 kmh SE 6.9 mph11.1 kmh 28.38 in961.1 mb - 0.00 in0.0 mm 0.01 in0.3 mm
08:39 AM 52.3°F11.3°C 50.0°F10.0°C 92% 6.9 mph SSE11.1 kmh SSE 8.1 mph13.0 kmh 28.38 in961.1 mb - 0.00 in0.0 mm 0.01 in0.3 mm
08:40 AM 52.3°F11.3°C 50.0°F10.0°C 92% 6.9 mph SSW11.1 kmh SSW 10.4 mph16.7 kmh 28.38 in961.1 mb - 0.00 in0.0 mm 0.01 in0.3 mm
08:41 AM 52.4°F11.3°C 50.2°F10.1°C 92% 6.9 mph SE11.1 kmh SE 10.4 mph16.7 kmh 28.38 in961.1 mb - 0.00 in0.0 mm 0.01 in0.3 mm
08:42 AM 52.5°F11.4°C 50.2°F10.1°C 92% 4.6 mph S7.4 kmh S 5.8 mph9.3 kmh 28.38 in961.1 mb - 0.00 in0.0 mm 0.01 in0.3 mm
08:43 AM 52.5°F11.4°C 50.2°F10.1°C 92% 3.5 mph E5.6 kmh E 3.5 mph5.6 kmh 28.38 in961.1 mb - 0.00 in0.0 mm 0.01 in0.3 mm
08:44 AM 52.5°F11.4°C 50.2°F10.1°C 92% 3.5 mph ESE5.6 kmh ESE 5.8 mph9.3 kmh 28.38 in961.1 mb - 0.00 in0.0 mm 0.01 in0.3 mm
08:45 AM 52.5°F11.4°C 50.2°F10.1°C 92% 4.6 mph ESE7.4 kmh ESE 4.6 mph7.4 kmh 28.38 in961.1 mb - 0.00 in0.0 mm 0.01 in0.3 mm
08:46 AM 52.5°F11.4°C 50.2°F10.1°C 92% 3.5 mph SSE5.6 kmh SSE 4.6 mph7.4 kmh 28.38 in961.1 mb - 0.00 in0.0 mm 0.01 in0.3 mm
08:47 AM 52.5°F11.4°C 50.2°F10.1°C 92% 4.6 mph SE7.4 kmh SE 6.9 mph11.1 kmh 28.38 in961.1 mb - 0.00 in0.0 mm 0.01 in0.3 mm
08:48 AM 52.7°F11.5°C 50.4°F10.2°C 92% 4.6 mph SE7.4 kmh SE 5.8 mph9.3 kmh 28.38 in961.1 mb - 0.00 in0.0 mm 0.01 in0.3 mm
08:49 AM 52.7°F11.5°C 50.4°F10.2°C 92% 3.5 mph NE5.6 kmh NE 5.8 mph9.3 kmh 28.39 in961.4 mb - 0.00 in0.0 mm 0.01 in0.3 mm
08:50 AM 52.7°F11.5°C 50.4°F10.2°C 92% 4.6 mph ESE7.4 kmh ESE 9.2 mph14.8 kmh 28.39 in961.4 mb - 0.00 in0.0 mm 0.01 in0.3 mm
08:51 AM 52.9°F11.6°C 50.3°F10.2°C 91% 5.8 mph SSE9.3 kmh SSE 5.8 mph9.3 kmh 28.39 in961.4 mb - 0.00 in0.0 mm 0.01 in0.3 mm
08:52 AM 52.9°F11.6°C 50.3°F10.2°C 91% 5.8 mph SSE9.3 kmh SSE 8.1 mph13.0 kmh 28.39 in961.4 mb - 0.00 in0.0 mm 0.01 in0.3 mm
08:53 AM 52.9°F11.6°C 50.4°F10.2°C 91% 4.6 mph SE7.4 kmh SE 5.8 mph9.3 kmh 28.39 in961.4 mb - 0.00 in0.0 mm 0.01 in0.3 mm
08:54 AM 53.1°F11.7°C 50.5°F10.3°C 91% 4.6 mph ENE7.4 kmh ENE 5.8 mph9.3 kmh 28.39 in961.4 mb - 0.00 in0.0 mm 0.01 in0.3 mm
08:55 AM 53.1°F11.7°C 50.5°F10.3°C 91% 4.6 mph ESE7.4 kmh ESE 6.9 mph11.1 kmh 28.39 in961.4 mb - 0.00 in0.0 mm 0.01 in0.3 mm
08:56 AM 53.1°F11.7°C 50.5°F10.3°C 91% 4.6 mph SE7.4 kmh SE 3.5 mph5.6 kmh 28.39 in961.4 mb - 0.00 in0.0 mm 0.01 in0.3 mm
08:57 AM 53.1°F11.7°C 50.5°F10.3°C 91% 3.5 mph SE5.6 kmh SE 4.6 mph7.4 kmh 28.39 in961.4 mb - 0.00 in0.0 mm 0.01 in0.3 mm
08:58 AM 53.1°F11.7°C 50.6°F10.3°C 91% 4.6 mph E7.4 kmh E 9.2 mph14.8 kmh 28.39 in961.4 mb - 0.00 in0.0 mm 0.01 in0.3 mm
08:59 AM 53.2°F11.8°C 50.3°F10.2°C 90% 6.9 mph SE11.1 kmh SE 9.2 mph14.8 kmh 28.39 in961.4 mb - 0.00 in0.0 mm 0.01 in0.3 mm
09:00 AM 53.2°F11.8°C 50.3°F10.2°C 90% 4.6 mph SE7.4 kmh SE 3.5 mph5.6 kmh 28.39 in961.4 mb - 0.00 in0.0 mm 0.01 in0.3 mm
09:01 AM 53.2°F11.8°C 50.3°F10.2°C 90% 3.5 mph SE5.6 kmh SE 6.9 mph11.1 kmh 28.39 in961.4 mb - 0.00 in0.0 mm 0.01 in0.3 mm
09:02 AM 53.2°F11.8°C 50.3°F10.2°C 90% 5.8 mph E9.3 kmh E 8.1 mph13.0 kmh 28.39 in961.4 mb - 0.00 in0.0 mm 0.01 in0.3 mm
09:03 AM 53.2°F11.8°C 50.3°F10.2°C 90% 4.6 mph E7.4 kmh E 5.8 mph9.3 kmh 28.39 in961.4 mb - 0.00 in0.0 mm 0.01 in0.3 mm
09:04 AM 53.3°F11.8°C 50.4°F10.2°C 90% 5.8 mph SSE9.3 kmh SSE 8.1 mph13.0 kmh 28.39 in961.4 mb - 0.00 in0.0 mm 0.01 in0.3 mm
09:05 AM 53.4°F11.9°C 50.5°F10.3°C 90% 4.6 mph S7.4 kmh S 5.8 mph9.3 kmh 28.39 in961.4 mb - 0.00 in0.0 mm 0.01 in0.3 mm
09:06 AM 53.4°F11.9°C 50.5°F10.3°C 90% 4.6 mph SE7.4 kmh SE 5.8 mph9.3 kmh 28.39 in961.4 mb - 0.00 in0.0 mm 0.01 in0.3 mm
09:07 AM 53.4°F11.9°C 50.5°F10.3°C 90% 4.6 mph ESE7.4 kmh ESE 5.8 mph9.3 kmh 28.39 in961.4 mb - 0.00 in0.0 mm 0.01 in0.3 mm
09:08 AM 53.4°F11.9°C 50.5°F10.3°C 90% 4.6 mph SSE7.4 kmh SSE 5.8 mph9.3 kmh 28.39 in961.4 mb - 0.00 in0.0 mm 0.01 in0.3 mm
09:09 AM 53.4°F11.9°C 50.5°F10.3°C 90% 4.6 mph E7.4 kmh E 6.9 mph11.1 kmh 28.39 in961.4 mb - 0.00 in0.0 mm 0.01 in0.3 mm
09:10 AM 53.4°F11.9°C 50.5°F10.3°C 90% 6.9 mph ESE11.1 kmh ESE 9.2 mph14.8 kmh 28.39 in961.4 mb - 0.00 in0.0 mm 0.01 in0.3 mm
09:11 AM 53.4°F11.9°C 50.5°F10.3°C 90% 4.6 mph SE7.4 kmh SE 4.6 mph7.4 kmh 28.39 in961.4 mb - 0.00 in0.0 mm 0.01 in0.3 mm
09:12 AM 53.4°F11.9°C 50.5°F10.3°C 90% 3.5 mph SSE5.6 kmh SSE 4.6 mph7.4 kmh 28.39 in961.4 mb - 0.00 in0.0 mm 0.01 in0.3 mm
09:13 AM 53.4°F11.9°C 50.5°F10.3°C 90% 3.5 mph SE5.6 kmh SE 5.8 mph9.3 kmh 28.39 in961.4 mb - 0.00 in0.0 mm 0.01 in0.3 mm
09:14 AM 53.6°F12.0°C 50.7°F10.4°C 90% 4.6 mph S7.4 kmh S 3.5 mph5.6 kmh 28.39 in961.4 mb - 0.00 in0.0 mm 0.01 in0.3 mm
09:15 AM 53.6°F12.0°C 50.7°F10.4°C 90% 3.5 mph ESE5.6 kmh ESE 5.8 mph9.3 kmh 28.39 in961.4 mb - 0.00 in0.0 mm 0.01 in0.3 mm
09:16 AM 53.6°F12.0°C 50.7°F10.4°C 90% 4.6 mph ENE7.4 kmh ENE 5.8 mph9.3 kmh 28.39 in961.4 mb - 0.00 in0.0 mm 0.01 in0.3 mm
09:17 AM 53.6°F12.0°C 50.7°F10.4°C 90% 5.8 mph SE9.3 kmh SE 6.9 mph11.1 kmh 28.39 in961.4 mb - 0.00 in0.0 mm 0.01 in0.3 mm
09:18 AM 53.6°F12.0°C 50.7°F10.4°C 90% 5.8 mph ESE9.3 kmh ESE 6.9 mph11.1 kmh 28.39 in961.4 mb - 0.00 in0.0 mm 0.01 in0.3 mm
09:19 AM 53.7°F12.1°C 50.8°F10.4°C 90% 4.6 mph ESE7.4 kmh ESE 5.8 mph9.3 kmh 28.39 in961.4 mb - 0.00 in0.0 mm 0.01 in0.3 mm
09:20 AM 53.8°F12.1°C 50.6°F10.3°C 89% 4.6 mph E7.4 kmh E 5.8 mph9.3 kmh 28.39 in961.4 mb - 0.00 in0.0 mm 0.01 in0.3 mm
09:21 AM 53.8°F12.1°C 50.6°F10.3°C 89% 4.6 mph E7.4 kmh E 5.8 mph9.3 kmh 28.39 in961.4 mb - 0.00 in0.0 mm 0.01 in0.3 mm
09:22 AM 53.8°F12.1°C 50.6°F10.3°C 89% 4.6 mph SE7.4 kmh SE 5.8 mph9.3 kmh 28.39 in961.4 mb - 0.00 in0.0 mm 0.01 in0.3 mm
09:23 AM 53.8°F12.1°C 50.6°F10.3°C 89% 4.6 mph SE7.4 kmh SE 6.9 mph11.1 kmh 28.39 in961.4 mb - 0.00 in0.0 mm 0.01 in0.3 mm
09:24 AM 53.8°F12.1°C 50.6°F10.3°C 89% 5.8 mph S9.3 kmh S 6.9 mph11.1 kmh 28.39 in961.4 mb - 0.00 in0.0 mm 0.01 in0.3 mm
09:25 AM 53.8°F12.1°C 50.6°F10.3°C 89% 4.6 mph SSE7.4 kmh SSE 4.6 mph7.4 kmh 28.39 in961.4 mb - 0.00 in0.0 mm 0.01 in0.3 mm
09:26 AM 53.8°F12.1°C 50.6°F10.3°C 89% 5.8 mph ESE9.3 kmh ESE 10.4 mph16.7 kmh 28.39 in961.4 mb - 0.00 in0.0 mm 0.01 in0.3 mm
09:27 AM 53.9°F12.2°C 50.7°F10.4°C 89% 4.6 mph ESE7.4 kmh ESE 5.8 mph9.3 kmh 28.39 in961.4 mb - 0.00 in0.0 mm 0.01 in0.3 mm
09:28 AM 54.0°F12.2°C 50.8°F10.4°C 89% 4.6 mph SE7.4 kmh SE 5.8 mph9.3 kmh 28.39 in961.4 mb - 0.00 in0.0 mm 0.01 in0.3 mm
09:29 AM 54.0°F12.2°C 50.8°F10.4°C 89% 3.5 mph SE5.6 kmh SE 5.8 mph9.3 kmh 28.39 in961.4 mb - 0.00 in0.0 mm 0.01 in0.3 mm
09:30 AM 54.0°F12.2°C 50.8°F10.4°C 89% 4.6 mph SE7.4 kmh SE 10.4 mph16.7 kmh 28.39 in961.4 mb - 0.00 in0.0 mm 0.01 in0.3 mm
09:31 AM 54.0°F12.2°C 50.8°F10.4°C 89% 8.1 mph SE13.0 kmh SE 10.4 mph16.7 kmh 28.39 in961.4 mb - 0.00 in0.0 mm 0.01 in0.3 mm
09:32 AM 54.0°F12.2°C 50.8°F10.4°C 89% 5.8 mph SE9.3 kmh SE 5.8 mph9.3 kmh 28.39 in961.4 mb - 0.00 in0.0 mm 0.01 in0.3 mm
09:33 AM 54.0°F12.2°C 50.8°F10.4°C 89% 3.5 mph ESE5.6 kmh ESE 4.6 mph7.4 kmh 28.39 in961.4 mb - 0.00 in0.0 mm 0.01 in0.3 mm
09:34 AM 54.0°F12.2°C 50.8°F10.4°C 89% 3.5 mph S5.6 kmh S 4.6 mph7.4 kmh 28.39 in961.4 mb - 0.00 in0.0 mm 0.01 in0.3 mm
09:35 AM 54.0°F12.2°C 50.8°F10.4°C 89% 3.5 mph ESE5.6 kmh ESE 6.9 mph11.1 kmh 28.39 in961.4 mb - 0.00 in0.0 mm 0.01 in0.3 mm
09:36 AM 54.0°F12.2°C 50.8°F10.4°C 89% 5.8 mph SE9.3 kmh SE 6.9 mph11.1 kmh 28.39 in961.4 mb - 0.00 in0.0 mm 0.01 in0.3 mm
09:37 AM 54.1°F12.3°C 50.9°F10.5°C 89% 5.8 mph SSE9.3 kmh SSE 5.8 mph9.3 kmh 28.40 in961.7 mb - 0.00 in0.0 mm 0.01 in0.3 mm
09:38 AM 54.1°F12.3°C 50.9°F10.5°C 89% 4.6 mph S7.4 kmh S 12.7 mph20.4 kmh 28.40 in961.7 mb - 0.00 in0.0 mm 0.01 in0.3 mm
09:39 AM 54.1°F12.3°C 50.9°F10.5°C 89% 6.9 mph SE11.1 kmh SE 12.7 mph20.4 kmh 28.40 in961.7 mb - 0.00 in0.0 mm 0.01 in0.3 mm
09:40 AM 54.1°F12.3°C 50.9°F10.5°C 89% 3.5 mph ESE5.6 kmh ESE 3.5 mph5.6 kmh 28.40 in961.7 mb - 0.00 in0.0 mm 0.01 in0.3 mm
09:41 AM 54.1°F12.3°C 50.9°F10.5°C 89% 3.5 mph SE5.6 kmh SE 5.8 mph9.3 kmh 28.40 in961.7 mb - 0.00 in0.0 mm 0.01 in0.3 mm
09:42 AM 54.1°F12.3°C 50.9°F10.5°C 89% 5.8 mph ESE9.3 kmh ESE 9.2 mph14.8 kmh 28.40 in961.7 mb - 0.00 in0.0 mm 0.01 in0.3 mm
09:43 AM 54.1°F12.3°C 50.9°F10.5°C 89% 8.1 mph SSE13.0 kmh SSE 8.1 mph13.0 kmh 28.40 in961.7 mb - 0.00 in0.0 mm 0.01 in0.3 mm
09:44 AM 54.1°F12.3°C 50.9°F10.5°C 89% 6.9 mph SSE11.1 kmh SSE 9.2 mph14.8 kmh 28.40 in961.7 mb - 0.00 in0.0 mm 0.01 in0.3 mm
09:45 AM 54.1°F12.3°C 50.9°F10.5°C 89% 5.8 mph S9.3 kmh S 5.8 mph9.3 kmh 28.40 in961.7 mb - 0.00 in0.0 mm 0.01 in0.3 mm
09:46 AM 54.1°F12.3°C 50.9°F10.5°C 89% 4.6 mph SE7.4 kmh SE 5.8 mph9.3 kmh 28.40 in961.7 mb - 0.00 in0.0 mm 0.01 in0.3 mm
09:47 AM 54.1°F12.3°C 50.9°F10.5°C 89% 3.5 mph SE5.6 kmh SE 3.5 mph5.6 kmh 28.40 in961.7 mb - 0.00 in0.0 mm 0.01 in0.3 mm
09:48 AM 54.1°F12.3°C 50.9°F10.5°C 89% 4.6 mph SE7.4 kmh SE 8.1 mph13.0 kmh 28.40 in961.7 mb - 0.00 in0.0 mm 0.01 in0.3 mm
09:49 AM 54.1°F12.3°C 50.9°F10.5°C 89% 5.8 mph SSE9.3 kmh SSE 5.8 mph9.3 kmh 28.40 in961.7 mb - 0.00 in0.0 mm 0.01 in0.3 mm
09:50 AM 54.1°F12.3°C 50.9°F10.5°C 89% 3.5 mph SE5.6 kmh SE 4.6 mph7.4 kmh 28.40 in961.7 mb - 0.00 in0.0 mm 0.01 in0.3 mm
09:51 AM 54.1°F12.3°C 50.9°F10.5°C 89% 4.6 mph S7.4 kmh S 10.4 mph16.7 kmh 28.40 in961.7 mb - 0.00 in0.0 mm 0.01 in0.3 mm
09:52 AM 54.1°F12.3°C 50.9°F10.5°C 89% 8.1 mph S13.0 kmh S 10.4 mph16.7 kmh 28.40 in961.7 mb - 0.00 in0.0 mm 0.01 in0.3 mm
09:53 AM 54.1°F12.3°C 50.9°F10.5°C 89% 5.8 mph SSE9.3 kmh SSE 8.1 mph13.0 kmh 28.40 in961.7 mb - 0.00 in0.0 mm 0.01 in0.3 mm
09:54 AM 54.1°F12.3°C 50.9°F10.5°C 89% 5.8 mph NE9.3 kmh NE 8.1 mph13.0 kmh 28.40 in961.7 mb - 0.00 in0.0 mm 0.01 in0.3 mm
09:55 AM 54.1°F12.3°C 50.9°F10.5°C 89% 5.8 mph E9.3 kmh E 6.9 mph11.1 kmh 28.40 in961.7 mb - 0.00 in0.0 mm 0.01 in0.3 mm
09:56 AM 54.1°F12.3°C 50.9°F10.5°C 89% 5.8 mph SE9.3 kmh SE 6.9 mph11.1 kmh 28.40 in961.7 mb - 0.00 in0.0 mm 0.01 in0.3 mm
09:57 AM 54.1°F12.3°C 50.9°F10.5°C 89% 4.6 mph SSE7.4 kmh SSE 6.9 mph11.1 kmh 28.40 in961.7 mb - 0.00 in0.0 mm 0.01 in0.3 mm
09:58 AM 54.1°F12.3°C 50.9°F10.5°C 89% 4.6 mph SE7.4 kmh SE 6.9 mph11.1 kmh 28.40 in961.7 mb - 0.00 in0.0 mm 0.01 in0.3 mm
09:59 AM 54.1°F12.3°C 50.9°F10.5°C 89% 3.5 mph S5.6 kmh S 5.8 mph9.3 kmh 28.40 in961.7 mb - 0.00 in0.0 mm 0.01 in0.3 mm
10:00 AM 54.1°F12.3°C 50.9°F10.5°C 89% 3.5 mph SE5.6 kmh SE 5.8 mph9.3 kmh 28.40 in961.7 mb - 0.00 in0.0 mm 0.01 in0.3 mm
10:01 AM 54.1°F12.3°C 50.9°F10.5°C 89% 4.6 mph SE7.4 kmh SE 5.8 mph9.3 kmh 28.40 in961.7 mb - 0.00 in0.0 mm 0.01 in0.3 mm
10:02 AM 54.1°F12.3°C 50.9°F10.5°C 89% 4.6 mph ESE7.4 kmh ESE 8.1 mph13.0 kmh 28.40 in961.7 mb - 0.00 in0.0 mm 0.01 in0.3 mm
10:03 AM 54.1°F12.3°C 50.9°F10.5°C 89% 4.6 mph ENE7.4 kmh ENE 6.9 mph11.1 kmh 28.40 in961.7 mb - 0.00 in0.0 mm 0.01 in0.3 mm
10:04 AM 54.1°F12.3°C 50.9°F10.5°C 89% 3.5 mph E5.6 kmh E 5.8 mph9.3 kmh 28.40 in961.7 mb - 0.00 in0.0 mm 0.01 in0.3 mm
10:05 AM 54.2°F12.3°C 51.0°F10.6°C 89% 4.6 mph SE7.4 kmh SE 5.8 mph9.3 kmh 28.40 in961.7 mb - 0.00 in0.0 mm 0.01 in0.3 mm
10:06 AM 54.3°F12.4°C 51.2°F10.7°C 89% 3.5 mph SSE5.6 kmh SSE 3.5 mph5.6 kmh 28.40 in961.7 mb - 0.00 in0.0 mm 0.01 in0.3 mm
10:07 AM 54.6°F12.6°C 51.4°F10.8°C 89% 3.5 mph SE5.6 kmh SE 4.6 mph7.4 kmh 28.40 in961.7 mb - 0.00 in0.0 mm 0.01 in0.3 mm
10:08 AM 54.8°F12.7°C 51.6°F10.9°C 89% 3.5 mph E5.6 kmh E 5.8 mph9.3 kmh 28.40 in961.7 mb - 0.00 in0.0 mm 0.01 in0.3 mm
10:09 AM 54.9°F12.7°C 51.7°F10.9°C 89% 4.6 mph S7.4 kmh S 8.1 mph13.0 kmh 28.40 in961.7 mb - 0.00 in0.0 mm 0.01 in0.3 mm
10:10 AM 54.9°F12.7°C 51.7°F10.9°C 89% 4.6 mph S7.4 kmh S 4.6 mph7.4 kmh 28.40 in961.7 mb - 0.00 in0.0 mm 0.01 in0.3 mm
10:11 AM 54.9°F12.7°C 51.7°F10.9°C 89% 3.5 mph ESE5.6 kmh ESE 4.6 mph7.4 kmh 28.40 in961.7 mb - 0.00 in0.0 mm 0.01 in0.3 mm
10:12 AM 54.9°F12.7°C 51.7°F10.9°C 89% 3.5 mph SE5.6 kmh SE 4.6 mph7.4 kmh 28.40 in961.7 mb - 0.00 in0.0 mm 0.01 in0.3 mm
10:13 AM 55.3°F12.9°C 51.8°F11.0°C 88% 3.5 mph ESE5.6 kmh ESE 4.6 mph7.4 kmh 28.40 in961.7 mb - 0.00 in0.0 mm 0.01 in0.3 mm
10:14 AM 55.7°F13.2°C 51.9°F11.1°C 87% 3.5 mph SSE5.6 kmh SSE 5.8 mph9.3 kmh 28.40 in961.7 mb - 0.00 in0.0 mm 0.01 in0.3 mm
10:15 AM 55.9°F13.3°C 52.1°F11.2°C 87% 4.6 mph S7.4 kmh S 5.8 mph9.3 kmh 28.40 in961.7 mb - 0.00 in0.0 mm 0.01 in0.3 mm
10:16 AM 55.9°F13.3°C 52.1°F11.2°C 87% 4.6 mph SSE7.4 kmh SSE 4.6 mph7.4 kmh 28.40 in961.7 mb - 0.00 in0.0 mm 0.01 in0.3 mm
10:17 AM 55.9°F13.3°C 52.1°F11.2°C 87% 3.5 mph SSE5.6 kmh SSE 3.5 mph5.6 kmh 28.40 in961.7 mb - 0.00 in0.0 mm 0.01 in0.3 mm
10:18 AM 55.9°F13.3°C 52.1°F11.2°C 87% 2.3 mph E3.7 kmh E 3.5 mph5.6 kmh 28.40 in961.7 mb - 0.00 in0.0 mm 0.01 in0.3 mm
10:19 AM 55.9°F13.3°C 52.1°F11.2°C 87% 3.5 mph SSW5.6 kmh SSW 5.8 mph9.3 kmh 28.40 in961.7 mb - 0.00 in0.0 mm 0.01 in0.3 mm
10:20 AM 55.9°F13.3°C 52.1°F11.2°C 87% 4.6 mph SE7.4 kmh SE 5.8 mph9.3 kmh 28.40 in961.7 mb - 0.00 in0.0 mm 0.01 in0.3 mm
10:21 AM 56.0°F13.3°C 52.2°F11.2°C 87% 3.5 mph ESE5.6 kmh ESE 3.5 mph5.6 kmh 28.40 in961.7 mb - 0.00 in0.0 mm 0.01 in0.3 mm
10:22 AM 56.3°F13.5°C 52.5°F11.4°C 87% 3.5 mph SE5.6 kmh SE 4.6 mph7.4 kmh 28.40 in961.7 mb - 0.00 in0.0 mm 0.01 in0.3 mm
10:23 AM 56.5°F13.6°C 52.4°F11.3°C 86% 5.8 mph E9.3 kmh E 9.2 mph14.8 kmh 28.40 in961.7 mb - 0.00 in0.0 mm 0.01 in0.3 mm
10:24 AM 56.5°F13.6°C 52.4°F11.3°C 86% 6.9 mph SE11.1 kmh SE 8.1 mph13.0 kmh 28.40 in961.7 mb - 0.00 in0.0 mm 0.01 in0.3 mm
10:25 AM 56.3°F13.5°C 52.2°F11.2°C 86% 5.8 mph ESE9.3 kmh ESE 5.8 mph9.3 kmh 28.40 in961.7 mb - 0.00 in0.0 mm 0.01 in0.3 mm
10:26 AM 56.4°F13.6°C 52.2°F11.2°C 86% 4.6 mph SE7.4 kmh SE 4.6 mph7.4 kmh 28.40 in961.7 mb - 0.00 in0.0 mm 0.01 in0.3 mm
10:27 AM 56.7°F13.7°C 52.5°F11.4°C 86% 4.6 mph SE7.4 kmh SE 6.9 mph11.1 kmh 28.40 in961.7 mb - 0.00 in0.0 mm 0.01 in0.3 mm
10:28 AM 56.9°F13.8°C 52.4°F11.3°C 85% 4.6 mph ESE7.4 kmh ESE 6.9 mph11.1 kmh 28.40 in961.7 mb - 0.00 in0.0 mm 0.01 in0.3 mm
10:29 AM 57.1°F13.9°C 52.6°F11.4°C 85% 5.8 mph SE9.3 kmh SE 8.1 mph13.0 kmh 28.40 in961.7 mb - 0.00 in0.0 mm 0.01 in0.3 mm
10:30 AM 57.4°F14.1°C 52.6°F11.4°C 84% 4.6 mph SSE7.4 kmh SSE 9.2 mph14.8 kmh 28.40 in961.7 mb - 0.00 in0.0 mm 0.01 in0.3 mm
10:31 AM 57.6°F14.2°C 52.8°F11.6°C 84% 8.1 mph SSE13.0 kmh SSE 9.2 mph14.8 kmh 28.40 in961.7 mb - 0.00 in0.0 mm 0.01 in0.3 mm
10:32 AM 57.6°F14.2°C 52.8°F11.6°C 84% 5.8 mph SE9.3 kmh SE 6.9 mph11.1 kmh 28.40 in961.7 mb - 0.00 in0.0 mm 0.01 in0.3 mm
10:33 AM 57.6°F14.2°C 52.8°F11.6°C 84% 3.5 mph ESE5.6 kmh ESE 5.8 mph9.3 kmh 28.40 in961.7 mb - 0.00 in0.0 mm 0.01 in0.3 mm
10:34 AM 57.8°F14.3°C 53.0°F11.7°C 84% 4.6 mph S7.4 kmh S 6.9 mph11.1 kmh 28.40 in961.7 mb - 0.00 in0.0 mm 0.01 in0.3 mm
10:35 AM 58.0°F14.4°C 53.2°F11.8°C 84% 3.5 mph ESE5.6 kmh ESE 3.5 mph5.6 kmh 28.40 in961.7 mb - 0.00 in0.0 mm 0.01 in0.3 mm
10:36 AM 58.3°F14.6°C 53.2°F11.8°C 83% 4.6 mph SE7.4 kmh SE 6.9 mph11.1 kmh 28.40 in961.7 mb - 0.00 in0.0 mm 0.01 in0.3 mm
10:37 AM 58.5°F14.7°C 53.0°F11.7°C 82% 4.6 mph S7.4 kmh S 6.9 mph11.1 kmh 28.39 in961.4 mb - 0.00 in0.0 mm 0.01 in0.3 mm
10:38 AM 58.5°F14.7°C 53.0°F11.7°C 82% 5.8 mph SE9.3 kmh SE 6.9 mph11.1 kmh 28.39 in961.4 mb - 0.00 in0.0 mm 0.01 in0.3 mm
10:39 AM 57.5°F14.2°C 52.4°F11.3°C 83% 5.8 mph SE9.3 kmh SE 10.4 mph16.7 kmh 28.39 in961.4 mb - 0.00 in0.0 mm 0.01 in0.3 mm
10:40 AM 57.3°F14.1°C 52.2°F11.2°C 83% 5.8 mph SE9.3 kmh SE 5.8 mph9.3 kmh 28.39 in961.4 mb - 0.00 in0.0 mm 0.01 in0.3 mm
10:41 AM 57.2°F14.0°C 52.1°F11.2°C 83% 3.5 mph ESE5.6 kmh ESE 4.6 mph7.4 kmh 28.39 in961.4 mb - 0.00 in0.0 mm 0.01 in0.3 mm
10:42 AM 57.4°F14.1°C 52.3°F11.3°C 83% 4.6 mph SE7.4 kmh SE 5.8 mph9.3 kmh 28.39 in961.4 mb - 0.00 in0.0 mm 0.01 in0.3 mm
10:43 AM 57.6°F14.2°C 52.5°F11.4°C 83% 5.8 mph SE9.3 kmh SE 5.8 mph9.3 kmh 28.39 in961.4 mb - 0.00 in0.0 mm 0.01 in0.3 mm
10:44 AM 57.6°F14.2°C 52.5°F11.4°C 83% 5.8 mph SSE9.3 kmh SSE 5.8 mph9.3 kmh 28.39 in961.4 mb - 0.00 in0.0 mm 0.01 in0.3 mm
10:45 AM 57.6°F14.2°C 52.5°F11.4°C 83% 5.8 mph SE9.3 kmh SE 6.9 mph11.1 kmh 28.39 in961.4 mb - 0.00 in0.0 mm 0.01 in0.3 mm
10:46 AM 57.6°F14.2°C 52.5°F11.4°C 83% 4.6 mph ESE7.4 kmh ESE 6.9 mph11.1 kmh 28.39 in961.4 mb - 0.00 in0.0 mm 0.01 in0.3 mm
10:47 AM 57.6°F14.2°C 52.5°F11.4°C 83% 5.8 mph SE9.3 kmh SE 6.9 mph11.1 kmh 28.39 in961.4 mb - 0.00 in0.0 mm 0.01 in0.3 mm
10:48 AM 57.6°F14.2°C 52.5°F11.4°C 83% 4.6 mph SSW7.4 kmh SSW 10.4 mph16.7 kmh 28.39 in961.4 mb - 0.00 in0.0 mm 0.01 in0.3 mm
10:49 AM 57.6°F14.2°C 52.5°F11.4°C 83% 6.9 mph SE11.1 kmh SE 10.4 mph16.7 kmh 28.39 in961.4 mb - 0.00 in0.0 mm 0.01 in0.3 mm
10:50 AM 57.3°F14.1°C 52.2°F11.2°C 83% 4.6 mph SE7.4 kmh SE 5.8 mph9.3 kmh 28.39 in961.4 mb - 0.00 in0.0 mm 0.01 in0.3 mm
10:51 AM 57.1°F13.9°C 52.3°F11.3°C 84% 3.5 mph WSW5.6 kmh WSW 8.1 mph13.0 kmh 28.39 in961.4 mb - 0.00 in0.0 mm 0.01 in0.3 mm
10:52 AM 57.0°F13.9°C 52.2°F11.2°C 84% 4.6 mph ESE7.4 kmh ESE 8.1 mph13.0 kmh 28.39 in961.4 mb - 0.00 in0.0 mm 0.01 in0.3 mm
10:53 AM 57.0°F13.9°C 52.2°F11.2°C 84% 4.6 mph NNE7.4 kmh NNE 6.9 mph11.1 kmh 28.39 in961.4 mb - 0.00 in0.0 mm 0.01 in0.3 mm
10:54 AM 57.0°F13.9°C 52.2°F11.2°C 84% 4.6 mph SE7.4 kmh SE 4.6 mph7.4 kmh 28.39 in961.4 mb - 0.00 in0.0 mm 0.01 in0.3 mm
10:55 AM 57.0°F13.9°C 52.2°F11.2°C 84% 3.5 mph ESE5.6 kmh ESE 6.9 mph11.1 kmh 28.39 in961.4 mb - 0.00 in0.0 mm 0.01 in0.3 mm
10:56 AM 57.0°F13.9°C 52.2°F11.2°C 84% 5.8 mph ESE9.3 kmh ESE 6.9 mph11.1 kmh 28.39 in961.4 mb - 0.00 in0.0 mm 0.01 in0.3 mm
10:57 AM 57.0°F13.9°C 52.2°F11.2°C 84% 4.6 mph SE7.4 kmh SE 5.8 mph9.3 kmh 28.39 in961.4 mb - 0.00 in0.0 mm 0.01 in0.3 mm
10:58 AM 56.8°F13.8°C 52.0°F11.1°C 84% 4.6 mph ENE7.4 kmh ENE 8.1 mph13.0 kmh 28.39 in961.4 mb - 0.00 in0.0 mm 0.01 in0.3 mm
10:59 AM 56.8°F13.8°C 52.0°F11.1°C 84% 5.8 mph E9.3 kmh E 8.1 mph13.0 kmh 28.39 in961.4 mb - 0.00 in0.0 mm 0.01 in0.3 mm
11:00 AM 56.7°F13.7°C 51.9°F11.1°C 84% 3.5 mph SE5.6 kmh SE 4.6 mph7.4 kmh 28.39 in961.4 mb - 0.00 in0.0 mm 0.01 in0.3 mm
11:01 AM 56.7°F13.7°C 51.9°F11.1°C 84% 3.5 mph SSE5.6 kmh SSE 5.8 mph9.3 kmh 28.39 in961.4 mb - 0.00 in0.0 mm 0.01 in0.3 mm
11:02 AM 56.7°F13.7°C 51.9°F11.1°C 84% 3.5 mph S5.6 kmh S 5.8 mph9.3 kmh 28.39 in961.4 mb - 0.00 in0.0 mm 0.01 in0.3 mm
11:03 AM 56.7°F13.7°C 51.9°F11.1°C 84% 4.6 mph S7.4 kmh S 5.8 mph9.3 kmh 28.39 in961.4 mb - 0.00 in0.0 mm 0.01 in0.3 mm
11:04 AM 56.7°F13.7°C 51.9°F11.1°C 84% 4.6 mph SE7.4 kmh SE 6.9 mph11.1 kmh 28.39 in961.4 mb - 0.00 in0.0 mm 0.01 in0.3 mm
11:05 AM 56.7°F13.7°C 51.9°F11.1°C 84% 4.6 mph SE7.4 kmh SE 5.8 mph9.3 kmh 28.39 in961.4 mb - 0.00 in0.0 mm 0.01 in0.3 mm
11:06 AM 56.7°F13.7°C 51.9°F11.1°C 84% 3.5 mph ESE5.6 kmh ESE 5.8 mph9.3 kmh 28.39 in961.4 mb - 0.00 in0.0 mm 0.01 in0.3 mm
11:07 AM 56.7°F13.7°C 51.9°F11.1°C 84% 3.5 mph SE5.6 kmh SE 6.9 mph11.1 kmh 28.39 in961.4 mb - 0.00 in0.0 mm 0.01 in0.3 mm
11:08 AM 56.7°F13.7°C 51.9°F11.1°C 84% 4.6 mph SE7.4 kmh SE 5.8 mph9.3 kmh 28.39 in961.4 mb - 0.00 in0.0 mm 0.01 in0.3 mm
11:09 AM 56.7°F13.7°C 51.9°F11.1°C 84% 3.5 mph E5.6 kmh E 3.5 mph5.6 kmh 28.39 in961.4 mb - 0.00 in0.0 mm 0.01 in0.3 mm
11:10 AM 56.7°F13.7°C 51.9°F11.1°C 84% 2.3 mph ESE3.7 kmh ESE 3.5 mph5.6 kmh 28.39 in961.4 mb - 0.00 in0.0 mm 0.01 in0.3 mm
11:11 AM 56.7°F13.7°C 52.2°F11.2°C 85% 2.3 mph SE3.7 kmh SE 3.5 mph5.6 kmh 28.39 in961.4 mb - 0.00 in0.0 mm 0.01 in0.3 mm
11:12 AM 56.7°F13.7°C 52.2°F11.2°C 85% 3.5 mph S5.6 kmh S 6.9 mph11.1 kmh 28.39 in961.4 mb - 0.00 in0.0 mm 0.01 in0.3 mm
11:13 AM 56.7°F13.7°C 52.2°F11.2°C 85% 5.8 mph S9.3 kmh S 5.8 mph9.3 kmh 28.39 in961.4 mb - 0.00 in0.0 mm 0.01 in0.3 mm
11:14 AM 56.7°F13.7°C 52.2°F11.2°C 85% 5.8 mph SE9.3 kmh SE 9.2 mph14.8 kmh 28.39 in961.4 mb - 0.00 in0.0 mm 0.01 in0.3 mm
11:15 AM 56.7°F13.7°C 52.2°F11.2°C 85% 5.8 mph SE9.3 kmh SE 6.9 mph11.1 kmh 28.39 in961.4 mb - 0.00 in0.0 mm 0.01 in0.3 mm
11:16 AM 56.7°F13.7°C 52.2°F11.2°C 85% 5.8 mph SSE9.3 kmh SSE 6.9 mph11.1 kmh 28.39 in961.4 mb - 0.00 in0.0 mm 0.01 in0.3 mm
11:17 AM 56.7°F13.7°C 52.2°F11.2°C 85% 4.6 mph SE7.4 kmh SE 3.5 mph5.6 kmh 28.39 in961.4 mb - 0.00 in0.0 mm 0.01 in0.3 mm
11:18 AM 56.7°F13.7°C 52.2°F11.2°C 85% 3.5 mph SE5.6 kmh SE 4.6 mph7.4 kmh 28.39 in961.4 mb - 0.00 in0.0 mm 0.01 in0.3 mm
11:19 AM 56.7°F13.7°C 52.2°F11.2°C 85% 3.5 mph S5.6 kmh S 4.6 mph7.4 kmh 28.39 in961.4 mb - 0.00 in0.0 mm 0.01 in0.3 mm
11:20 AM 56.7°F13.7°C 52.2°F11.2°C 85% 3.5 mph ESE5.6 kmh ESE 4.6 mph7.4 kmh 28.39 in961.4 mb - 0.00 in0.0 mm 0.01 in0.3 mm
11:21 AM 56.7°F13.7°C 52.2°F11.2°C 85% 2.3 mph S3.7 kmh S 3.5 mph5.6 kmh 28.39 in961.4 mb - 0.00 in0.0 mm 0.01 in0.3 mm
11:22 AM 56.8°F13.8°C 52.3°F11.3°C 85% 2.3 mph ESE3.7 kmh ESE 4.6 mph7.4 kmh 28.39 in961.4 mb - 0.00 in0.0 mm 0.01 in0.3 mm
11:23 AM 56.9°F13.8°C 52.5°F11.4°C 85% 4.6 mph ESE7.4 kmh ESE 4.6 mph7.4 kmh 28.39 in961.4 mb - 0.00 in0.0 mm 0.01 in0.3 mm
11:24 AM 57.0°F13.9°C 52.2°F11.2°C 84% 4.6 mph ESE7.4 kmh ESE 4.6 mph7.4 kmh 28.39 in961.4 mb - 0.00 in0.0 mm 0.01 in0.3 mm
11:25 AM 57.0°F13.9°C 52.2°F11.2°C 84% 3.5 mph ESE5.6 kmh ESE 3.5 mph5.6 kmh 28.39 in961.4 mb - 0.00 in0.0 mm 0.01 in0.3 mm
11:26 AM 57.0°F13.9°C 52.2°F11.2°C 84% 3.5 mph SE5.6 kmh SE 4.6 mph7.4 kmh 28.39 in961.4 mb - 0.00 in0.0 mm 0.01 in0.3 mm
11:27 AM 57.2°F14.0°C 52.4°F11.3°C 84% 4.6 mph SSE7.4 kmh SSE 9.2 mph14.8 kmh 28.39 in961.4 mb - 0.00 in0.0 mm 0.01 in0.3 mm
11:28 AM 57.2°F14.0°C 52.4°F11.3°C 84% 5.8 mph S9.3 kmh S 8.1 mph13.0 kmh 28.39 in961.4 mb - 0.00 in0.0 mm 0.01 in0.3 mm
11:29 AM 57.2°F14.0°C 52.4°F11.3°C 84% 3.5 mph SE5.6 kmh SE 4.6 mph7.4 kmh 28.39 in961.4 mb - 0.00 in0.0 mm 0.01 in0.3 mm
11:30 AM 57.4°F14.1°C 52.6°F11.4°C 84% 3.5 mph E5.6 kmh E 6.9 mph11.1 kmh 28.39 in961.4 mb - 0.00 in0.0 mm 0.01 in0.3 mm
11:31 AM 57.4°F14.1°C 52.6°F11.4°C 84% 4.6 mph E7.4 kmh E 6.9 mph11.1 kmh 28.39 in961.4 mb - 0.00 in0.0 mm 0.01 in0.3 mm
11:32 AM 57.4°F14.1°C 52.6°F11.4°C 84% 4.6 mph SE7.4 kmh SE 8.1 mph13.0 kmh 28.39 in961.4 mb - 0.00 in0.0 mm 0.01 in0.3 mm
11:33 AM 57.4°F14.1°C 52.6°F11.4°C 84% 4.6 mph SE7.4 kmh SE 8.1 mph13.0 kmh 28.39 in961.4 mb - 0.00 in0.0 mm 0.01 in0.3 mm
11:34 AM 57.4°F14.1°C 52.3°F11.3°C 83% 3.5 mph NE5.6 kmh NE 5.8 mph9.3 kmh 28.39 in961.4 mb - 0.00 in0.0 mm 0.01 in0.3 mm
11:35 AM 57.4°F14.1°C 52.3°F11.3°C 83% 5.8 mph ENE9.3 kmh ENE 10.4 mph16.7 kmh 28.39 in961.4 mb - 0.00 in0.0 mm 0.01 in0.3 mm
11:36 AM 57.4°F14.1°C 52.3°F11.3°C 83% 6.9 mph SE11.1 kmh SE 6.9 mph11.1 kmh 28.39 in961.4 mb - 0.00 in0.0 mm 0.01 in0.3 mm
11:37 AM 57.4°F14.1°C 52.6°F11.4°C 84% 3.5 mph SE5.6 kmh SE 2.3 mph3.7 kmh 28.39 in961.4 mb - 0.00 in0.0 mm 0.01 in0.3 mm
11:38 AM 57.6°F14.2°C 52.8°F11.6°C 84% 2.3 mph ESE3.7 kmh ESE 3.5 mph5.6 kmh 28.39 in961.4 mb - 0.00 in0.0 mm 0.01 in0.3 mm
11:39 AM 57.6°F14.2°C 52.8°F11.6°C 84% 3.5 mph SE5.6 kmh SE 5.8 mph9.3 kmh 28.39 in961.4 mb - 0.00 in0.0 mm 0.01 in0.3 mm
11:40 AM 57.6°F14.2°C 52.8°F11.6°C 84% 3.5 mph SE5.6 kmh SE 5.8 mph9.3 kmh 28.39 in961.4 mb - 0.00 in0.0 mm 0.01 in0.3 mm
11:41 AM 57.6°F14.2°C 52.5°F11.4°C 83% 4.6 mph SSE7.4 kmh SSE 5.8 mph9.3 kmh 28.39 in961.4 mb - 0.00 in0.0 mm 0.01 in0.3 mm
11:42 AM 57.6°F14.2°C 52.5°F11.4°C 83% 5.8 mph SE9.3 kmh SE 9.2 mph14.8 kmh 28.39 in961.4 mb - 0.00 in0.0 mm 0.01 in0.3 mm
11:43 AM 57.6°F14.2°C 52.5°F11.4°C 83% 5.8 mph SE9.3 kmh SE 5.8 mph9.3 kmh 28.39 in961.4 mb - 0.00 in0.0 mm 0.01 in0.3 mm
11:44 AM 57.6°F14.2°C 52.5°F11.4°C 83% 4.6 mph E7.4 kmh E 5.8 mph9.3 kmh 28.39 in961.4 mb - 0.00 in0.0 mm 0.01 in0.3 mm
11:45 AM 57.6°F14.2°C 52.5°F11.4°C 83% 4.6 mph ESE7.4 kmh ESE 8.1 mph13.0 kmh 28.39 in961.4 mb - 0.00 in0.0 mm 0.01 in0.3 mm
11:46 AM 57.6°F14.2°C 52.5°F11.4°C 83% 6.9 mph ESE11.1 kmh ESE 9.2 mph14.8 kmh 28.39 in961.4 mb - 0.00 in0.0 mm 0.01 in0.3 mm
11:47 AM 57.6°F14.2°C 52.5°F11.4°C 83% 4.6 mph E7.4 kmh E 4.6 mph7.4 kmh 28.39 in961.4 mb - 0.00 in0.0 mm 0.01 in0.3 mm
11:48 AM 57.7°F14.3°C 52.6°F11.4°C 83% 3.5 mph SSE5.6 kmh SSE 9.2 mph14.8 kmh 28.39 in961.4 mb - 0.00 in0.0 mm 0.01 in0.3 mm
11:49 AM 57.7°F14.3°C 52.2°F11.2°C 82% 6.9 mph SE11.1 kmh SE 9.2 mph14.8 kmh 28.38 in961.1 mb - 0.00 in0.0 mm 0.01 in0.3 mm
11:50 AM 57.7°F14.3°C 52.2°F11.2°C 82% 5.8 mph SE9.3 kmh SE 5.8 mph9.3 kmh 28.38 in961.1 mb - 0.00 in0.0 mm 0.01 in0.3 mm
11:51 AM 57.7°F14.3°C 52.2°F11.2°C 82% 4.6 mph S7.4 kmh S 8.1 mph13.0 kmh 28.38 in961.1 mb - 0.00 in0.0 mm 0.01 in0.3 mm
11:52 AM 57.7°F14.3°C 52.2°F11.2°C 82% 5.8 mph ESE9.3 kmh ESE 5.8 mph9.3 kmh 28.38 in961.1 mb - 0.00 in0.0 mm 0.01 in0.3 mm
11:53 AM 57.7°F14.3°C 52.2°F11.2°C 82% 4.6 mph SE7.4 kmh SE 5.8 mph9.3 kmh 28.38 in961.1 mb - 0.00 in0.0 mm 0.01 in0.3 mm
11:54 AM 57.7°F14.3°C 52.2°F11.2°C 82% 4.6 mph ESE7.4 kmh ESE 4.6 mph7.4 kmh 28.38 in961.1 mb - 0.00 in0.0 mm 0.01 in0.3 mm
11:55 AM 57.7°F14.3°C 52.2°F11.2°C 82% 3.5 mph SE5.6 kmh SE 3.5 mph5.6 kmh 28.38 in961.1 mb - 0.00 in0.0 mm 0.01 in0.3 mm
11:56 AM 57.7°F14.3°C 52.2°F11.2°C 82% 2.3 mph SE3.7 kmh SE 6.9 mph11.1 kmh 28.38 in961.1 mb - 0.00 in0.0 mm 0.01 in0.3 mm
11:57 AM 57.7°F14.3°C 52.6°F11.4°C 83% 4.6 mph S7.4 kmh S 8.1 mph13.0 kmh 28.38 in961.1 mb - 0.00 in0.0 mm 0.01 in0.3 mm
11:58 AM 57.6°F14.2°C 52.2°F11.2°C 82% 5.8 mph SW9.3 kmh SW 5.8 mph9.3 kmh 28.38 in961.1 mb - 0.00 in0.0 mm 0.01 in0.3 mm
11:59 AM 57.6°F14.2°C 52.1°F11.2°C 82% 3.5 mph SW5.6 kmh SW 4.6 mph7.4 kmh 28.38 in961.1 mb - 0.00 in0.0 mm 0.01 in0.3 mm
12:00 PM 57.5°F14.2°C 52.1°F11.2°C 82% 3.5 mph E5.6 kmh E 5.8 mph9.3 kmh 28.38 in961.1 mb - 0.00 in0.0 mm 0.01 in0.3 mm
12:01 PM 57.4°F14.1°C 52.3°F11.3°C 83% 4.6 mph SE7.4 kmh SE 10.4 mph16.7 kmh 28.38 in961.1 mb - 0.00 in0.0 mm 0.01 in0.3 mm
12:02 PM 57.4°F14.1°C 52.3°F11.3°C 83% 6.9 mph SE11.1 kmh SE 5.8 mph9.3 kmh 28.38 in961.1 mb - 0.00 in0.0 mm 0.01 in0.3 mm
12:03 PM 57.2°F14.0°C 52.1°F11.2°C 83% 4.6 mph SE7.4 kmh SE 5.8 mph9.3 kmh 28.38 in961.1 mb - 0.00 in0.0 mm 0.01 in0.3 mm
12:04 PM 57.2°F14.0°C 52.1°F11.2°C 83% 3.5 mph SE5.6 kmh SE 4.6 mph7.4 kmh 28.38 in961.1 mb - 0.00 in0.0 mm 0.01 in0.3 mm
12:05 PM 57.2°F14.0°C 52.1°F11.2°C 83% 4.6 mph SE7.4 kmh SE 6.9 mph11.1 kmh 28.38 in961.1 mb - 0.00 in0.0 mm 0.01 in0.3 mm
12:06 PM 57.0°F13.9°C 51.9°F11.1°C 83% 4.6 mph E7.4 kmh E 5.8 mph9.3 kmh 28.38 in961.1 mb - 0.00 in0.0 mm 0.01 in0.3 mm
12:07 PM 56.9°F13.8°C 51.8°F11.0°C 83% 3.5 mph SSE5.6 kmh SSE 6.9 mph11.1 kmh 28.38 in961.1 mb - 0.00 in0.0 mm 0.01 in0.3 mm
12:08 PM 56.8°F13.8°C 51.7°F10.9°C 83% 4.6 mph SE7.4 kmh SE 4.6 mph7.4 kmh 28.38 in961.1 mb - 0.00 in0.0 mm 0.01 in0.3 mm
12:09 PM 56.8°F13.8°C 51.7°F10.9°C 83% 4.6 mph S7.4 kmh S 8.1 mph13.0 kmh 28.38 in961.1 mb - 0.00 in0.0 mm 0.01 in0.3 mm
12:10 PM 56.8°F13.8°C 51.7°F10.9°C 83% 5.8 mph SE9.3 kmh SE 13.8 mph22.2 kmh 28.38 in961.1 mb - 0.00 in0.0 mm 0.01 in0.3 mm
12:11 PM 56.7°F13.7°C 51.6°F10.9°C 83% 8.1 mph E13.0 kmh E 13.8 mph22.2 kmh 28.38 in961.1 mb - 0.00 in0.0 mm 0.01 in0.3 mm
12:12 PM 56.7°F13.7°C 51.6°F10.9°C 83% 6.9 mph SSE11.1 kmh SSE 6.9 mph11.1 kmh 28.38 in961.1 mb - 0.00 in0.0 mm 0.01 in0.3 mm
12:13 PM 56.5°F13.6°C 51.4°F10.8°C 83% 5.8 mph SSE9.3 kmh SSE 6.9 mph11.1 kmh 28.38 in961.1 mb - 0.00 in0.0 mm 0.01 in0.3 mm
12:14 PM 56.5°F13.6°C 51.7°F10.9°C 84% 5.8 mph SE9.3 kmh SE 5.8 mph9.3 kmh 28.38 in961.1 mb - 0.00 in0.0 mm 0.01 in0.3 mm
12:15 PM 56.4°F13.6°C 51.6°F10.9°C 84% 4.6 mph S7.4 kmh S 4.6 mph7.4 kmh 28.38 in961.1 mb - 0.00 in0.0 mm 0.01 in0.3 mm
12:16 PM 56.3°F13.5°C 51.8°F11.0°C 85% 2.3 mph SSE3.7 kmh SSE 3.5 mph5.6 kmh 28.38 in961.1 mb - 0.00 in0.0 mm 0.01 in0.3 mm
12:17 PM 56.3°F13.5°C 51.8°F11.0°C 85% 3.5 mph E5.6 kmh E 5.8 mph9.3 kmh 28.38 in961.1 mb - 0.00 in0.0 mm 0.01 in0.3 mm
12:18 PM 56.3°F13.5°C 51.8°F11.0°C 85% 4.6 mph SE7.4 kmh SE 5.8 mph9.3 kmh 28.38 in961.1 mb - 0.00 in0.0 mm 0.01 in0.3 mm
12:19 PM 56.3°F13.5°C 51.8°F11.0°C 85% 5.8 mph SE9.3 kmh SE 8.1 mph13.0 kmh 28.38 in961.1 mb - 0.00 in0.0 mm 0.01 in0.3 mm
12:20 PM 56.3°F13.5°C 51.8°F11.0°C 85% 5.8 mph SE9.3 kmh SE 5.8 mph9.3 kmh 28.38 in961.1 mb - 0.00 in0.0 mm 0.01 in0.3 mm
12:21 PM 56.3°F13.5°C 51.8°F11.0°C 85% 4.6 mph SE7.4 kmh SE 5.8 mph9.3 kmh 28.38 in961.1 mb - 0.00 in0.0 mm 0.01 in0.3 mm
12:22 PM 56.3°F13.5°C 51.8°F11.0°C 85% 3.5 mph SE5.6 kmh SE 5.8 mph9.3 kmh 28.38 in961.1 mb - 0.00 in0.0 mm 0.01 in0.3 mm
12:23 PM 56.3°F13.5°C 51.8°F11.0°C 85% 3.5 mph NNW5.6 kmh NNW 2.3 mph3.7 kmh 28.38 in961.1 mb - 0.00 in0.0 mm 0.01 in0.3 mm
12:24 PM 56.3°F13.5°C 51.8°F11.0°C 85% 3.5 mph SE5.6 kmh SE 5.8 mph9.3 kmh 28.38 in961.1 mb - 0.00 in0.0 mm 0.01 in0.3 mm
12:25 PM 56.5°F13.6°C 52.0°F11.1°C 85% 4.6 mph SE7.4 kmh SE 5.8 mph9.3 kmh 28.37 in960.7 mb - 0.00 in0.0 mm 0.01 in0.3 mm
12:26 PM 56.5°F13.6°C 52.0°F11.1°C 85% 3.5 mph SE5.6 kmh SE 3.5 mph5.6 kmh 28.37 in960.7 mb - 0.00 in0.0 mm 0.01 in0.3 mm
12:27 PM 56.5°F13.6°C 52.0°F11.1°C 85% 3.5 mph SSE5.6 kmh SSE 4.6 mph7.4 kmh 28.37 in960.7 mb - 0.00 in0.0 mm 0.01 in0.3 mm
12:28 PM 56.5°F13.6°C 52.0°F11.1°C 85% 4.6 mph SE7.4 kmh SE 6.9 mph11.1 kmh 28.37 in960.7 mb - 0.00 in0.0 mm 0.01 in0.3 mm
12:29 PM 56.5°F13.6°C 51.7°F10.9°C 84% 4.6 mph ESE7.4 kmh ESE 5.8 mph9.3 kmh 28.37 in960.7 mb - 0.00 in0.0 mm 0.01 in0.3 mm
12:30 PM 56.5°F13.6°C 51.7°F10.9°C 84% 3.5 mph SSE5.6 kmh SSE 5.8 mph9.3 kmh 28.37 in960.7 mb - 0.00 in0.0 mm 0.01 in0.3 mm
12:31 PM 56.5°F13.6°C 51.7°F10.9°C 84% 5.8 mph SE9.3 kmh SE 10.4 mph16.7 kmh 28.37 in960.7 mb - 0.00 in0.0 mm 0.01 in0.3 mm
12:32 PM 56.5°F13.6°C 51.7°F10.9°C 84% 5.8 mph ESE9.3 kmh ESE 4.6 mph7.4 kmh 28.37 in960.7 mb - 0.00 in0.0 mm 0.01 in0.3 mm
12:33 PM 56.5°F13.6°C 51.7°F10.9°C 84% 3.5 mph SE5.6 kmh SE 5.8 mph9.3 kmh 28.37 in960.7 mb - 0.00 in0.0 mm 0.01 in0.3 mm
12:34 PM 56.6°F13.7°C 51.8°F11.0°C 84% 3.5 mph SSE5.6 kmh SSE 5.8 mph9.3 kmh 28.37 in960.7 mb - 0.00 in0.0 mm 0.01 in0.3 mm
12:35 PM 56.7°F13.7°C 51.9°F11.1°C 84% 3.5 mph ESE5.6 kmh ESE 5.8 mph9.3 kmh 28.37 in960.7 mb - 0.00 in0.0 mm 0.01 in0.3 mm
12:36 PM 56.8°F13.8°C 52.0°F11.1°C 84% 3.5 mph SSE5.6 kmh SSE 6.9 mph11.1 kmh 28.37 in960.7 mb - 0.00 in0.0 mm 0.01 in0.3 mm
12:37 PM 56.8°F13.8°C 52.0°F11.1°C 84% 3.5 mph SE5.6 kmh SE 3.5 mph5.6 kmh 28.37 in960.7 mb - 0.00 in0.0 mm 0.01 in0.3 mm
12:38 PM 57.0°F13.9°C 52.2°F11.2°C 84% 4.6 mph E7.4 kmh E 8.1 mph13.0 kmh 28.37 in960.7 mb - 0.00 in0.0 mm 0.01 in0.3 mm
12:39 PM 57.0°F13.9°C 51.9°F11.1°C 83% 4.6 mph ESE7.4 kmh ESE 5.8 mph9.3 kmh 28.37 in960.7 mb - 0.00 in0.0 mm 0.01 in0.3 mm
12:40 PM 57.0°F13.9°C 51.9°F11.1°C 83% 4.6 mph SSE7.4 kmh SSE 5.8 mph9.3 kmh 28.37 in960.7 mb - 0.00 in0.0 mm 0.01 in0.3 mm
12:41 PM 57.2°F14.0°C 52.1°F11.2°C 83% 4.6 mph SE7.4 kmh SE 5.8 mph9.3 kmh 28.37 in960.7 mb - 0.00 in0.0 mm 0.01 in0.3 mm
12:42 PM 57.2°F14.0°C 52.1°F11.2°C 83% 4.6 mph SSE7.4 kmh SSE 4.6 mph7.4 kmh 28.37 in960.7 mb - 0.00 in0.0 mm 0.01 in0.3 mm
12:43 PM 57.4°F14.1°C 52.2°F11.2°C 83% 4.6 mph ESE7.4 kmh ESE 5.8 mph9.3 kmh 28.37 in960.7 mb - 0.00 in0.0 mm 0.01 in0.3 mm
12:44 PM 57.4°F14.1°C 52.3°F11.3°C 83% 4.6 mph SE7.4 kmh SE 8.1 mph13.0 kmh 28.37 in960.7 mb - 0.00 in0.0 mm 0.01 in0.3 mm
12:45 PM 57.4°F14.1°C 52.3°F11.3°C 83% 5.8 mph SSE9.3 kmh SSE 8.1 mph13.0 kmh 28.37 in960.7 mb - 0.00 in0.0 mm 0.01 in0.3 mm
12:46 PM 57.4°F14.1°C 52.3°F11.3°C 83% 6.9 mph S11.1 kmh S 8.1 mph13.0 kmh 28.37 in960.7 mb - 0.00 in0.0 mm 0.01 in0.3 mm
12:47 PM 57.4°F14.1°C 52.3°F11.3°C 83% 5.8 mph NNW9.3 kmh NNW 13.8 mph22.2 kmh 28.37 in960.7 mb - 0.00 in0.0 mm 0.01 in0.3 mm
12:48 PM 57.2°F14.0°C 52.1°F11.2°C 83% 8.1 mph S13.0 kmh S 9.2 mph14.8 kmh 28.37 in960.7 mb - 0.00 in0.0 mm 0.01 in0.3 mm
12:49 PM 57.2°F14.0°C 52.1°F11.2°C 83% 5.8 mph SE9.3 kmh SE 9.2 mph14.8 kmh 28.36 in960.4 mb - 0.00 in0.0 mm 0.01 in0.3 mm
12:50 PM 57.2°F14.0°C 52.1°F11.2°C 83% 4.6 mph WSW7.4 kmh WSW 8.1 mph13.0 kmh 28.36 in960.4 mb - 0.00 in0.0 mm 0.01 in0.3 mm
12:51 PM 57.2°F14.0°C 52.1°F11.2°C 83% 5.8 mph SE9.3 kmh SE 6.9 mph11.1 kmh 28.36 in960.4 mb - 0.00 in0.0 mm 0.01 in0.3 mm
12:52 PM 57.2°F14.0°C 52.1°F11.2°C 83% 4.6 mph SE7.4 kmh SE 11.5 mph18.5 kmh 28.36 in960.4 mb - 0.00 in0.0 mm 0.01 in0.3 mm
12:53 PM 57.2°F14.0°C 52.1°F11.2°C 83% 9.2 mph S14.8 kmh S 11.5 mph18.5 kmh 28.36 in960.4 mb - 0.00 in0.0 mm 0.01 in0.3 mm
12:54 PM 57.1°F13.9°C 52.0°F11.1°C 83% 8.1 mph SE13.0 kmh SE 9.2 mph14.8 kmh 28.36 in960.4 mb - 0.00 in0.0 mm 0.01 in0.3 mm
12:55 PM 57.0°F13.9°C 51.9°F11.1°C 83% 5.8 mph S9.3 kmh S 9.2 mph14.8 kmh 28.36 in960.4 mb - 0.00 in0.0 mm 0.01 in0.3 mm
12:56 PM 57.0°F13.9°C 51.9°F11.1°C 83% 6.9 mph S11.1 kmh S 8.1 mph13.0 kmh 28.36 in960.4 mb - 0.00 in0.0 mm 0.01 in0.3 mm
12:57 PM 57.0°F13.9°C 51.9°F11.1°C 83% 6.9 mph S11.1 kmh S 8.1 mph13.0 kmh 28.36 in960.4 mb - 0.00 in0.0 mm 0.01 in0.3 mm
12:58 PM 57.0°F13.9°C 51.9°F11.1°C 83% 5.8 mph SSE9.3 kmh SSE 6.9 mph11.1 kmh 28.36 in960.4 mb - 0.00 in0.0 mm 0.01 in0.3 mm
12:59 PM 57.0°F13.9°C 51.9°F11.1°C 83% 4.6 mph ESE7.4 kmh ESE 8.1 mph13.0 kmh 28.36 in960.4 mb - 0.00 in0.0 mm 0.01 in0.3 mm
01:00 PM 57.0°F13.9°C 51.9°F11.1°C 83% 5.8 mph SE9.3 kmh SE 8.1 mph13.0 kmh 28.36 in960.4 mb - 0.00 in0.0 mm 0.01 in0.3 mm
01:01 PM 57.1°F13.9°C 52.0°F11.1°C 83% 4.6 mph SSE7.4 kmh SSE 5.8 mph9.3 kmh 28.35 in960.0 mb - 0.00 in0.0 mm 0.01 in0.3 mm
01:02 PM 57.2°F14.0°C 52.1°F11.2°C 83% 5.8 mph ESE9.3 kmh ESE 9.2 mph14.8 kmh 28.35 in960.0 mb - 0.00 in0.0 mm 0.01 in0.3 mm
01:03 PM 57.2°F14.0°C 51.8°F11.0°C 82% 6.9 mph SE11.1 kmh SE 9.2 mph14.8 kmh 28.35 in960.0 mb - 0.00 in0.0 mm 0.01 in0.3 mm
01:04 PM 57.2°F14.0°C 51.8°F11.0°C 82% 5.8 mph SSE9.3 kmh SSE 5.8 mph9.3 kmh 28.35 in960.0 mb - 0.00 in0.0 mm 0.01 in0.3 mm
01:05 PM 57.2°F14.0°C 51.8°F11.0°C 82% 4.6 mph S7.4 kmh S 5.8 mph9.3 kmh 28.35 in960.0 mb - 0.00 in0.0 mm 0.01 in0.3 mm
01:06 PM 57.2°F14.0°C 51.8°F11.0°C 82% 4.6 mph NNE7.4 kmh NNE 4.6 mph7.4 kmh 28.35 in960.0 mb - 0.00 in0.0 mm 0.01 in0.3 mm
01:07 PM 57.3°F14.1°C 51.9°F11.1°C 82% 3.5 mph ENE5.6 kmh ENE 5.8 mph9.3 kmh 28.35 in960.0 mb - 0.00 in0.0 mm 0.01 in0.3 mm
01:08 PM 57.4°F14.1°C 52.0°F11.1°C 82% 4.6 mph SSE7.4 kmh SSE 3.5 mph5.6 kmh 28.35 in960.0 mb - 0.00 in0.0 mm 0.01 in0.3 mm
01:09 PM 57.6°F14.2°C 52.1°F11.2°C 82% 3.5 mph SE5.6 kmh SE 3.5 mph5.6 kmh 28.35 in960.0 mb - 0.00 in0.0 mm 0.01 in0.3 mm
01:10 PM 57.6°F14.2°C 52.1°F11.2°C 82% 3.5 mph S5.6 kmh S 4.6 mph7.4 kmh 28.35 in960.0 mb - 0.00 in0.0 mm 0.01 in0.3 mm
01:11 PM 57.6°F14.2°C 51.8°F11.0°C 81% 3.5 mph E5.6 kmh E 3.5 mph5.6 kmh 28.35 in960.0 mb - 0.00 in0.0 mm 0.01 in0.3 mm
01:12 PM 57.6°F14.2°C 52.1°F11.2°C 82% 3.5 mph E5.6 kmh E 5.8 mph9.3 kmh 28.35 in960.0 mb - 0.00 in0.0 mm 0.01 in0.3 mm
01:13 PM 57.6°F14.2°C 51.8°F11.0°C 81% 4.6 mph ESE7.4 kmh ESE 6.9 mph11.1 kmh 28.35 in960.0 mb - 0.00 in0.0 mm 0.01 in0.3 mm
01:14 PM 57.6°F14.2°C 51.8°F11.0°C 81% 5.8 mph SE9.3 kmh SE 6.9 mph11.1 kmh 28.34 in959.7 mb - 0.00 in0.0 mm 0.01 in0.3 mm
01:15 PM 57.5°F14.2°C 51.7°F10.9°C 81% 5.8 mph S9.3 kmh S 6.9 mph11.1 kmh 28.34 in959.7 mb - 0.00 in0.0 mm 0.01 in0.3 mm
01:16 PM 57.4°F14.1°C 51.6°F10.9°C 81% 6.9 mph SE11.1 kmh SE 9.2 mph14.8 kmh 28.34 in959.7 mb - 0.00 in0.0 mm 0.01 in0.3 mm
01:17 PM 57.4°F14.1°C 51.9°F11.1°C 82% 4.6 mph SE7.4 kmh SE 3.5 mph5.6 kmh 28.34 in959.7 mb - 0.00 in0.0 mm 0.01 in0.3 mm
01:18 PM 57.4°F14.1°C 51.9°F11.1°C 82% 3.5 mph E5.6 kmh E 6.9 mph11.1 kmh 28.34 in959.7 mb - 0.00 in0.0 mm 0.01 in0.3 mm
01:19 PM 57.4°F14.1°C 51.6°F10.9°C 81% 5.8 mph SE9.3 kmh SE 9.2 mph14.8 kmh 28.34 in959.7 mb - 0.00 in0.0 mm 0.01 in0.3 mm
01:20 PM 57.2°F14.0°C 51.4°F10.8°C 81% 4.6 mph ESE7.4 kmh ESE 4.6 mph7.4 kmh 28.34 in959.7 mb - 0.00 in0.0 mm 0.01 in0.3 mm
01:21 PM 57.2°F14.0°C 51.4°F10.8°C 81% 3.5 mph E5.6 kmh E 6.9 mph11.1 kmh 28.34 in959.7 mb - 0.00 in0.0 mm 0.01 in0.3 mm
01:22 PM 57.2°F14.0°C 51.4°F10.8°C 81% 5.8 mph S9.3 kmh S 5.8 mph9.3 kmh 28.34 in959.7 mb - 0.00 in0.0 mm 0.01 in0.3 mm
01:23 PM 57.3°F14.1°C 51.5°F10.8°C 81% 3.5 mph S5.6 kmh S 4.6 mph7.4 kmh 28.34 in959.7 mb - 0.00 in0.0 mm 0.01 in0.3 mm
01:24 PM 57.6°F14.2°C 51.8°F11.0°C 81% 3.5 mph SSE5.6 kmh SSE 3.5 mph5.6 kmh 28.34 in959.7 mb - 0.00 in0.0 mm 0.01 in0.3 mm
01:25 PM 57.8°F14.3°C 52.0°F11.1°C 81% 3.5 mph SE5.6 kmh SE 5.8 mph9.3 kmh 28.34 in959.7 mb - 0.00 in0.0 mm 0.01 in0.3 mm
01:26 PM 57.9°F14.4°C 52.1°F11.2°C 81% 3.5 mph ESE5.6 kmh ESE 5.8 mph9.3 kmh 28.34 in959.7 mb - 0.00 in0.0 mm 0.01 in0.3 mm
01:27 PM 57.9°F14.4°C 52.1°F11.2°C 81% 3.5 mph SE5.6 kmh SE 4.6 mph7.4 kmh 28.34 in959.7 mb - 0.00 in0.0 mm 0.01 in0.3 mm
01:28 PM 57.9°F14.4°C 52.1°F11.2°C 81% 2.3 mph SSE3.7 kmh SSE 4.6 mph7.4 kmh 28.34 in959.7 mb - 0.00 in0.0 mm 0.01 in0.3 mm
01:29 PM 57.9°F14.4°C 51.8°F11.0°C 80% 3.5 mph SE5.6 kmh SE 4.6 mph7.4 kmh 28.34 in959.7 mb - 0.00 in0.0 mm 0.01 in0.3 mm
01:30 PM 57.9°F14.4°C 51.8°F11.0°C 80% 3.5 mph SE5.6 kmh SE 5.8 mph9.3 kmh 28.34 in959.7 mb - 0.00 in0.0 mm 0.01 in0.3 mm
01:31 PM 57.9°F14.4°C 51.8°F11.0°C 80% 5.8 mph SE9.3 kmh SE 5.8 mph9.3 kmh 28.34 in959.7 mb - 0.00 in0.0 mm 0.01 in0.3 mm
01:32 PM 57.9°F14.4°C 51.8°F11.0°C 80% 5.8 mph SE9.3 kmh SE 6.9 mph11.1 kmh 28.34 in959.7 mb - 0.00 in0.0 mm 0.01 in0.3 mm
01:33 PM 57.9°F14.4°C 51.8°F11.0°C 80% 5.8 mph S9.3 kmh S 5.8 mph9.3 kmh 28.34 in959.7 mb - 0.00 in0.0 mm 0.01 in0.3 mm
01:34 PM 57.9°F14.4°C 51.8°F11.0°C 80% 4.6 mph SE7.4 kmh SE 4.6 mph7.4 kmh 28.34 in959.7 mb - 0.00 in0.0 mm 0.01 in0.3 mm
01:35 PM 57.9°F14.4°C 51.8°F11.0°C 80% 3.5 mph ESE5.6 kmh ESE 4.6 mph7.4 kmh 28.34 in959.7 mb - 0.00 in0.0 mm 0.01 in0.3 mm
01:36 PM 57.9°F14.4°C 51.8°F11.0°C 80% 3.5 mph ESE5.6 kmh ESE 3.5 mph5.6 kmh 28.34 in959.7 mb - 0.00 in0.0 mm 0.01 in0.3 mm
01:37 PM 58.1°F14.5°C 51.9°F11.1°C 80% 2.3 mph E3.7 kmh E 2.3 mph3.7 kmh 28.34 in959.7 mb - 0.00 in0.0 mm 0.01 in0.3 mm
01:38 PM 58.4°F14.7°C 52.3°F11.3°C 80% 2.3 mph SSW3.7 kmh SSW 4.6 mph7.4 kmh 28.34 in959.7 mb - 0.00 in0.0 mm 0.01 in0.3 mm
01:39 PM 58.5°F14.7°C 52.4°F11.3°C 80% 4.6 mph ESE7.4 kmh ESE 10.4 mph16.7 kmh 28.34 in959.7 mb - 0.00 in0.0 mm 0.01 in0.3 mm
01:40 PM 58.6°F14.8°C 52.1°F11.2°C 79% 6.9 mph SSE11.1 kmh SSE 10.4 mph16.7 kmh 28.34 in959.7 mb - 0.00 in0.0 mm 0.01 in0.3 mm
01:41 PM 58.4°F14.7°C 51.9°F11.1°C 79% 5.8 mph ESE9.3 kmh ESE 8.1 mph13.0 kmh 28.34 in959.7 mb - 0.00 in0.0 mm 0.01 in0.3 mm
01:42 PM 58.4°F14.7°C 51.9°F11.1°C 79% 3.5 mph E5.6 kmh E 3.5 mph5.6 kmh 28.34 in959.7 mb - 0.00 in0.0 mm 0.01 in0.3 mm
01:43 PM 58.6°F14.8°C 52.4°F11.3°C 80% 3.5 mph SE5.6 kmh SE 2.3 mph3.7 kmh 28.34 in959.7 mb - 0.00 in0.0 mm 0.01 in0.3 mm
01:44 PM 58.6°F14.8°C 52.4°F11.3°C 80% 2.3 mph SSE3.7 kmh SSE 3.5 mph5.6 kmh 28.34 in959.7 mb - 0.00 in0.0 mm 0.01 in0.3 mm
01:45 PM 58.5°F14.7°C 52.4°F11.3°C 80% 2.3 mph SE3.7 kmh SE 3.5 mph5.6 kmh 28.34 in959.7 mb - 0.00 in0.0 mm 0.01 in0.3 mm
01:46 PM 58.5°F14.7°C 52.0°F11.1°C 79% 3.5 mph S5.6 kmh S 3.5 mph5.6 kmh 28.34 in959.7 mb - 0.00 in0.0 mm 0.01 in0.3 mm
01:47 PM 58.3°F14.6°C 51.8°F11.0°C 79% 3.5 mph SSE5.6 kmh SSE 5.8 mph9.3 kmh 28.34 in959.7 mb - 0.00 in0.0 mm 0.01 in0.3 mm
01:48 PM 58.3°F14.6°C 52.2°F11.2°C 80% 4.6 mph SE7.4 kmh SE 5.8 mph9.3 kmh 28.34 in959.7 mb - 0.00 in0.0 mm 0.01 in0.3 mm
01:49 PM 58.3°F14.6°C 51.8°F11.0°C 79% 3.5 mph SE5.6 kmh SE 5.8 mph9.3 kmh 28.34 in959.7 mb - 0.00 in0.0 mm 0.01 in0.3 mm
01:50 PM 58.5°F14.7°C 52.0°F11.1°C 79% 4.6 mph ESE7.4 kmh ESE 5.8 mph9.3 kmh 28.34 in959.7 mb - 0.00 in0.0 mm 0.01 in0.3 mm
01:51 PM 58.5°F14.7°C 52.0°F11.1°C 79% 3.5 mph S5.6 kmh S 4.6 mph7.4 kmh 28.34 in959.7 mb - 0.00 in0.0 mm 0.01 in0.3 mm
01:52 PM 58.7°F14.8°C 52.2°F11.2°C 79% 2.3 mph SE3.7 kmh SE 5.8 mph9.3 kmh 28.34 in959.7 mb - 0.00 in0.0 mm 0.01 in0.3 mm
01:53 PM 58.8°F14.9°C 52.0°F11.1°C 78% 3.5 mph SE5.6 kmh SE 6.9 mph11.1 kmh 28.34 in959.7 mb - 0.00 in0.0 mm 0.01 in0.3 mm
01:54 PM 58.9°F14.9°C 52.1°F11.2°C 78% 3.5 mph SW5.6 kmh SW 3.5 mph5.6 kmh 28.34 in959.7 mb - 0.00 in0.0 mm 0.01 in0.3 mm
01:55 PM 59.2°F15.1°C 52.3°F11.3°C 78% 2.3 mph SE3.7 kmh SE 4.6 mph7.4 kmh 28.34 in959.7 mb - 0.00 in0.0 mm 0.01 in0.3 mm
01:56 PM 59.2°F15.1°C 52.3°F11.3°C 78% 3.5 mph SE5.6 kmh SE 5.8 mph9.3 kmh 28.34 in959.7 mb - 0.00 in0.0 mm 0.01 in0.3 mm
01:57 PM 59.2°F15.1°C 52.3°F11.3°C 78% 4.6 mph SE7.4 kmh SE 5.8 mph9.3 kmh 28.34 in959.7 mb - 0.00 in0.0 mm 0.01 in0.3 mm
01:58 PM 59.2°F15.1°C 52.0°F11.1°C 77% 5.8 mph NE9.3 kmh NE 5.8 mph9.3 kmh 28.34 in959.7 mb - 0.00 in0.0 mm 0.01 in0.3 mm
01:59 PM 59.2°F15.1°C 52.0°F11.1°C 77% 4.6 mph ESE7.4 kmh ESE 3.5 mph5.6 kmh 28.34 in959.7 mb - 0.00 in0.0 mm 0.01 in0.3 mm
02:00 PM 59.4°F15.2°C 52.2°F11.2°C 77% 3.5 mph E5.6 kmh E 3.5 mph5.6 kmh 28.34 in959.7 mb - 0.00 in0.0 mm 0.01 in0.3 mm
02:01 PM 59.4°F15.2°C 52.2°F11.2°C 77% 3.5 mph SE5.6 kmh SE 4.6 mph7.4 kmh 28.33 in959.4 mb - 0.00 in0.0 mm 0.01 in0.3 mm
02:02 PM 59.2°F15.1°C 52.3°F11.3°C 78% 3.5 mph SE5.6 kmh SE 5.8 mph9.3 kmh 28.33 in959.4 mb - 0.00 in0.0 mm 0.01 in0.3 mm
02:03 PM 59.0°F15.0°C 52.2°F11.2°C 78% 4.6 mph ESE7.4 kmh ESE 5.8 mph9.3 kmh 28.33 in959.4 mb - 0.00 in0.0 mm 0.01 in0.3 mm
02:04 PM 59.0°F15.0°C 52.1°F11.2°C 78% 3.5 mph S5.6 kmh S 2.3 mph3.7 kmh 28.33 in959.4 mb - 0.00 in0.0 mm 0.01 in0.3 mm
02:05 PM 59.0°F15.0°C 52.1°F11.2°C 78% 2.3 mph SE3.7 kmh SE 5.8 mph9.3 kmh 28.33 in959.4 mb - 0.00 in0.0 mm 0.01 in0.3 mm
02:06 PM 59.2°F15.1°C 52.3°F11.3°C 78% 4.6 mph SE7.4 kmh SE 5.8 mph9.3 kmh 28.33 in959.4 mb - 0.00 in0.0 mm 0.01 in0.3 mm
02:07 PM 59.2°F15.1°C 52.0°F11.1°C 77% 4.6 mph SE7.4 kmh SE 4.6 mph7.4 kmh 28.33 in959.4 mb - 0.00 in0.0 mm 0.01 in0.3 mm
02:08 PM 59.3°F15.2°C 52.1°F11.2°C 77% 3.5 mph NE5.6 kmh NE 6.9 mph11.1 kmh 28.33 in959.4 mb - 0.00 in0.0 mm 0.01 in0.3 mm
02:09 PM 59.5°F15.3°C 51.9°F11.1°C 76% 4.6 mph SSE7.4 kmh SSE 4.6 mph7.4 kmh 28.33 in959.4 mb - 0.00 in0.0 mm 0.01 in0.3 mm
02:10 PM 59.6°F15.3°C 52.4°F11.3°C 77% 3.5 mph SSE5.6 kmh SSE 4.6 mph7.4 kmh 28.33 in959.4 mb - 0.00 in0.0 mm 0.01 in0.3 mm
02:11 PM 59.7°F15.4°C 52.5°F11.4°C 77% 3.5 mph SE5.6 kmh SE 5.8 mph9.3 kmh 28.33 in959.4 mb - 0.00 in0.0 mm 0.01 in0.3 mm
02:12 PM 59.7°F15.4°C 52.5°F11.4°C 77% 3.5 mph SSE5.6 kmh SSE 5.8 mph9.3 kmh 28.33 in959.4 mb - 0.00 in0.0 mm 0.01 in0.3 mm
02:13 PM 59.9°F15.5°C 52.3°F11.3°C 76% 4.6 mph SE7.4 kmh SE 5.8 mph9.3 kmh 28.33 in959.4 mb - 0.00 in0.0 mm 0.01 in0.3 mm
02:14 PM 59.9°F15.5°C 52.3°F11.3°C 76% 4.6 mph SE7.4 kmh SE 6.9 mph11.1 kmh 28.33 in959.4 mb - 0.00 in0.0 mm 0.01 in0.3 mm
02:15 PM 59.9°F15.5°C 52.3°F11.3°C 76% 4.6 mph SSE7.4 kmh SSE 4.6 mph7.4 kmh 28.33 in959.4 mb - 0.00 in0.0 mm 0.01 in0.3 mm
02:16 PM 59.9°F15.5°C 52.0°F11.1°C 75% 3.5 mph E5.6 kmh E 6.9 mph11.1 kmh 28.33 in959.4 mb - 0.00 in0.0 mm 0.01 in0.3 mm
02:17 PM 59.9°F15.5°C 52.0°F11.1°C 75% 5.8 mph S9.3 kmh S 6.9 mph11.1 kmh 28.33 in959.4 mb - 0.00 in0.0 mm 0.01 in0.3 mm
02:18 PM 59.9°F15.5°C 52.0°F11.1°C 75% 5.8 mph SE9.3 kmh SE 8.1 mph13.0 kmh 28.33 in959.4 mb - 0.00 in0.0 mm 0.01 in0.3 mm
02:19 PM 59.9°F15.5°C 52.0°F11.1°C 75% 6.9 mph SE11.1 kmh SE 9.2 mph14.8 kmh 28.33 in959.4 mb - 0.00 in0.0 mm 0.01 in0.3 mm
02:20 PM 60.0°F15.6°C 51.7°F10.9°C 74% 5.8 mph SE9.3 kmh SE 6.9 mph11.1 kmh 28.33 in959.4 mb - 0.00 in0.0 mm 0.01 in0.3 mm
02:21 PM 60.1°F15.6°C 51.4°F10.8°C 73% 6.9 mph E11.1 kmh E 6.9 mph11.1 kmh 28.33 in959.4 mb - 0.00 in0.0 mm 0.01 in0.3 mm
02:22 PM 60.1°F15.6°C 51.4°F10.8°C 73% 4.6 mph ESE7.4 kmh ESE 5.8 mph9.3 kmh 28.33 in959.4 mb - 0.00 in0.0 mm 0.01 in0.3 mm
02:23 PM 60.1°F15.6°C 51.4°F10.8°C 73% 3.5 mph S5.6 kmh S 3.5 mph5.6 kmh 28.33 in959.4 mb - 0.00 in0.0 mm 0.01 in0.3 mm
02:24 PM 60.1°F15.6°C 51.4°F10.8°C 73% 3.5 mph SE5.6 kmh SE 5.8 mph9.3 kmh 28.33 in959.4 mb - 0.00 in0.0 mm 0.01 in0.3 mm
02:25 PM 60.3°F15.7°C 51.6°F10.9°C 73% 4.6 mph SE7.4 kmh SE 5.8 mph9.3 kmh 28.33 in959.4 mb - 0.00 in0.0 mm 0.01 in0.3 mm
02:26 PM 60.3°F15.7°C 51.6°F10.9°C 73% 5.8 mph SE9.3 kmh SE 8.1 mph13.0 kmh 28.32 in959.0 mb - 0.00 in0.0 mm 0.01 in0.3 mm
02:27 PM 60.3°F15.7°C 51.2°F10.7°C 72% 5.8 mph SE9.3 kmh SE 8.1 mph13.0 kmh 28.32 in959.0 mb - 0.00 in0.0 mm 0.01 in0.3 mm
02:28 PM 60.5°F15.8°C 51.4°F10.8°C 72% 4.6 mph SE7.4 kmh SE 5.8 mph9.3 kmh 28.32 in959.0 mb - 0.00 in0.0 mm 0.01 in0.3 mm
02:29 PM 60.7°F15.9°C 51.3°F10.7°C 71% 5.8 mph SE9.3 kmh SE 8.1 mph13.0 kmh 28.32 in959.0 mb - 0.00 in0.0 mm 0.01 in0.3 mm
02:30 PM 60.8°F16.0°C 51.3°F10.7°C 71% 6.9 mph SE11.1 kmh SE 8.1 mph13.0 kmh 28.32 in959.0 mb - 0.00 in0.0 mm 0.01 in0.3 mm
02:31 PM 61.0°F16.1°C 51.5°F10.8°C 71% 4.6 mph SSE7.4 kmh SSE 2.3 mph3.7 kmh 28.32 in959.0 mb - 0.00 in0.0 mm 0.01 in0.3 mm
02:32 PM 61.2°F16.2°C 51.7°F10.9°C 71% 3.5 mph SE5.6 kmh SE 6.9 mph11.1 kmh 28.32 in959.0 mb - 0.00 in0.0 mm 0.01 in0.3 mm
02:33 PM 61.1°F16.2°C 51.6°F10.9°C 71% 5.8 mph ESE9.3 kmh ESE 10.4 mph16.7 kmh 28.32 in959.0 mb - 0.00 in0.0 mm 0.01 in0.3 mm
02:34 PM 61.2°F16.2°C 51.3°F10.7°C 70% 6.9 mph ESE11.1 kmh ESE 10.4 mph16.7 kmh 28.32 in959.0 mb - 0.00 in0.0 mm 0.01 in0.3 mm
02:35 PM 61.2°F16.2°C 51.7°F10.9°C 71% 4.6 mph SE7.4 kmh SE 5.8 mph9.3 kmh 28.32 in959.0 mb - 0.00 in0.0 mm 0.01 in0.3 mm
02:36 PM 61.2°F16.2°C 51.7°F10.9°C 71% 4.6 mph SE7.4 kmh SE 5.8 mph9.3 kmh 28.32 in959.0 mb - 0.00 in0.0 mm 0.01 in0.3 mm
02:37 PM 61.2°F16.2°C 51.7°F10.9°C 71% 5.8 mph SE9.3 kmh SE 8.1 mph13.0 kmh 28.32 in959.0 mb - 0.00 in0.0 mm 0.01 in0.3 mm
02:38 PM 61.0°F16.1°C 51.5°F10.8°C 71% 5.8 mph ESE9.3 kmh ESE 10.4 mph16.7 kmh 28.31 in958.7 mb - 0.00 in0.0 mm 0.01 in0.3 mm
02:39 PM 60.9°F16.1°C 51.5°F10.8°C 71% 9.2 mph SSE14.8 kmh SSE 10.4 mph16.7 kmh 28.31 in958.7 mb - 0.00 in0.0 mm 0.01 in0.3 mm
02:40 PM 60.8°F16.0°C 50.9°F10.5°C 70% 9.2 mph SE14.8 kmh SE 11.5 mph18.5 kmh 28.31 in958.7 mb - 0.00 in0.0 mm 0.01 in0.3 mm
02:41 PM 60.4°F15.8°C 50.5°F10.3°C 70% 9.2 mph SSE14.8 kmh SSE 8.1 mph13.0 kmh 28.31 in958.7 mb - 0.00 in0.0 mm 0.01 in0.3 mm
02:42 PM 60.3°F15.7°C 50.9°F10.5°C 71% 6.9 mph SSE11.1 kmh SSE 8.1 mph13.0 kmh 28.31 in958.7 mb - 0.00 in0.0 mm 0.01 in0.3 mm
02:43 PM 60.3°F15.7°C 51.2°F10.7°C 72% 4.6 mph SSE7.4 kmh SSE 6.9 mph11.1 kmh 28.31 in958.7 mb - 0.00 in0.0 mm 0.01 in0.3 mm
02:44 PM 60.1°F15.6°C 51.1°F10.6°C 72% 5.8 mph SE9.3 kmh SE 8.1 mph13.0 kmh 28.31 in958.7 mb - 0.00 in0.0 mm 0.01 in0.3 mm
02:45 PM 60.1°F15.6°C 51.0°F10.6°C 72% 6.9 mph SE11.1 kmh SE 9.2 mph14.8 kmh 28.31 in958.7 mb - 0.00 in0.0 mm 0.01 in0.3 mm
02:46 PM 60.0°F15.6°C 51.0°F10.6°C 72% 8.1 mph SSE13.0 kmh SSE 9.2 mph14.8 kmh 28.31 in958.7 mb - 0.00 in0.0 mm 0.01 in0.3 mm
02:47 PM 59.9°F15.5°C 50.8°F10.4°C 72% 6.9 mph SE11.1 kmh SE 10.4 mph16.7 kmh 28.31 in958.7 mb - 0.00 in0.0 mm 0.01 in0.3 mm
02:48 PM 59.9°F15.5°C 50.8°F10.4°C 72% 6.9 mph SE11.1 kmh SE 10.4 mph16.7 kmh 28.31 in958.7 mb - 0.00 in0.0 mm 0.01 in0.3 mm
02:49 PM 59.7°F15.4°C 50.7°F10.4°C 72% 8.1 mph ESE13.0 kmh ESE 9.2 mph14.8 kmh 28.31 in958.7 mb - 0.00 in0.0 mm 0.01 in0.3 mm
02:50 PM 59.7°F15.4°C 50.7°F10.4°C 72% 6.9 mph S11.1 kmh S 5.8 mph9.3 kmh 28.31 in958.7 mb - 0.00 in0.0 mm 0.01 in0.3 mm
02:51 PM 59.7°F15.4°C 51.0°F10.6°C 73% 4.6 mph S7.4 kmh S 6.9 mph11.1 kmh 28.31 in958.7 mb - 0.00 in0.0 mm 0.01 in0.3 mm
02:52 PM 59.7°F15.4°C 51.0°F10.6°C 73% 6.9 mph SE11.1 kmh SE 8.1 mph13.0 kmh 28.31 in958.7 mb - 0.00 in0.0 mm 0.01 in0.3 mm
02:53 PM 59.7°F15.4°C 51.0°F10.6°C 73% 5.8 mph ESE9.3 kmh ESE 5.8 mph9.3 kmh 28.31 in958.7 mb - 0.00 in0.0 mm 0.01 in0.3 mm
02:54 PM 59.7°F15.4°C 51.0°F10.6°C 73% 4.6 mph SE7.4 kmh SE 5.8 mph9.3 kmh 28.31 in958.7 mb - 0.00 in0.0 mm 0.01 in0.3 mm
02:55 PM 59.7°F15.4°C 51.0°F10.6°C 73% 4.6 mph SE7.4 kmh SE 5.8 mph9.3 kmh 28.31 in958.7 mb - 0.00 in0.0 mm 0.01 in0.3 mm
02:56 PM 59.7°F15.4°C 51.0°F10.6°C 73% 5.8 mph SSE9.3 kmh SSE 10.4 mph16.7 kmh 28.31 in958.7 mb - 0.00 in0.0 mm 0.01 in0.3 mm
02:57 PM 59.7°F15.4°C 51.0°F10.6°C 73% 5.8 mph SE9.3 kmh SE 10.4 mph16.7 kmh 28.31 in958.7 mb - 0.00 in0.0 mm 0.01 in0.3 mm
02:58 PM 59.7°F15.4°C 51.0°F10.6°C 73% 3.5 mph SE5.6 kmh SE 3.5 mph5.6 kmh 28.31 in958.7 mb - 0.00 in0.0 mm 0.01 in0.3 mm
02:59 PM 59.8°F15.4°C 51.1°F10.6°C 73% 3.5 mph SE5.6 kmh SE 5.8 mph9.3 kmh 28.31 in958.7 mb - 0.00 in0.0 mm 0.01 in0.3 mm
03:00 PM 60.1°F15.6°C 51.4°F10.8°C 73% 4.6 mph S7.4 kmh S 5.8 mph9.3 kmh 28.31 in958.7 mb - 0.00 in0.0 mm 0.01 in0.3 mm
03:01 PM 60.5°F15.8°C 51.8°F11.0°C 73% 3.5 mph SE5.6 kmh SE 6.9 mph11.1 kmh 28.31 in958.7 mb - 0.00 in0.0 mm 0.01 in0.3 mm
03:02 PM 61.1°F16.2°C 52.4°F11.3°C 73% 5.8 mph ESE9.3 kmh ESE 9.2 mph14.8 kmh 28.31 in958.7 mb - 0.00 in0.0 mm 0.01 in0.3 mm
03:03 PM 61.5°F16.4°C 52.0°F11.1°C 71% 6.9 mph ESE11.1 kmh ESE 6.9 mph11.1 kmh 28.31 in958.7 mb - 0.00 in0.0 mm 0.01 in0.3 mm
03:04 PM 61.8°F16.6°C 51.5°F10.8°C 69% 5.8 mph E9.3 kmh E 6.9 mph11.1 kmh 28.31 in958.7 mb - 0.00 in0.0 mm 0.01 in0.3 mm
03:05 PM 61.9°F16.6°C 51.6°F10.9°C 69% 6.9 mph S11.1 kmh S 12.7 mph20.4 kmh 28.31 in958.7 mb - 0.00 in0.0 mm 0.01 in0.3 mm
03:06 PM 61.8°F16.6°C 51.6°F10.9°C 69% 8.1 mph ESE13.0 kmh ESE 12.7 mph20.4 kmh 28.31 in958.7 mb - 0.00 in0.0 mm 0.01 in0.3 mm
03:07 PM 62.2°F16.8°C 51.9°F11.1°C 69% 5.8 mph ESE9.3 kmh ESE 8.1 mph13.0 kmh 28.31 in958.7 mb - 0.00 in0.0 mm 0.01 in0.3 mm
03:08 PM 62.7°F17.1°C 52.0°F11.1°C 68% 4.6 mph SSE7.4 kmh SSE 10.4 mph16.7 kmh 28.31 in958.7 mb - 0.00 in0.0 mm 0.01 in0.3 mm
03:09 PM 62.9°F17.2°C 52.2°F11.2°C 68% 8.1 mph SE13.0 kmh SE 11.5 mph18.5 kmh 28.31 in958.7 mb - 0.00 in0.0 mm 0.01 in0.3 mm
03:10 PM 63.0°F17.2°C 52.3°F11.3°C 68% 8.1 mph ESE13.0 kmh ESE 9.2 mph14.8 kmh 28.31 in958.7 mb - 0.00 in0.0 mm 0.01 in0.3 mm
03:11 PM 63.0°F17.2°C 52.3°F11.3°C 68% 5.8 mph SE9.3 kmh SE 6.9 mph11.1 kmh 28.31 in958.7 mb - 0.00 in0.0 mm 0.01 in0.3 mm
03:12 PM 63.1°F17.3°C 52.0°F11.1°C 67% 5.8 mph SE9.3 kmh SE 8.1 mph13.0 kmh 28.31 in958.7 mb - 0.00 in0.0 mm 0.01 in0.3 mm
03:13 PM 63.1°F17.3°C 52.0°F11.1°C 67% 8.1 mph S13.0 kmh S 12.7 mph20.4 kmh 28.30 in958.3 mb - 0.00 in0.0 mm 0.01 in0.3 mm
03:14 PM 63.1°F17.3°C 52.3°F11.3°C 68% 8.1 mph SE13.0 kmh SE 8.1 mph13.0 kmh 28.30 in958.3 mb - 0.00 in0.0 mm 0.01 in0.3 mm
03:15 PM 63.3°F17.4°C 52.6°F11.4°C 68% 5.8 mph ESE9.3 kmh ESE 8.1 mph13.0 kmh 28.30 in958.3 mb - 0.00 in0.0 mm 0.01 in0.3 mm
03:16 PM 63.3°F17.4°C 52.6°F11.4°C 68% 8.1 mph SE13.0 kmh SE 8.1 mph13.0 kmh 28.30 in958.3 mb - 0.00 in0.0 mm 0.01 in0.3 mm
03:17 PM 62.9°F17.2°C 52.2°F11.2°C 68% 5.8 mph SE9.3 kmh SE 8.1 mph13.0 kmh 28.30 in958.3 mb - 0.00 in0.0 mm 0.01 in0.3 mm
03:18 PM 62.4°F16.9°C 51.7°F10.9°C 68% 3.5 mph SSE5.6 kmh SSE 5.8 mph9.3 kmh 28.30 in958.3 mb - 0.00 in0.0 mm 0.01 in0.3 mm
03:19 PM 62.2°F16.8°C 51.9°F11.1°C 69% 5.8 mph SE9.3 kmh SE 8.1 mph13.0 kmh 28.30 in958.3 mb - 0.00 in0.0 mm 0.01 in0.3 mm
03:20 PM 62.2°F16.8°C 51.9°F11.1°C 69% 6.9 mph SSE11.1 kmh SSE 8.1 mph13.0 kmh 28.30 in958.3 mb - 0.00 in0.0 mm 0.01 in0.3 mm
03:21 PM 62.3°F16.8°C 52.0°F11.1°C 69% 5.8 mph SE9.3 kmh SE 6.9 mph11.1 kmh 28.30 in958.3 mb - 0.00 in0.0 mm 0.01 in0.3 mm
03:22 PM 62.3°F16.8°C 52.3°F11.3°C 70% 4.6 mph SE7.4 kmh SE 10.4 mph16.7 kmh 28.30 in958.3 mb - 0.00 in0.0 mm 0.01 in0.3 mm
03:23 PM 62.1°F16.7°C 52.2°F11.2°C 70% 8.1 mph S13.0 kmh S 12.7 mph20.4 kmh 28.30 in958.3 mb - 0.00 in0.0 mm 0.01 in0.3 mm
03:24 PM 62.1°F16.7°C 52.2°F11.2°C 70% 9.2 mph SE14.8 kmh SE 12.7 mph20.4 kmh 28.30 in958.3 mb - 0.00 in0.0 mm 0.01 in0.3 mm
03:25 PM 62.1°F16.7°C 51.8°F11.0°C 69% 8.1 mph E13.0 kmh E 11.5 mph18.5 kmh 28.30 in958.3 mb - 0.00 in0.0 mm 0.01 in0.3 mm
03:26 PM 61.8°F16.6°C 51.5°F10.8°C 69% 5.8 mph ESE9.3 kmh ESE 4.6 mph7.4 kmh 28.30 in958.3 mb - 0.00 in0.0 mm 0.01 in0.3 mm
03:27 PM 61.7°F16.5°C 51.8°F11.0°C 70% 4.6 mph SE7.4 kmh SE 4.6 mph7.4 kmh 28.30 in958.3 mb - 0.00 in0.0 mm 0.01 in0.3 mm
03:28 PM 61.7°F16.5°C 51.8°F11.0°C 70% 5.8 mph S9.3 kmh S 9.2 mph14.8 kmh 28.30 in958.3 mb - 0.00 in0.0 mm 0.01 in0.3 mm
03:29 PM 61.7°F16.5°C 51.8°F11.0°C 70% 5.8 mph ESE9.3 kmh ESE 4.6 mph7.4 kmh 28.30 in958.3 mb - 0.00 in0.0 mm 0.01 in0.3 mm
03:30 PM 61.7°F16.5°C 51.8°F11.0°C 70% 5.8 mph NE9.3 kmh NE 10.4 mph16.7 kmh 28.30 in958.3 mb - 0.00 in0.0 mm 0.01 in0.3 mm
03:31 PM 61.7°F16.5°C 52.2°F11.2°C 71% 5.8 mph SSE9.3 kmh SSE 5.8 mph9.3 kmh 28.30 in958.3 mb - 0.00 in0.0 mm 0.01 in0.3 mm
03:32 PM 61.8°F16.6°C 51.9°F11.1°C 70% 5.8 mph SE9.3 kmh SE 8.1 mph13.0 kmh 28.30 in958.3 mb - 0.00 in0.0 mm 0.01 in0.3 mm
03:33 PM 61.6°F16.4°C 51.7°F10.9°C 70% 4.6 mph SE7.4 kmh SE 6.9 mph11.1 kmh 28.30 in958.3 mb - 0.00 in0.0 mm 0.01 in0.3 mm
03:34 PM 61.5°F16.4°C 51.6°F10.9°C 70% 5.8 mph SE9.3 kmh SE 8.1 mph13.0 kmh 28.30 in958.3 mb - 0.00 in0.0 mm 0.01 in0.3 mm
03:35 PM 61.4°F16.3°C 51.5°F10.8°C 70% 5.8 mph ESE9.3 kmh ESE 6.9 mph11.1 kmh 28.30 in958.3 mb - 0.00 in0.0 mm 0.01 in0.3 mm
03:36 PM 61.2°F16.2°C 51.7°F10.9°C 71% 4.6 mph SE7.4 kmh SE 6.9 mph11.1 kmh 28.30 in958.3 mb - 0.00 in0.0 mm 0.01 in0.3 mm
03:37 PM 61.2°F16.2°C 51.7°F10.9°C 71% 5.8 mph SE9.3 kmh SE 5.8 mph9.3 kmh 28.30 in958.3 mb - 0.00 in0.0 mm 0.01 in0.3 mm
03:38 PM 61.2°F16.2°C 51.7°F10.9°C 71% 5.8 mph S9.3 kmh S 10.4 mph16.7 kmh 28.30 in958.3 mb - 0.00 in0.0 mm 0.01 in0.3 mm
03:39 PM 60.9°F16.1°C 51.5°F10.8°C 71% 8.1 mph SE13.0 kmh SE 10.4 mph16.7 kmh 28.30 in958.3 mb - 0.00 in0.0 mm 0.01 in0.3 mm
03:40 PM 60.6°F15.9°C 51.6°F10.9°C 72% 5.8 mph SE9.3 kmh SE 6.9 mph11.1 kmh 28.30 in958.3 mb - 0.00 in0.0 mm 0.01 in0.3 mm
03:41 PM 60.6°F15.9°C 51.9°F11.1°C 73% 4.6 mph SE7.4 kmh SE 5.8 mph9.3 kmh 28.30 in958.3 mb - 0.00 in0.0 mm 0.01 in0.3 mm
03:42 PM 60.4°F15.8°C 51.7°F10.9°C 73% 3.5 mph SSE5.6 kmh SSE 5.8 mph9.3 kmh 28.30 in958.3 mb - 0.00 in0.0 mm 0.01 in0.3 mm
03:43 PM 60.2°F15.7°C 51.5°F10.8°C 73% 4.6 mph ESE7.4 kmh ESE 5.8 mph9.3 kmh 28.30 in958.3 mb - 0.00 in0.0 mm 0.01 in0.3 mm
03:44 PM 59.9°F15.5°C 51.2°F10.7°C 73% 4.6 mph ESE7.4 kmh ESE 5.8 mph9.3 kmh 28.30 in958.3 mb - 0.00 in0.0 mm 0.01 in0.3 mm
03:45 PM 59.7°F15.4°C 51.1°F10.6°C 73% 3.5 mph SE5.6 kmh SE 3.5 mph5.6 kmh 28.30 in958.3 mb - 0.00 in0.0 mm 0.01 in0.3 mm
03:46 PM 59.7°F15.4°C 51.4°F10.8°C 74% 4.6 mph ESE7.4 kmh ESE 9.2 mph14.8 kmh 28.30 in958.3 mb - 0.00 in0.0 mm 0.01 in0.3 mm
03:47 PM 59.5°F15.3°C 51.2°F10.7°C 74% 6.9 mph SE11.1 kmh SE 9.2 mph14.8 kmh 28.30 in958.3 mb - 0.00 in0.0 mm 0.01 in0.3 mm
03:48 PM 59.3°F15.2°C 51.4°F10.8°C 75% 5.8 mph SE9.3 kmh SE 5.8 mph9.3 kmh 28.30 in958.3 mb - 0.00 in0.0 mm 0.01 in0.3 mm
03:49 PM 59.2°F15.1°C 51.6°F10.9°C 76% 3.5 mph SE5.6 kmh SE 6.9 mph11.1 kmh 28.30 in958.3 mb - 0.00 in0.0 mm 0.01 in0.3 mm
03:50 PM 59.1°F15.1°C 51.6°F10.9°C 76% 4.6 mph SE7.4 kmh SE 6.9 mph11.1 kmh 28.30 in958.3 mb - 0.00 in0.0 mm 0.01 in0.3 mm
03:51 PM 59.0°F15.0°C 51.4°F10.8°C 76% 5.8 mph E9.3 kmh E 10.4 mph16.7 kmh 28.30 in958.3 mb - 0.00 in0.0 mm 0.01 in0.3 mm
03:52 PM 58.9°F14.9°C 51.4°F10.8°C 76% 3.5 mph SE5.6 kmh SE 3.5 mph5.6 kmh 28.30 in958.3 mb - 0.00 in0.0 mm 0.01 in0.3 mm
03:53 PM 58.8°F14.9°C 51.2°F10.7°C 76% 3.5 mph ESE5.6 kmh ESE 5.8 mph9.3 kmh 28.30 in958.3 mb - 0.00 in0.0 mm 0.01 in0.3 mm
03:54 PM 58.8°F14.9°C 51.2°F10.7°C 76% 4.6 mph SE7.4 kmh SE 4.6 mph7.4 kmh 28.30 in958.3 mb - 0.00 in0.0 mm 0.01 in0.3 mm
03:55 PM 58.8°F14.9°C 51.6°F10.9°C 77% 3.5 mph SE5.6 kmh SE 9.2 mph14.8 kmh 28.30 in958.3 mb - 0.00 in0.0 mm 0.01 in0.3 mm
03:56 PM 58.6°F14.8°C 51.4°F10.8°C 77% 5.8 mph S9.3 kmh S 9.2 mph14.8 kmh 28.30 in958.3 mb - 0.00 in0.0 mm 0.01 in0.3 mm
03:57 PM 58.6°F14.8°C 51.4°F10.8°C 77% 4.6 mph SE7.4 kmh SE 8.1 mph13.0 kmh 28.30 in958.3 mb - 0.00 in0.0 mm 0.01 in0.3 mm
03:58 PM 58.5°F14.7°C 51.3°F10.7°C 77% 4.6 mph SSE7.4 kmh SSE 5.8 mph9.3 kmh 28.30 in958.3 mb - 0.00 in0.0 mm 0.01 in0.3 mm
03:59 PM 58.5°F14.7°C 51.7°F10.9°C 78% 3.5 mph SE5.6 kmh SE 5.8 mph9.3 kmh 28.30 in958.3 mb - 0.00 in0.0 mm 0.01 in0.3 mm
04:00 PM 58.5°F14.7°C 51.7°F10.9°C 78% 4.6 mph SE7.4 kmh SE 6.9 mph11.1 kmh 28.30 in958.3 mb - 0.00 in0.0 mm 0.01 in0.3 mm
04:01 PM 58.5°F14.7°C 51.7°F10.9°C 78% 4.6 mph SE7.4 kmh SE 6.9 mph11.1 kmh 28.30 in958.3 mb - 0.00 in0.0 mm 0.01 in0.3 mm
04:02 PM 58.5°F14.7°C 51.7°F10.9°C 78% 3.5 mph SSE5.6 kmh SSE 5.8 mph9.3 kmh 28.30 in958.3 mb - 0.00 in0.0 mm 0.01 in0.3 mm
04:03 PM 58.5°F14.7°C 51.7°F10.9°C 78% 4.6 mph S7.4 kmh S 4.6 mph7.4 kmh 28.30 in958.3 mb - 0.00 in0.0 mm 0.01 in0.3 mm
04:04 PM 58.5°F14.7°C 51.7°F10.9°C 78% 4.6 mph S7.4 kmh S 5.8 mph9.3 kmh 28.30 in958.3 mb - 0.00 in0.0 mm 0.01 in0.3 mm
04:05 PM 58.5°F14.7°C 51.7°F10.9°C 78% 3.5 mph SW5.6 kmh SW 3.5 mph5.6 kmh 28.30 in958.3 mb - 0.00 in0.0 mm 0.01 in0.3 mm
04:06 PM 58.5°F14.7°C 51.7°F10.9°C 78% 3.5 mph SE5.6 kmh SE 6.9 mph11.1 kmh 28.30 in958.3 mb - 0.00 in0.0 mm 0.01 in0.3 mm
04:07 PM 58.5°F14.7°C 51.6°F10.9°C 78% 4.6 mph ESE7.4 kmh ESE 6.9 mph11.1 kmh 28.30 in958.3 mb - 0.00 in0.0 mm 0.01 in0.3 mm
04:08 PM 58.3°F14.6°C 51.5°F10.8°C 78% 4.6 mph SE7.4 kmh SE 4.6 mph7.4 kmh 28.30 in958.3 mb - 0.00 in0.0 mm 0.01 in0.3 mm
04:09 PM 58.3°F14.6°C 51.5°F10.8°C 78% 4.6 mph SE7.4 kmh SE 4.6 mph7.4 kmh 28.30 in958.3 mb - 0.00 in0.0 mm 0.01 in0.3 mm
04:10 PM 58.3°F14.6°C 51.5°F10.8°C 78% 4.6 mph SE7.4 kmh SE 9.2 mph14.8 kmh 28.30 in958.3 mb - 0.00 in0.0 mm 0.01 in0.3 mm
04:11 PM 58.3°F14.6°C 51.5°F10.8°C 78% 3.5 mph SSE5.6 kmh SSE 2.3 mph3.7 kmh 28.30 in958.3 mb - 0.00 in0.0 mm 0.01 in0.3 mm
04:12 PM 58.3°F14.6°C 51.5°F10.8°C 78% 3.5 mph SSE5.6 kmh SSE 6.9 mph11.1 kmh 28.30 in958.3 mb - 0.00 in0.0 mm 0.01 in0.3 mm
04:13 PM 58.3°F14.6°C 51.5°F10.8°C 78% 5.8 mph ESE9.3 kmh ESE 6.9 mph11.1 kmh 28.30 in958.3 mb - 0.00 in0.0 mm 0.01 in0.3 mm
04:14 PM 58.3°F14.6°C 51.8°F11.0°C 79% 4.6 mph E7.4 kmh E 5.8 mph9.3 kmh 28.30 in958.3 mb - 0.00 in0.0 mm 0.01 in0.3 mm
04:15 PM 58.3°F14.6°C 51.5°F10.8°C 78% 3.5 mph ESE5.6 kmh ESE 3.5 mph5.6 kmh 28.30 in958.3 mb - 0.00 in0.0 mm 0.01 in0.3 mm
04:16 PM 58.3°F14.6°C 51.5°F10.8°C 78% 3.5 mph SE5.6 kmh SE 5.8 mph9.3 kmh 28.30 in958.3 mb - 0.00 in0.0 mm 0.01 in0.3 mm
04:17 PM 58.3°F14.6°C 51.5°F10.8°C 78% 4.6 mph SE7.4 kmh SE 5.8 mph9.3 kmh 28.30 in958.3 mb - 0.00 in0.0 mm 0.01 in0.3 mm
04:18 PM 58.3°F14.6°C 51.5°F10.8°C 78% 4.6 mph SE7.4 kmh SE 4.6 mph7.4 kmh 28.30 in958.3 mb - 0.00 in0.0 mm 0.01 in0.3 mm
04:19 PM 58.3°F14.6°C 51.8°F11.0°C 79% 3.5 mph ESE5.6 kmh ESE 4.6 mph7.4 kmh 28.30 in958.3 mb - 0.00 in0.0 mm 0.01 in0.3 mm
04:20 PM 58.3°F14.6°C 51.8°F11.0°C 79% 4.6 mph SW7.4 kmh SW 4.6 mph7.4 kmh 28.30 in958.3 mb - 0.00 in0.0 mm 0.01 in0.3 mm
04:21 PM 58.3°F14.6°C 51.8°F11.0°C 79% 3.5 mph SE5.6 kmh SE 4.6 mph7.4 kmh 28.30 in958.3 mb - 0.00 in0.0 mm 0.01 in0.3 mm
04:22 PM 58.3°F14.6°C 51.8°F11.0°C 79% 3.5 mph ESE5.6 kmh ESE 4.6 mph7.4 kmh 28.30 in958.3 mb - 0.00 in0.0 mm 0.01 in0.3 mm
04:23 PM 58.3°F14.6°C 51.8°F11.0°C 79% 3.5 mph S5.6 kmh S 8.1 mph13.0 kmh 28.30 in958.3 mb - 0.00 in0.0 mm 0.01 in0.3 mm
04:24 PM 58.3°F14.6°C 51.8°F11.0°C 79% 6.9 mph ESE11.1 kmh ESE 8.1 mph13.0 kmh 28.30 in958.3 mb - 0.00 in0.0 mm 0.01 in0.3 mm
04:25 PM 58.3°F14.6°C 51.8°F11.0°C 79% 5.8 mph SE9.3 kmh SE 8.1 mph13.0 kmh 28.30 in958.3 mb - 0.00 in0.0 mm 0.01 in0.3 mm
04:26 PM 58.2°F14.6°C 51.7°F10.9°C 79% 4.6 mph SSE7.4 kmh SSE 5.8 mph9.3 kmh 28.30 in958.3 mb - 0.00 in0.0 mm 0.01 in0.3 mm
04:27 PM 58.1°F14.5°C 51.6°F10.9°C 79% 4.6 mph ENE7.4 kmh ENE 5.8 mph9.3 kmh 28.30 in958.3 mb - 0.00 in0.0 mm 0.01 in0.3 mm
04:28 PM 58.1°F14.5°C 51.6°F10.9°C 79% 4.6 mph SE7.4 kmh SE 6.9 mph11.1 kmh 28.30 in958.3 mb - 0.00 in0.0 mm 0.01 in0.3 mm
04:29 PM 58.1°F14.5°C 51.6°F10.9°C 79% 4.6 mph ENE7.4 kmh ENE 5.8 mph9.3 kmh 28.30 in958.3 mb - 0.00 in0.0 mm 0.01 in0.3 mm
04:30 PM 58.1°F14.5°C 51.6°F10.9°C 79% 4.6 mph SSE7.4 kmh SSE 6.9 mph11.1 kmh 28.30 in958.3 mb - 0.00 in0.0 mm 0.01 in0.3 mm
04:31 PM 58.1°F14.5°C 51.6°F10.9°C 79% 5.8 mph SE9.3 kmh SE 5.8 mph9.3 kmh 28.30 in958.3 mb - 0.00 in0.0 mm 0.01 in0.3 mm
04:32 PM 58.1°F14.5°C 51.6°F10.9°C 79% 3.5 mph S5.6 kmh S 4.6 mph7.4 kmh 28.30 in958.3 mb - 0.00 in0.0 mm 0.01 in0.3 mm
04:33 PM 58.1°F14.5°C 51.6°F10.9°C 79% 3.5 mph SE5.6 kmh SE 4.6 mph7.4 kmh 28.30 in958.3 mb - 0.00 in0.0 mm 0.01 in0.3 mm
04:34 PM 58.1°F14.5°C 51.6°F10.9°C 79% 3.5 mph ESE5.6 kmh ESE 4.6 mph7.4 kmh 28.30 in958.3 mb - 0.00 in0.0 mm 0.01 in0.3 mm
04:35 PM 58.1°F14.5°C 52.0°F11.1°C 80% 3.5 mph SE5.6 kmh SE 4.6 mph7.4 kmh 28.30 in958.3 mb - 0.00 in0.0 mm 0.01 in0.3 mm
04:36 PM 58.1°F14.5°C 52.0°F11.1°C 80% 4.6 mph SE7.4 kmh SE 5.8 mph9.3 kmh 28.30 in958.3 mb - 0.00 in0.0 mm 0.01 in0.3 mm
04:37 PM 58.1°F14.5°C 52.0°F11.1°C 80% 3.5 mph ENE5.6 kmh ENE 4.6 mph7.4 kmh 28.30 in958.3 mb - 0.00 in0.0 mm 0.01 in0.3 mm
04:38 PM 58.1°F14.5°C 52.0°F11.1°C 80% 4.6 mph SE7.4 kmh SE 8.1 mph13.0 kmh 28.30 in958.3 mb - 0.00 in0.0 mm 0.01 in0.3 mm
04:39 PM 58.1°F14.5°C 51.6°F10.9°C 79% 5.8 mph E9.3 kmh E 5.8 mph9.3 kmh 28.30 in958.3 mb - 0.00 in0.0 mm 0.01 in0.3 mm
04:40 PM 58.1°F14.5°C 51.6°F10.9°C 79% 5.8 mph SSE9.3 kmh SSE 5.8 mph9.3 kmh 28.30 in958.3 mb - 0.00 in0.0 mm 0.01 in0.3 mm
04:41 PM 58.0°F14.4°C 51.5°F10.8°C 79% 3.5 mph SSE5.6 kmh SSE 4.6 mph7.4 kmh 28.30 in958.3 mb - 0.00 in0.0 mm 0.01 in0.3 mm
04:42 PM 57.9°F14.4°C 51.4°F10.8°C 79% 4.6 mph E7.4 kmh E 5.8 mph9.3 kmh 28.30 in958.3 mb - 0.00 in0.0 mm 0.01 in0.3 mm
04:43 PM 57.9°F14.4°C 51.4°F10.8°C 79% 4.6 mph SE7.4 kmh SE 6.9 mph11.1 kmh 28.30 in958.3 mb - 0.00 in0.0 mm 0.01 in0.3 mm
04:44 PM 57.9°F14.4°C 51.4°F10.8°C 79% 5.8 mph ENE9.3 kmh ENE 6.9 mph11.1 kmh 28.30 in958.3 mb - 0.00 in0.0 mm 0.01 in0.3 mm
04:45 PM 57.9°F14.4°C 51.4°F10.8°C 79% 4.6 mph S7.4 kmh S 8.1 mph13.0 kmh 28.30 in958.3 mb - 0.00 in0.0 mm 0.01 in0.3 mm
04:46 PM 57.9°F14.4°C 51.4°F10.8°C 79% 5.8 mph S9.3 kmh S 8.1 mph13.0 kmh 28.30 in958.3 mb - 0.00 in0.0 mm 0.01 in0.3 mm
04:47 PM 57.9°F14.4°C 51.4°F10.8°C 79% 5.8 mph S9.3 kmh S 6.9 mph11.1 kmh 28.30 in958.3 mb - 0.00 in0.0 mm 0.01 in0.3 mm
04:48 PM 57.9°F14.4°C 51.4°F10.8°C 79% 4.6 mph SE7.4 kmh SE 8.1 mph13.0 kmh 28.30 in958.3 mb - 0.00 in0.0 mm 0.01 in0.3 mm
04:49 PM 57.7°F14.3°C 51.2°F10.7°C 79% 4.6 mph SSE7.4 kmh SSE 5.8 mph9.3 kmh 28.30 in958.3 mb - 0.00 in0.0 mm 0.01 in0.3 mm
04:50 PM 57.7°F14.3°C 51.2°F10.7°C 79% 3.5 mph ESE5.6 kmh ESE 4.6 mph7.4 kmh 28.30 in958.3 mb - 0.00 in0.0 mm 0.01 in0.3 mm
04:51 PM 57.7°F14.3°C 51.2°F10.7°C 79% 2.3 mph SE3.7 kmh SE 3.5 mph5.6 kmh 28.30 in958.3 mb - 0.00 in0.0 mm 0.01 in0.3 mm
04:52 PM 57.7°F14.3°C 51.6°F10.9°C 80% 3.5 mph NW5.6 kmh NW 5.8 mph9.3 kmh 28.30 in958.3 mb - 0.00 in0.0 mm 0.01 in0.3 mm
04:53 PM 57.6°F14.2°C 51.5°F10.8°C 80% 3.5 mph SE5.6 kmh SE 5.8 mph9.3 kmh 28.30 in958.3 mb - 0.00 in0.0 mm 0.01 in0.3 mm
04:54 PM 57.6°F14.2°C 51.5°F10.8°C 80% 4.6 mph ENE7.4 kmh ENE 6.9 mph11.1 kmh 28.30 in958.3 mb - 0.00 in0.0 mm 0.01 in0.3 mm
04:55 PM 57.6°F14.2°C 51.5°F10.8°C 80% 4.6 mph SE7.4 kmh SE 5.8 mph9.3 kmh 28.30 in958.3 mb - 0.00 in0.0 mm 0.01 in0.3 mm
04:56 PM 57.6°F14.2°C 51.5°F10.8°C 80% 4.6 mph SE7.4 kmh SE 5.8 mph9.3 kmh 28.30 in958.3 mb - 0.00 in0.0 mm 0.01 in0.3 mm
04:57 PM 57.6°F14.2°C 51.5°F10.8°C 80% 4.6 mph SE7.4 kmh SE 5.8 mph9.3 kmh 28.30 in958.3 mb - 0.00 in0.0 mm 0.01 in0.3 mm
04:58 PM 57.6°F14.2°C 51.5°F10.8°C 80% 3.5 mph SE5.6 kmh SE 4.6 mph7.4 kmh 28.30 in958.3 mb - 0.00 in0.0 mm 0.01 in0.3 mm
04:59 PM 57.4°F14.1°C 51.3°F10.7°C 80% 3.5 mph SE5.6 kmh SE 2.3 mph3.7 kmh 28.30 in958.3 mb - 0.00 in0.0 mm 0.01 in0.3 mm
05:00 PM 57.2°F14.0°C 51.1°F10.6°C 80% 3.5 mph S5.6 kmh S 8.1 mph13.0 kmh 28.30 in958.3 mb - 0.00 in0.0 mm 0.01 in0.3 mm
05:01 PM 57.2°F14.0°C 51.1°F10.6°C 80% 4.6 mph SSE7.4 kmh SSE 8.1 mph13.0 kmh 28.30 in958.3 mb - 0.00 in0.0 mm 0.01 in0.3 mm
05:02 PM 57.0°F13.9°C 50.9°F10.5°C 80% 4.6 mph E7.4 kmh E 5.8 mph9.3 kmh 28.30 in958.3 mb - 0.00 in0.0 mm 0.01 in0.3 mm
05:03 PM 57.0°F13.9°C 50.9°F10.5°C 80% 4.6 mph SSE7.4 kmh SSE 4.6 mph7.4 kmh 28.30 in958.3 mb - 0.00 in0.0 mm 0.01 in0.3 mm
05:04 PM 57.1°F13.9°C 50.9°F10.5°C 80% 4.6 mph SE7.4 kmh SE 4.6 mph7.4 kmh 28.30 in958.3 mb - 0.00 in0.0 mm 0.01 in0.3 mm
05:05 PM 57.2°F14.0°C 51.1°F10.6°C 80% 4.6 mph E7.4 kmh E 6.9 mph11.1 kmh 28.30 in958.3 mb - 0.00 in0.0 mm 0.01 in0.3 mm
05:06 PM 57.3°F14.1°C 51.2°F10.7°C 80% 5.8 mph SE9.3 kmh SE 6.9 mph11.1 kmh 28.30 in958.3 mb - 0.00 in0.0 mm 0.01 in0.3 mm
05:07 PM 57.4°F14.1°C 51.3°F10.7°C 80% 4.6 mph ESE7.4 kmh ESE 5.8 mph9.3 kmh 28.30 in958.3 mb - 0.00 in0.0 mm 0.01 in0.3 mm
05:08 PM 57.4°F14.1°C 51.3°F10.7°C 80% 4.6 mph E7.4 kmh E 6.9 mph11.1 kmh 28.30 in958.3 mb - 0.00 in0.0 mm 0.01 in0.3 mm
05:09 PM 57.2°F14.0°C 51.1°F10.6°C 80% 4.6 mph SE7.4 kmh SE 6.9 mph11.1 kmh 28.30 in958.3 mb - 0.00 in0.0 mm 0.01 in0.3 mm
05:10 PM 57.2°F14.0°C 51.1°F10.6°C 80% 4.6 mph SSE7.4 kmh SSE 8.1 mph13.0 kmh 28.30 in958.3 mb - 0.00 in0.0 mm 0.01 in0.3 mm
05:11 PM 57.2°F14.0°C 51.1°F10.6°C 80% 6.9 mph SE11.1 kmh SE 8.1 mph13.0 kmh 28.30 in958.3 mb - 0.00 in0.0 mm 0.01 in0.3 mm
05:12 PM 57.2°F14.0°C 51.1°F10.6°C 80% 5.8 mph SSE9.3 kmh SSE 6.9 mph11.1 kmh 28.30 in958.3 mb - 0.00 in0.0 mm 0.01 in0.3 mm
05:13 PM 57.2°F14.0°C 51.1°F10.6°C 80% 3.5 mph SE5.6 kmh SE 4.6 mph7.4 kmh 28.30 in958.3 mb - 0.00 in0.0 mm 0.01 in0.3 mm
05:14 PM 57.2°F14.0°C 51.1°F10.6°C 80% 3.5 mph SE5.6 kmh SE 8.1 mph13.0 kmh 28.30 in958.3 mb - 0.00 in0.0 mm 0.01 in0.3 mm
05:15 PM 57.2°F14.0°C 51.1°F10.6°C 80% 5.8 mph ESE9.3 kmh ESE 8.1 mph13.0 kmh 28.30 in958.3 mb - 0.00 in0.0 mm 0.01 in0.3 mm
05:16 PM 57.2°F14.0°C 51.1°F10.6°C 80% 3.5 mph SSE5.6 kmh SSE 9.2 mph14.8 kmh 28.30 in958.3 mb - 0.00 in0.0 mm 0.01 in0.3 mm
05:17 PM 57.2°F14.0°C 51.1°F10.6°C 80% 5.8 mph SW9.3 kmh SW 10.4 mph16.7 kmh 28.30 in958.3 mb - 0.00 in0.0 mm 0.01 in0.3 mm
05:18 PM 57.2°F14.0°C 51.1°F10.6°C 80% 8.1 mph SSE13.0 kmh SSE 8.1 mph13.0 kmh 28.30 in958.3 mb - 0.00 in0.0 mm 0.01 in0.3 mm
05:19 PM 57.2°F14.0°C 51.1°F10.6°C 80% 6.9 mph SE11.1 kmh SE 5.8 mph9.3 kmh 28.30 in958.3 mb - 0.00 in0.0 mm 0.01 in0.3 mm
05:20 PM 57.0°F13.9°C 50.9°F10.5°C 80% 4.6 mph ENE7.4 kmh ENE 6.9 mph11.1 kmh 28.30 in958.3 mb - 0.00 in0.0 mm 0.01 in0.3 mm
05:21 PM 57.0°F13.9°C 50.9°F10.5°C 80% 4.6 mph SE7.4 kmh SE 6.9 mph11.1 kmh 28.30 in958.3 mb - 0.00 in0.0 mm 0.01 in0.3 mm
05:22 PM 57.0°F13.9°C 50.9°F10.5°C 80% 4.6 mph ESE7.4 kmh ESE 6.9 mph11.1 kmh 28.30 in958.3 mb - 0.00 in0.0 mm 0.01 in0.3 mm
05:23 PM 57.0°F13.9°C 50.9°F10.5°C 80% 4.6 mph ESE7.4 kmh ESE 8.1 mph13.0 kmh 28.30 in958.3 mb - 0.00 in0.0 mm 0.01 in0.3 mm
05:24 PM 56.9°F13.8°C 50.8°F10.4°C 80% 4.6 mph SE7.4 kmh SE 8.1 mph13.0 kmh 28.30 in958.3 mb - 0.00 in0.0 mm 0.01 in0.3 mm
05:25 PM 56.8°F13.8°C 50.7°F10.4°C 80% 4.6 mph SSE7.4 kmh SSE 5.8 mph9.3 kmh 28.30 in958.3 mb - 0.00 in0.0 mm 0.01 in0.3 mm
05:26 PM 56.8°F13.8°C 50.7°F10.4°C 80% 5.8 mph SSE9.3 kmh SSE 9.2 mph14.8 kmh 28.30 in958.3 mb - 0.00 in0.0 mm 0.01 in0.3 mm
05:27 PM 56.7°F13.7°C 50.6°F10.3°C 80% 4.6 mph SSE7.4 kmh SSE 6.9 mph11.1 kmh 28.30 in958.3 mb - 0.00 in0.0 mm 0.01 in0.3 mm
05:28 PM 56.6°F13.7°C 50.5°F10.3°C 80% 4.6 mph SE7.4 kmh SE 6.9 mph11.1 kmh 28.30 in958.3 mb - 0.00 in0.0 mm 0.01 in0.3 mm
05:29 PM 56.5°F13.6°C 50.4°F10.2°C 80% 4.6 mph SE7.4 kmh SE 6.9 mph11.1 kmh 28.30 in958.3 mb - 0.00 in0.0 mm 0.01 in0.3 mm
05:30 PM 56.5°F13.6°C 50.4°F10.2°C 80% 4.6 mph SE7.4 kmh SE 4.6 mph7.4 kmh 28.30 in958.3 mb - 0.00 in0.0 mm 0.01 in0.3 mm
05:31 PM 56.5°F13.6°C 50.4°F10.2°C 80% 3.5 mph SSE5.6 kmh SSE 4.6 mph7.4 kmh 28.30 in958.3 mb - 0.00 in0.0 mm 0.01 in0.3 mm
05:32 PM 56.3°F13.5°C 50.2°F10.1°C 80% 3.5 mph S5.6 kmh S 3.5 mph5.6 kmh 28.30 in958.3 mb - 0.00 in0.0 mm 0.01 in0.3 mm
05:33 PM 56.2°F13.4°C 50.5°F10.3°C 81% 3.5 mph SSE5.6 kmh SSE 6.9 mph11.1 kmh 28.30 in958.3 mb - 0.00 in0.0 mm 0.01 in0.3 mm
05:34 PM 56.1°F13.4°C 50.3°F10.2°C 81% 4.6 mph SE7.4 kmh SE 6.9 mph11.1 kmh 28.30 in958.3 mb - 0.00 in0.0 mm 0.01 in0.3 mm
05:35 PM 56.1°F13.4°C 50.3°F10.2°C 81% 4.6 mph SSE7.4 kmh SSE 9.2 mph14.8 kmh 28.30 in958.3 mb - 0.00 in0.0 mm 0.01 in0.3 mm
05:36 PM 56.1°F13.4°C 50.3°F10.2°C 81% 6.9 mph SE11.1 kmh SE 10.4 mph16.7 kmh 28.30 in958.3 mb - 0.00 in0.0 mm 0.01 in0.3 mm
05:37 PM 56.1°F13.4°C 50.3°F10.2°C 81% 6.9 mph SE11.1 kmh SE 10.4 mph16.7 kmh 28.30 in958.3 mb - 0.00 in0.0 mm 0.01 in0.3 mm
05:38 PM 56.1°F13.4°C 50.3°F10.2°C 81% 5.8 mph SE9.3 kmh SE 6.9 mph11.1 kmh 28.30 in958.3 mb - 0.00 in0.0 mm 0.01 in0.3 mm
05:39 PM 56.1°F13.4°C 50.3°F10.2°C 81% 5.8 mph S9.3 kmh S 6.9 mph11.1 kmh 28.30 in958.3 mb - 0.00 in0.0 mm 0.01 in0.3 mm
05:40 PM 56.1°F13.4°C 50.3°F10.2°C 81% 3.5 mph SE5.6 kmh SE 3.5 mph5.6 kmh 28.30 in958.3 mb - 0.00 in0.0 mm 0.01 in0.3 mm
05:41 PM 56.1°F13.4°C 50.3°F10.2°C 81% 4.6 mph SE7.4 kmh SE 10.4 mph16.7 kmh 28.30 in958.3 mb - 0.00 in0.0 mm 0.01 in0.3 mm
05:42 PM 56.1°F13.4°C 50.3°F10.2°C 81% 5.8 mph ESE9.3 kmh ESE 5.8 mph9.3 kmh 28.30 in958.3 mb - 0.00 in0.0 mm 0.01 in0.3 mm
05:43 PM 56.0°F13.3°C 50.3°F10.2°C 81% 4.6 mph SE7.4 kmh SE 5.8 mph9.3 kmh 28.30 in958.3 mb - 0.00 in0.0 mm 0.01 in0.3 mm
05:44 PM 55.9°F13.3°C 50.2°F10.1°C 81% 4.6 mph SE7.4 kmh SE 5.8 mph9.3 kmh 28.30 in958.3 mb - 0.00 in0.0 mm 0.01 in0.3 mm
05:45 PM 55.9°F13.3°C 50.2°F10.1°C 81% 3.5 mph SE5.6 kmh SE 4.6 mph7.4 kmh 28.30 in958.3 mb - 0.00 in0.0 mm 0.01 in0.3 mm
05:46 PM 55.9°F13.3°C 50.2°F10.1°C 81% 4.6 mph SE7.4 kmh SE 6.9 mph11.1 kmh 28.30 in958.3 mb - 0.00 in0.0 mm 0.01 in0.3 mm
05:47 PM 55.9°F13.3°C 50.2°F10.1°C 81% 5.8 mph SE9.3 kmh SE 9.2 mph14.8 kmh 28.30 in958.3 mb - 0.00 in0.0 mm 0.01 in0.3 mm
05:48 PM 55.9°F13.3°C 50.2°F10.1°C 81% 6.9 mph S11.1 kmh S 9.2 mph14.8 kmh 28.30 in958.3 mb - 0.00 in0.0 mm 0.01 in0.3 mm
05:49 PM 55.9°F13.3°C 50.2°F10.1°C 81% 4.6 mph SE7.4 kmh SE 5.8 mph9.3 kmh 28.30 in958.3 mb - 0.00 in0.0 mm 0.01 in0.3 mm
05:50 PM 55.9°F13.3°C 50.2°F10.1°C 81% 4.6 mph E7.4 kmh E 8.1 mph13.0 kmh 28.30 in958.3 mb - 0.00 in0.0 mm 0.01 in0.3 mm
05:51 PM 55.9°F13.3°C 50.2°F10.1°C 81% 5.8 mph SSE9.3 kmh SSE 6.9 mph11.1 kmh 28.30 in958.3 mb - 0.00 in0.0 mm 0.01 in0.3 mm
05:52 PM 55.8°F13.2°C 50.1°F10.1°C 81% 6.9 mph S11.1 kmh S 9.2 mph14.8 kmh 28.30 in958.3 mb - 0.00 in0.0 mm 0.01 in0.3 mm
05:53 PM 55.8°F13.2°C 50.1°F10.1°C 81% 5.8 mph SE9.3 kmh SE 8.1 mph13.0 kmh 28.30 in958.3 mb - 0.00 in0.0 mm 0.01 in0.3 mm
05:54 PM 55.8°F13.2°C 50.1°F10.1°C 81% 6.9 mph SE11.1 kmh SE 8.1 mph13.0 kmh 28.30 in958.3 mb - 0.00 in0.0 mm 0.01 in0.3 mm
05:55 PM 55.8°F13.2°C 50.1°F10.1°C 81% 6.9 mph SE11.1 kmh SE 10.4 mph16.7 kmh 28.30 in958.3 mb - 0.00 in0.0 mm 0.01 in0.3 mm
05:56 PM 55.8°F13.2°C 50.1°F10.1°C 81% 3.5 mph SE5.6 kmh SE 3.5 mph5.6 kmh 28.30 in958.3 mb - 0.00 in0.0 mm 0.01 in0.3 mm
05:57 PM 55.6°F13.1°C 49.9°F9.9°C 81% 3.5 mph SSE5.6 kmh SSE 5.8 mph9.3 kmh 28.30 in958.3 mb - 0.00 in0.0 mm 0.01 in0.3 mm
05:58 PM 55.6°F13.1°C 49.9°F9.9°C 81% 4.6 mph SE7.4 kmh SE 5.8 mph9.3 kmh 28.30 in958.3 mb - 0.00 in0.0 mm 0.01 in0.3 mm
05:59 PM 55.6°F13.1°C 49.9°F9.9°C 81% 4.6 mph SSE7.4 kmh SSE 4.6 mph7.4 kmh 28.30 in958.3 mb - 0.00 in0.0 mm 0.01 in0.3 mm
06:00 PM 55.5°F13.1°C 49.8°F9.9°C 81% 3.5 mph ESE5.6 kmh ESE 5.8 mph9.3 kmh 28.30 in958.3 mb - 0.00 in0.0 mm 0.01 in0.3 mm
06:01 PM 55.4°F13.0°C 49.7°F9.8°C 81% 5.8 mph SE9.3 kmh SE 6.9 mph11.1 kmh 28.30 in958.3 mb - 0.00 in0.0 mm 0.01 in0.3 mm
06:02 PM 55.4°F13.0°C 49.7°F9.8°C 81% 5.8 mph ESE9.3 kmh ESE 6.9 mph11.1 kmh 28.30 in958.3 mb - 0.00 in0.0 mm 0.01 in0.3 mm
06:03 PM 55.4°F13.0°C 49.7°F9.8°C 81% 4.6 mph SE7.4 kmh SE 5.8 mph9.3 kmh 28.30 in958.3 mb - 0.00 in0.0 mm 0.01 in0.3 mm
06:04 PM 55.2°F12.9°C 49.5°F9.7°C 81% 4.6 mph SE7.4 kmh SE 6.9 mph11.1 kmh 28.30 in958.3 mb - 0.00 in0.0 mm 0.01 in0.3 mm
06:05 PM 55.2°F12.9°C 49.5°F9.7°C 81% 5.8 mph S9.3 kmh S 5.8 mph9.3 kmh 28.30 in958.3 mb - 0.00 in0.0 mm 0.01 in0.3 mm
06:06 PM 55.2°F12.9°C 49.5°F9.7°C 81% 3.5 mph SSE5.6 kmh SSE 4.6 mph7.4 kmh 28.30 in958.3 mb - 0.00 in0.0 mm 0.01 in0.3 mm
06:07 PM 55.1°F12.8°C 49.7°F9.8°C 82% 3.5 mph SE5.6 kmh SE 3.5 mph5.6 kmh 28.30 in958.3 mb - 0.00 in0.0 mm 0.01 in0.3 mm
06:08 PM 55.0°F12.8°C 49.6°F9.8°C 82% 3.5 mph S5.6 kmh S 5.8 mph9.3 kmh 28.30 in958.3 mb - 0.00 in0.0 mm 0.01 in0.3 mm
06:09 PM 55.0°F12.8°C 49.6°F9.8°C 82% 4.6 mph E7.4 kmh E 5.8 mph9.3 kmh 28.30 in958.3 mb - 0.00 in0.0 mm 0.01 in0.3 mm
06:10 PM 55.0°F12.8°C 49.6°F9.8°C 82% 4.6 mph SE7.4 kmh SE 5.8 mph9.3 kmh 28.30 in958.3 mb - 0.00 in0.0 mm 0.01 in0.3 mm
06:11 PM 55.0°F12.8°C 49.6°F9.8°C 82% 4.6 mph SSE7.4 kmh SSE 8.1 mph13.0 kmh 28.30 in958.3 mb - 0.00 in0.0 mm 0.01 in0.3 mm
06:12 PM 55.0°F12.8°C 49.6°F9.8°C 82% 5.8 mph SE9.3 kmh SE 5.8 mph9.3 kmh 28.30 in958.3 mb - 0.00 in0.0 mm 0.01 in0.3 mm
06:13 PM 55.0°F12.8°C 49.6°F9.8°C 82% 4.6 mph SSE7.4 kmh SSE 6.9 mph11.1 kmh 28.30 in958.3 mb - 0.00 in0.0 mm 0.01 in0.3 mm
06:14 PM 55.0°F12.8°C 49.6°F9.8°C 82% 5.8 mph SSE9.3 kmh SSE 6.9 mph11.1 kmh 28.30 in958.3 mb - 0.00 in0.0 mm 0.01 in0.3 mm
06:15 PM 55.0°F12.8°C 49.6°F9.8°C 82% 4.6 mph SE7.4 kmh SE 5.8 mph9.3 kmh 28.30 in958.3 mb - 0.00 in0.0 mm 0.01 in0.3 mm
06:16 PM 55.0°F12.8°C 49.6°F9.8°C 82% 4.6 mph SE7.4 kmh SE 4.6 mph7.4 kmh 28.30 in958.3 mb - 0.00 in0.0 mm 0.01 in0.3 mm
06:17 PM 55.0°F12.8°C 49.6°F9.8°C 82% 3.5 mph SSE5.6 kmh SSE 4.6 mph7.4 kmh 28.30 in958.3 mb - 0.00 in0.0 mm 0.01 in0.3 mm
06:18 PM 54.9°F12.7°C 49.5°F9.7°C 82% 3.5 mph SE5.6 kmh SE 3.5 mph5.6 kmh 28.30 in958.3 mb - 0.00 in0.0 mm 0.01 in0.3 mm
06:19 PM 54.7°F12.6°C 49.3°F9.6°C 82% 3.5 mph ESE5.6 kmh ESE 5.8 mph9.3 kmh 28.30 in958.3 mb - 0.00 in0.0 mm 0.01 in0.3 mm
06:20 PM 54.7°F12.6°C 49.3°F9.6°C 82% 4.6 mph ESE7.4 kmh ESE 5.8 mph9.3 kmh 28.30 in958.3 mb - 0.00 in0.0 mm 0.01 in0.3 mm
06:21 PM 54.7°F12.6°C 49.3°F9.6°C 82% 4.6 mph SE7.4 kmh SE 4.6 mph7.4 kmh 28.30 in958.3 mb - 0.00 in0.0 mm 0.01 in0.3 mm
06:22 PM 54.7°F12.6°C 49.3°F9.6°C 82% 4.6 mph SSE7.4 kmh SSE 5.8 mph9.3 kmh 28.30 in958.3 mb - 0.00 in0.0 mm 0.01 in0.3 mm
06:23 PM 54.6°F12.6°C 49.2°F9.6°C 82% 3.5 mph SSE5.6 kmh SSE 3.5 mph5.6 kmh 28.30 in958.3 mb - 0.00 in0.0 mm 0.01 in0.3 mm
06:24 PM 54.5°F12.5°C 49.4°F9.7°C 83% 3.5 mph SSE5.6 kmh SSE 5.8 mph9.3 kmh 28.30 in958.3 mb - 0.00 in0.0 mm 0.01 in0.3 mm
06:25 PM 54.5°F12.5°C 49.4°F9.7°C 83% 3.5 mph SSE5.6 kmh SSE 3.5 mph5.6 kmh 28.30 in958.3 mb - 0.00 in0.0 mm 0.01 in0.3 mm
06:26 PM 54.4°F12.4°C 49.4°F9.7°C 83% 2.3 mph SE3.7 kmh SE 3.5 mph5.6 kmh 28.30 in958.3 mb - 0.00 in0.0 mm 0.01 in0.3 mm
06:27 PM 54.3°F12.4°C 49.2°F9.6°C 83% 2.3 mph ENE3.7 kmh ENE 3.5 mph5.6 kmh 28.30 in958.3 mb - 0.00 in0.0 mm 0.01 in0.3 mm
06:28 PM 54.3°F12.4°C 49.2°F9.6°C 83% 3.5 mph SSE5.6 kmh SSE 6.9 mph11.1 kmh 28.30 in958.3 mb - 0.00 in0.0 mm 0.01 in0.3 mm
06:29 PM 54.3°F12.4°C 49.2°F9.6°C 83% 3.5 mph SE5.6 kmh SE 5.8 mph9.3 kmh 28.30 in958.3 mb - 0.00 in0.0 mm 0.01 in0.3 mm
06:30 PM 54.2°F12.3°C 49.1°F9.5°C 83% 3.5 mph SE5.6 kmh SE 4.6 mph7.4 kmh 28.30 in958.3 mb - 0.00 in0.0 mm 0.01 in0.3 mm
06:31 PM 54.1°F12.3°C 49.1°F9.5°C 83% 3.5 mph E5.6 kmh E 6.9 mph11.1 kmh 28.30 in958.3 mb - 0.00 in0.0 mm 0.01 in0.3 mm
06:32 PM 54.1°F12.3°C 49.1°F9.5°C 83% 4.6 mph S7.4 kmh S 10.4 mph16.7 kmh 28.30 in958.3 mb - 0.00 in0.0 mm 0.01 in0.3 mm
06:33 PM 54.3°F12.4°C 49.2°F9.6°C 83% 5.8 mph SSE9.3 kmh SSE 10.4 mph16.7 kmh 28.30 in958.3 mb - 0.00 in0.0 mm 0.01 in0.3 mm
06:34 PM 54.3°F12.4°C 49.2°F9.6°C 83% 3.5 mph SE5.6 kmh SE 6.9 mph11.1 kmh 28.30 in958.3 mb - 0.00 in0.0 mm 0.01 in0.3 mm
06:35 PM 54.3°F12.4°C 49.2°F9.6°C 83% 5.8 mph ESE9.3 kmh ESE 6.9 mph11.1 kmh 28.30 in958.3 mb - 0.00 in0.0 mm 0.01 in0.3 mm
06:36 PM 54.3°F12.4°C 49.2°F9.6°C 83% 3.5 mph SE5.6 kmh SE 2.3 mph3.7 kmh 28.30 in958.3 mb - 0.00 in0.0 mm 0.01 in0.3 mm
06:37 PM 54.3°F12.4°C 49.2°F9.6°C 83% 3.5 mph S5.6 kmh S 5.8 mph9.3 kmh 28.30 in958.3 mb - 0.00 in0.0 mm 0.01 in0.3 mm
06:38 PM 54.3°F12.4°C 49.2°F9.6°C 83% 3.5 mph SE5.6 kmh SE 3.5 mph5.6 kmh 28.30 in958.3 mb - 0.00 in0.0 mm 0.01 in0.3 mm
06:39 PM 54.1°F12.3°C 49.1°F9.5°C 83% 2.3 mph S3.7 kmh S 5.8 mph9.3 kmh 28.30 in958.3 mb - 0.00 in0.0 mm 0.01 in0.3 mm
06:40 PM 54.1°F12.3°C 49.1°F9.5°C 83% 3.5 mph SE5.6 kmh SE 5.8 mph9.3 kmh 28.30 in958.3 mb - 0.00 in0.0 mm 0.01 in0.3 mm
06:41 PM 54.1°F12.3°C 49.1°F9.5°C 83% 3.5 mph 5.6 kmh 8.1 mph13.0 kmh 28.30 in958.3 mb - 0.00 in0.0 mm 0.01 in0.3 mm
06:42 PM 54.1°F12.3°C 49.1°F9.5°C 83% 3.5 mph SSE5.6 kmh SSE 4.6 mph7.4 kmh 28.30 in958.3 mb - 0.00 in0.0 mm 0.01 in0.3 mm
06:43 PM 54.1°F12.3°C 49.1°F9.5°C 83% 2.3 mph S3.7 kmh S 4.6 mph7.4 kmh 28.30 in958.3 mb - 0.00 in0.0 mm 0.01 in0.3 mm
06:44 PM 54.1°F12.3°C 49.1°F9.5°C 83% 4.6 mph SE7.4 kmh SE 9.2 mph14.8 kmh 28.30 in958.3 mb - 0.00 in0.0 mm 0.01 in0.3 mm
06:45 PM 54.1°F12.3°C 49.1°F9.5°C 83% 5.8 mph ESE9.3 kmh ESE 9.2 mph14.8 kmh 28.30 in958.3 mb - 0.00 in0.0 mm 0.01 in0.3 mm
06:46 PM 54.1°F12.3°C 49.1°F9.5°C 83% 3.5 mph SSE5.6 kmh SSE 5.8 mph9.3 kmh 28.30 in958.3 mb - 0.00 in0.0 mm 0.01 in0.3 mm
06:47 PM 54.1°F12.3°C 49.0°F9.4°C 83% 4.6 mph SE7.4 kmh SE 6.9 mph11.1 kmh 28.30 in958.3 mb - 0.00 in0.0 mm 0.01 in0.3 mm
06:48 PM 54.0°F12.2°C 49.0°F9.4°C 83% 3.5 mph SSE5.6 kmh SSE 8.1 mph13.0 kmh 28.30 in958.3 mb - 0.00 in0.0 mm 0.01 in0.3 mm
06:49 PM 54.0°F12.2°C 49.0°F9.4°C 83% 5.8 mph SE9.3 kmh SE 9.2 mph14.8 kmh 28.30 in958.3 mb - 0.00 in0.0 mm 0.01 in0.3 mm
06:50 PM 54.0°F12.2°C 49.0°F9.4°C 83% 6.9 mph S11.1 kmh S 8.1 mph13.0 kmh 28.31 in958.7 mb - 0.00 in0.0 mm 0.01 in0.3 mm
06:51 PM 54.0°F12.2°C 49.0°F9.4°C 83% 4.6 mph E7.4 kmh E 5.8 mph9.3 kmh 28.31 in958.7 mb - 0.00 in0.0 mm 0.01 in0.3 mm
06:52 PM 54.0°F12.2°C 49.0°F9.4°C 83% 3.5 mph ESE5.6 kmh ESE 10.4 mph16.7 kmh 28.31 in958.7 mb - 0.00 in0.0 mm 0.01 in0.3 mm
06:53 PM 54.0°F12.2°C 49.0°F9.4°C 83% 6.9 mph SE11.1 kmh SE 10.4 mph16.7 kmh 28.31 in958.7 mb - 0.00 in0.0 mm 0.01 in0.3 mm
06:54 PM 54.0°F12.2°C 49.0°F9.4°C 83% 6.9 mph E11.1 kmh E 5.8 mph9.3 kmh 28.31 in958.7 mb - 0.00 in0.0 mm 0.01 in0.3 mm
06:55 PM 54.0°F12.2°C 49.0°F9.4°C 83% 4.6 mph E7.4 kmh E 5.8 mph9.3 kmh 28.31 in958.7 mb - 0.00 in0.0 mm 0.01 in0.3 mm
06:56 PM 54.0°F12.2°C 49.0°F9.4°C 83% 4.6 mph SSE7.4 kmh SSE 5.8 mph9.3 kmh 28.31 in958.7 mb - 0.00 in0.0 mm 0.01 in0.3 mm
06:57 PM 53.8°F12.1°C 48.8°F9.3°C 83% 3.5 mph SE5.6 kmh SE 5.8 mph9.3 kmh 28.31 in958.7 mb - 0.00 in0.0 mm 0.01 in0.3 mm
06:58 PM 53.8°F12.1°C 48.8°F9.3°C 83% 3.5 mph E5.6 kmh E 5.8 mph9.3 kmh 28.31 in958.7 mb - 0.00 in0.0 mm 0.01 in0.3 mm
06:59 PM 53.8°F12.1°C 48.8°F9.3°C 83% 4.6 mph S7.4 kmh S 6.9 mph11.1 kmh 28.31 in958.7 mb - 0.00 in0.0 mm 0.01 in0.3 mm
07:00 PM 53.8°F12.1°C 48.8°F9.3°C 83% 5.8 mph ESE9.3 kmh ESE 10.4 mph16.7 kmh 28.31 in958.7 mb - 0.00 in0.0 mm 0.01 in0.3 mm
07:01 PM 53.8°F12.1°C 48.8°F9.3°C 83% 8.1 mph SSE13.0 kmh SSE 10.4 mph16.7 kmh 28.31 in958.7 mb - 0.00 in0.0 mm 0.01 in0.3 mm
07:02 PM 53.8°F12.1°C 48.8°F9.3°C 83% 5.8 mph ESE9.3 kmh ESE 10.4 mph16.7 kmh 28.31 in958.7 mb - 0.00 in0.0 mm 0.01 in0.3 mm
07:03 PM 53.8°F12.1°C 48.8°F9.3°C 83% 4.6 mph S7.4 kmh S 5.8 mph9.3 kmh 28.31 in958.7 mb - 0.00 in0.0 mm 0.01 in0.3 mm
07:04 PM 53.8°F12.1°C 48.8°F9.3°C 83% 4.6 mph ESE7.4 kmh ESE 6.9 mph11.1 kmh 28.31 in958.7 mb - 0.00 in0.0 mm 0.01 in0.3 mm
07:05 PM 53.8°F12.1°C 48.8°F9.3°C 83% 4.6 mph SE7.4 kmh SE 9.2 mph14.8 kmh 28.31 in958.7 mb - 0.00 in0.0 mm 0.01 in0.3 mm
07:06 PM 53.8°F12.1°C 48.8°F9.3°C 83% 4.6 mph SE7.4 kmh SE 9.2 mph14.8 kmh 28.31 in958.7 mb - 0.00 in0.0 mm 0.01 in0.3 mm
07:07 PM 53.8°F12.1°C 48.8°F9.3°C 83% 4.6 mph SE7.4 kmh SE 4.6 mph7.4 kmh 28.31 in958.7 mb - 0.00 in0.0 mm 0.01 in0.3 mm
07:08 PM 53.8°F12.1°C 48.8°F9.3°C 83% 3.5 mph ESE5.6 kmh ESE 3.5 mph5.6 kmh 28.31 in958.7 mb - 0.00 in0.0 mm 0.01 in0.3 mm
07:09 PM 53.8°F12.1°C 48.8°F9.3°C 83% 3.5 mph SE5.6 kmh SE 3.5 mph5.6 kmh 28.31 in958.7 mb - 0.00 in0.0 mm 0.01 in0.3 mm
07:10 PM 53.8°F12.1°C 48.8°F9.3°C 83% 2.3 mph SE3.7 kmh SE 2.3 mph3.7 kmh 28.31 in958.7 mb - 0.00 in0.0 mm 0.01 in0.3 mm
07:11 PM 53.7°F12.1°C 48.7°F9.3°C 83% 2.3 mph ESE3.7 kmh ESE 2.3 mph3.7 kmh 28.31 in958.7 mb - 0.00 in0.0 mm 0.01 in0.3 mm
07:12 PM 53.6°F12.0°C 48.6°F9.2°C 83% 2.3 mph SE3.7 kmh SE 4.6 mph7.4 kmh 28.31 in958.7 mb - 0.00 in0.0 mm 0.01 in0.3 mm
07:13 PM 53.6°F12.0°C 48.6°F9.2°C 83% 3.5 mph E5.6 kmh E 4.6 mph7.4 kmh 28.31 in958.7 mb - 0.00 in0.0 mm 0.01 in0.3 mm
07:14 PM 53.6°F12.0°C 48.6°F9.2°C 83% 3.5 mph SE5.6 kmh SE 5.8 mph9.3 kmh 28.31 in958.7 mb - 0.00 in0.0 mm 0.01 in0.3 mm
07:15 PM 53.6°F12.0°C 48.6°F9.2°C 83% 2.3 mph ESE3.7 kmh ESE 2.3 mph3.7 kmh 28.31 in958.7 mb - 0.00 in0.0 mm 0.01 in0.3 mm
07:16 PM 53.6°F12.0°C 48.6°F9.2°C 83% 1.2 mph SSE1.9 kmh SSE 9.2 mph14.8 kmh 28.31 in958.7 mb - 0.00 in0.0 mm 0.01 in0.3 mm
07:17 PM 53.4°F11.9°C 48.7°F9.3°C 84% 4.6 mph S7.4 kmh S 9.2 mph14.8 kmh 28.31 in958.7 mb - 0.00 in0.0 mm 0.01 in0.3 mm
07:18 PM 53.4°F11.9°C 48.7°F9.3°C 84% 4.6 mph SE7.4 kmh SE 5.8 mph9.3 kmh 28.31 in958.7 mb - 0.00 in0.0 mm 0.01 in0.3 mm
07:19 PM 53.4°F11.9°C 48.7°F9.3°C 84% 4.6 mph SE7.4 kmh SE 9.2 mph14.8 kmh 28.31 in958.7 mb - 0.00 in0.0 mm 0.01 in0.3 mm
07:20 PM 53.4°F11.9°C 48.7°F9.3°C 84% 4.6 mph S7.4 kmh S 9.2 mph14.8 kmh 28.31 in958.7 mb - 0.00 in0.0 mm 0.01 in0.3 mm
07:21 PM 53.4°F11.9°C 48.7°F9.3°C 84% 3.5 mph SE5.6 kmh SE 4.6 mph7.4 kmh 28.31 in958.7 mb - 0.00 in0.0 mm 0.01 in0.3 mm
07:22 PM 53.4°F11.9°C 48.7°F9.3°C 84% 3.5 mph SSE5.6 kmh SSE 4.6 mph7.4 kmh 28.31 in958.7 mb - 0.00 in0.0 mm 0.01 in0.3 mm
07:23 PM 53.4°F11.9°C 48.7°F9.3°C 84% 4.6 mph SSE7.4 kmh SSE 5.8 mph9.3 kmh 28.31 in958.7 mb - 0.00 in0.0 mm 0.01 in0.3 mm
07:24 PM 53.4°F11.9°C 48.7°F9.3°C 84% 4.6 mph SE7.4 kmh SE 5.8 mph9.3 kmh 28.31 in958.7 mb - 0.00 in0.0 mm 0.01 in0.3 mm
07:25 PM 53.5°F11.9°C 48.7°F9.3°C 84% 4.6 mph SE7.4 kmh SE 5.8 mph9.3 kmh 28.31 in958.7 mb - 0.00 in0.0 mm 0.01 in0.3 mm
07:26 PM 53.6°F12.0°C 48.9°F9.4°C 84% 4.6 mph E7.4 kmh E 5.8 mph9.3 kmh 28.31 in958.7 mb - 0.00 in0.0 mm 0.01 in0.3 mm
07:27 PM 53.6°F12.0°C 48.9°F9.4°C 84% 3.5 mph ESE5.6 kmh ESE 5.8 mph9.3 kmh 28.31 in958.7 mb - 0.00 in0.0 mm 0.01 in0.3 mm
07:28 PM 53.6°F12.0°C 48.9°F9.4°C 84% 4.6 mph SE7.4 kmh SE 5.8 mph9.3 kmh 28.31 in958.7 mb - 0.00 in0.0 mm 0.01 in0.3 mm
07:29 PM 53.8°F12.1°C 49.0°F9.4°C 84% 4.6 mph SE7.4 kmh SE 8.1 mph13.0 kmh 28.31 in958.7 mb - 0.00 in0.0 mm 0.01 in0.3 mm
07:30 PM 53.8°F12.1°C 49.1°F9.5°C 84% 4.6 mph SE7.4 kmh SE 4.6 mph7.4 kmh 28.31 in958.7 mb - 0.00 in0.0 mm 0.01 in0.3 mm
07:31 PM 53.8°F12.1°C 49.1°F9.5°C 84% 3.5 mph SSE5.6 kmh SSE 4.6 mph7.4 kmh 28.31 in958.7 mb - 0.00 in0.0 mm 0.01 in0.3 mm
07:32 PM 53.8°F12.1°C 49.1°F9.5°C 84% 3.5 mph SE5.6 kmh SE 5.8 mph9.3 kmh 28.31 in958.7 mb - 0.00 in0.0 mm 0.01 in0.3 mm
07:33 PM 53.9°F12.2°C 49.2°F9.6°C 84% 4.6 mph S7.4 kmh S 5.8 mph9.3 kmh 28.31 in958.7 mb - 0.00 in0.0 mm 0.01 in0.3 mm
07:34 PM 54.0°F12.2°C 49.0°F9.4°C 83% 5.8 mph S9.3 kmh S 6.9 mph11.1 kmh 28.31 in958.7 mb - 0.00 in0.0 mm 0.01 in0.3 mm
07:35 PM 54.0°F12.2°C 49.0°F9.4°C 83% 4.6 mph SE7.4 kmh SE 4.6 mph7.4 kmh 28.31 in958.7 mb - 0.00 in0.0 mm 0.01 in0.3 mm
07:36 PM 54.0°F12.2°C 49.0°F9.4°C 83% 2.3 mph SSE3.7 kmh SSE 3.5 mph5.6 kmh 28.31 in958.7 mb - 0.00 in0.0 mm 0.01 in0.3 mm
07:37 PM 54.0°F12.2°C 49.0°F9.4°C 83% 2.3 mph ESE3.7 kmh ESE 4.6 mph7.4 kmh 28.31 in958.7 mb - 0.00 in0.0 mm 0.01 in0.3 mm
07:38 PM 54.0°F12.2°C 49.0°F9.4°C 83% 3.5 mph S5.6 kmh S 4.6 mph7.4 kmh 28.31 in958.7 mb - 0.00 in0.0 mm 0.01 in0.3 mm
07:39 PM 54.0°F12.2°C 49.0°F9.4°C 83% 3.5 mph S5.6 kmh S 9.2 mph14.8 kmh 28.31 in958.7 mb - 0.00 in0.0 mm 0.01 in0.3 mm
07:40 PM 54.0°F12.2°C 49.0°F9.4°C 83% 5.8 mph ESE9.3 kmh ESE 9.2 mph14.8 kmh 28.31 in958.7 mb - 0.00 in0.0 mm 0.01 in0.3 mm
07:41 PM 54.0°F12.2°C 49.0°F9.4°C 83% 5.8 mph SSE9.3 kmh SSE 9.2 mph14.8 kmh 28.31 in958.7 mb - 0.00 in0.0 mm 0.01 in0.3 mm
07:42 PM 54.0°F12.2°C 49.0°F9.4°C 83% 4.6 mph S7.4 kmh S 8.1 mph13.0 kmh 28.31 in958.7 mb - 0.00 in0.0 mm 0.01 in0.3 mm
07:43 PM 54.1°F12.3°C 49.1°F9.5°C 83% 5.8 mph SE9.3 kmh SE 5.8 mph9.3 kmh 28.31 in958.7 mb - 0.00 in0.0 mm 0.01 in0.3 mm
07:44 PM 54.1°F12.3°C 49.1°F9.5°C 83% 4.6 mph ESE7.4 kmh ESE 4.6 mph7.4 kmh 28.31 in958.7 mb - 0.00 in0.0 mm 0.01 in0.3 mm
07:45 PM 54.1°F12.3°C 49.1°F9.5°C 83% 2.3 mph E3.7 kmh E 3.5 mph5.6 kmh 28.31 in958.7 mb - 0.00 in0.0 mm 0.01 in0.3 mm
07:46 PM 54.1°F12.3°C 49.1°F9.5°C 83% 3.5 mph ENE5.6 kmh ENE 8.1 mph13.0 kmh 28.31 in958.7 mb - 0.00 in0.0 mm 0.01 in0.3 mm
07:47 PM 54.1°F12.3°C 49.1°F9.5°C 83% 4.6 mph E7.4 kmh E 4.6 mph7.4 kmh 28.31 in958.7 mb - 0.00 in0.0 mm 0.01 in0.3 mm
07:48 PM 54.1°F12.3°C 49.1°F9.5°C 83% 2.3 mph S3.7 kmh S 2.3 mph3.7 kmh 28.31 in958.7 mb - 0.00 in0.0 mm 0.01 in0.3 mm
07:49 PM 54.1°F12.3°C 49.0°F9.4°C 83% 2.3 mph E3.7 kmh E 5.8 mph9.3 kmh 28.31 in958.7 mb - 0.00 in0.0 mm 0.01 in0.3 mm
07:50 PM 54.0°F12.2°C 49.0°F9.4°C 83% 4.6 mph E7.4 kmh E 5.8 mph9.3 kmh 28.31 in958.7 mb - 0.00 in0.0 mm 0.01 in0.3 mm
07:51 PM 54.0°F12.2°C 49.0°F9.4°C 83% 4.6 mph SE7.4 kmh SE 4.6 mph7.4 kmh 28.31 in958.7 mb - 0.00 in0.0 mm 0.01 in0.3 mm
07:52 PM 54.0°F12.2°C 49.0°F9.4°C 83% 4.6 mph S7.4 kmh S 5.8 mph9.3 kmh 28.31 in958.7 mb - 0.00 in0.0 mm 0.01 in0.3 mm
07:53 PM 54.0°F12.2°C 48.7°F9.3°C 82% 4.6 mph SE7.4 kmh SE 5.8 mph9.3 kmh 28.31 in958.7 mb - 0.00 in0.0 mm 0.01 in0.3 mm
07:54 PM 54.1°F12.3°C 48.7°F9.3°C 82% 4.6 mph ESE7.4 kmh ESE 5.8 mph9.3 kmh 28.31 in958.7 mb - 0.00 in0.0 mm 0.01 in0.3 mm
07:55 PM 54.1°F12.3°C 48.7°F9.3°C 82% 3.5 mph E5.6 kmh E 3.5 mph5.6 kmh 28.31 in958.7 mb - 0.00 in0.0 mm 0.01 in0.3 mm
07:56 PM 54.1°F12.3°C 48.7°F9.3°C 82% 4.6 mph SSE7.4 kmh SSE 9.2 mph14.8 kmh 28.31 in958.7 mb - 0.00 in0.0 mm 0.01 in0.3 mm
07:57 PM 54.1°F12.3°C 48.7°F9.3°C 82% 6.9 mph NE11.1 kmh NE 6.9 mph11.1 kmh 28.31 in958.7 mb - 0.00 in0.0 mm 0.01 in0.3 mm
07:58 PM 54.1°F12.3°C